<?xml version="1.0" encoding="UTF-8" standalone="no" ?>
<gpx xmlns="http://www.topografix.com/GPX/1/1" xmlns:xsi="http://www.w3.org/2001/XMLSchema-instance" xsi:schemaLocation="http://www.topografix.com/GPX/1/1 http://www.topografix.com/GPX/1/1/gpx.xsd" version="1.1" creator="VisuGPX - https://www.visugpx.com">
  <metadata>
    <name>83-cd-2011-11-12-Seillans - la Chapelle St Arnoux</name>
    <desc><![CDATA[Seillans - la Chapelle St Arnoux]]></desc>
  </metadata>
  <trk>
    <name><![CDATA[ACTIVE LOG 042-2]]></name>
    <trkseg>
      <trkpt lat="43.63671" lon="6.64571">
        <ele>375.532104</ele>
        <time>2011-12-11T09:29:35Z</time>
      </trkpt>
      <trkpt lat="43.63672" lon="6.64571">
        <ele>395.719849</ele>
        <time>2011-12-11T09:31:16Z</time>
      </trkpt>
      <trkpt lat="43.63672" lon="6.64571">
        <ele>395.719849</ele>
        <time>2011-12-11T09:31:31Z</time>
      </trkpt>
      <trkpt lat="43.63675" lon="6.64569">
        <ele>389.951904</ele>
        <time>2011-12-11T09:32:43Z</time>
      </trkpt>
      <trkpt lat="43.63677" lon="6.64569">
        <ele>389.471191</ele>
        <time>2011-12-11T09:33:17Z</time>
      </trkpt>
      <trkpt lat="43.63676" lon="6.6457">
        <ele>392.355347</ele>
        <time>2011-12-11T09:33:37Z</time>
      </trkpt>
      <trkpt lat="43.63671" lon="6.64564">
        <ele>391.393799</ele>
        <time>2011-12-11T09:34:31Z</time>
      </trkpt>
      <trkpt lat="43.6367" lon="6.64557">
        <ele>389.951904</ele>
        <time>2011-12-11T09:34:46Z</time>
      </trkpt>
      <trkpt lat="43.63667" lon="6.64552">
        <ele>390.432617</ele>
        <time>2011-12-11T09:35:25Z</time>
      </trkpt>
      <trkpt lat="43.63668" lon="6.64536">
        <ele>390.913208</ele>
        <time>2011-12-11T09:35:43Z</time>
      </trkpt>
      <trkpt lat="43.63667" lon="6.64515">
        <ele>390.432617</ele>
        <time>2011-12-11T09:36:07Z</time>
      </trkpt>
      <trkpt lat="43.63666" lon="6.6451">
        <ele>391.393799</ele>
        <time>2011-12-11T09:36:25Z</time>
      </trkpt>
      <trkpt lat="43.63675" lon="6.64501">
        <ele>393.316528</ele>
        <time>2011-12-11T09:37:11Z</time>
      </trkpt>
      <trkpt lat="43.63687" lon="6.64485">
        <ele>393.316528</ele>
        <time>2011-12-11T09:37:33Z</time>
      </trkpt>
      <trkpt lat="43.63694" lon="6.64475">
        <ele>395.719849</ele>
        <time>2011-12-11T09:37:45Z</time>
      </trkpt>
      <trkpt lat="43.63695" lon="6.64474">
        <ele>395.719849</ele>
        <time>2011-12-11T09:37:46Z</time>
      </trkpt>
      <trkpt lat="43.63697" lon="6.64467">
        <ele>398.60376</ele>
        <time>2011-12-11T09:37:56Z</time>
      </trkpt>
      <trkpt lat="43.63701" lon="6.64474">
        <ele>398.60376</ele>
        <time>2011-12-11T09:38:04Z</time>
      </trkpt>
      <trkpt lat="43.63707" lon="6.64481">
        <ele>393.316528</ele>
        <time>2011-12-11T09:38:15Z</time>
      </trkpt>
      <trkpt lat="43.63717" lon="6.64497">
        <ele>388.990601</ele>
        <time>2011-12-11T09:38:32Z</time>
      </trkpt>
      <trkpt lat="43.63722" lon="6.64519">
        <ele>385.145386</ele>
        <time>2011-12-11T09:38:48Z</time>
      </trkpt>
      <trkpt lat="43.63732" lon="6.64548">
        <ele>381.300049</ele>
        <time>2011-12-11T09:39:11Z</time>
      </trkpt>
      <trkpt lat="43.63743" lon="6.64577">
        <ele>380.819458</ele>
        <time>2011-12-11T09:39:33Z</time>
      </trkpt>
      <trkpt lat="43.63753" lon="6.64603">
        <ele>383.703247</ele>
        <time>2011-12-11T09:39:52Z</time>
      </trkpt>
      <trkpt lat="43.63766" lon="6.64634">
        <ele>383.703247</ele>
        <time>2011-12-11T09:40:14Z</time>
      </trkpt>
      <trkpt lat="43.63774" lon="6.64657">
        <ele>382.261353</ele>
        <time>2011-12-11T09:40:31Z</time>
      </trkpt>
      <trkpt lat="43.6378" lon="6.64667">
        <ele>380.819458</ele>
        <time>2011-12-11T09:40:42Z</time>
      </trkpt>
      <trkpt lat="43.63792" lon="6.64697">
        <ele>379.858032</ele>
        <time>2011-12-11T09:41:06Z</time>
      </trkpt>
      <trkpt lat="43.63803" lon="6.6472">
        <ele>377.454834</ele>
        <time>2011-12-11T09:41:26Z</time>
      </trkpt>
      <trkpt lat="43.63807" lon="6.6473">
        <ele>380.819458</ele>
        <time>2011-12-11T09:41:32Z</time>
      </trkpt>
      <trkpt lat="43.63813" lon="6.6475">
        <ele>389.951904</ele>
        <time>2011-12-11T09:41:49Z</time>
      </trkpt>
      <trkpt lat="43.63813" lon="6.64751">
        <ele>390.913208</ele>
        <time>2011-12-11T09:41:51Z</time>
      </trkpt>
      <trkpt lat="43.63824" lon="6.64771">
        <ele>394.277954</ele>
        <time>2011-12-11T09:42:07Z</time>
      </trkpt>
      <trkpt lat="43.63832" lon="6.6479">
        <ele>394.758545</ele>
        <time>2011-12-11T09:42:22Z</time>
      </trkpt>
      <trkpt lat="43.63841" lon="6.64806">
        <ele>395.239136</ele>
        <time>2011-12-11T09:42:37Z</time>
      </trkpt>
      <trkpt lat="43.63845" lon="6.64815">
        <ele>395.719849</ele>
        <time>2011-12-11T09:42:45Z</time>
      </trkpt>
      <trkpt lat="43.63856" lon="6.64831">
        <ele>395.239136</ele>
        <time>2011-12-11T09:43:02Z</time>
      </trkpt>
      <trkpt lat="43.6386" lon="6.64838">
        <ele>393.797241</ele>
        <time>2011-12-11T09:43:09Z</time>
      </trkpt>
      <trkpt lat="43.63861" lon="6.64841">
        <ele>393.797241</ele>
        <time>2011-12-11T09:43:12Z</time>
      </trkpt>
      <trkpt lat="43.63869" lon="6.64852">
        <ele>395.239136</ele>
        <time>2011-12-11T09:43:26Z</time>
      </trkpt>
      <trkpt lat="43.63869" lon="6.64854">
        <ele>395.239136</ele>
        <time>2011-12-11T09:43:28Z</time>
      </trkpt>
      <trkpt lat="43.63878" lon="6.64869">
        <ele>398.60376</ele>
        <time>2011-12-11T09:43:41Z</time>
      </trkpt>
      <trkpt lat="43.6389" lon="6.6488">
        <ele>401.00708</ele>
        <time>2011-12-11T09:43:58Z</time>
      </trkpt>
      <trkpt lat="43.63906" lon="6.64889">
        <ele>402.929688</ele>
        <time>2011-12-11T09:44:10Z</time>
      </trkpt>
      <trkpt lat="43.63915" lon="6.64899">
        <ele>400.526489</ele>
        <time>2011-12-11T09:44:21Z</time>
      </trkpt>
      <trkpt lat="43.63931" lon="6.64918">
        <ele>398.60376</ele>
        <time>2011-12-11T09:44:40Z</time>
      </trkpt>
      <trkpt lat="43.63932" lon="6.64921">
        <ele>398.60376</ele>
        <time>2011-12-11T09:44:42Z</time>
      </trkpt>
      <trkpt lat="43.63929" lon="6.64954">
        <ele>395.719849</ele>
        <time>2011-12-11T09:45:06Z</time>
      </trkpt>
      <trkpt lat="43.63919" lon="6.64979">
        <ele>394.277954</ele>
        <time>2011-12-11T09:45:25Z</time>
      </trkpt>
      <trkpt lat="43.63915" lon="6.6501">
        <ele>394.277954</ele>
        <time>2011-12-11T09:45:46Z</time>
      </trkpt>
      <trkpt lat="43.63913" lon="6.65028">
        <ele>393.797241</ele>
        <time>2011-12-11T09:46:00Z</time>
      </trkpt>
      <trkpt lat="43.63906" lon="6.65049">
        <ele>393.316528</ele>
        <time>2011-12-11T09:46:16Z</time>
      </trkpt>
      <trkpt lat="43.63903" lon="6.6506">
        <ele>396.681152</ele>
        <time>2011-12-11T09:46:28Z</time>
      </trkpt>
      <trkpt lat="43.63898" lon="6.65068">
        <ele>397.642456</ele>
        <time>2011-12-11T09:46:35Z</time>
      </trkpt>
      <trkpt lat="43.63894" lon="6.65085">
        <ele>399.565063</ele>
        <time>2011-12-11T09:46:46Z</time>
      </trkpt>
      <trkpt lat="43.63891" lon="6.65119">
        <ele>397.642456</ele>
        <time>2011-12-11T09:47:06Z</time>
      </trkpt>
      <trkpt lat="43.63887" lon="6.65151">
        <ele>400.045898</ele>
        <time>2011-12-11T09:47:25Z</time>
      </trkpt>
      <trkpt lat="43.63883" lon="6.65165">
        <ele>402.929688</ele>
        <time>2011-12-11T09:47:36Z</time>
      </trkpt>
      <trkpt lat="43.63875" lon="6.65182">
        <ele>405.813721</ele>
        <time>2011-12-11T09:47:47Z</time>
      </trkpt>
      <trkpt lat="43.63875" lon="6.65185">
        <ele>406.294312</ele>
        <time>2011-12-11T09:47:49Z</time>
      </trkpt>
      <trkpt lat="43.63865" lon="6.65204">
        <ele>411.100952</ele>
        <time>2011-12-11T09:48:05Z</time>
      </trkpt>
      <trkpt lat="43.63863" lon="6.6521">
        <ele>412.542847</ele>
        <time>2011-12-11T09:48:09Z</time>
      </trkpt>
      <trkpt lat="43.63862" lon="6.65212">
        <ele>413.504272</ele>
        <time>2011-12-11T09:48:11Z</time>
      </trkpt>
      <trkpt lat="43.63852" lon="6.65227">
        <ele>418.791504</ele>
        <time>2011-12-11T09:48:26Z</time>
      </trkpt>
      <trkpt lat="43.63847" lon="6.65233">
        <ele>420.714111</ele>
        <time>2011-12-11T09:48:32Z</time>
      </trkpt>
      <trkpt lat="43.63839" lon="6.65246">
        <ele>425.040161</ele>
        <time>2011-12-11T09:48:46Z</time>
      </trkpt>
      <trkpt lat="43.63838" lon="6.6525">
        <ele>426.482056</ele>
        <time>2011-12-11T09:48:49Z</time>
      </trkpt>
      <trkpt lat="43.63841" lon="6.65266">
        <ele>428.885376</ele>
        <time>2011-12-11T09:49:03Z</time>
      </trkpt>
      <trkpt lat="43.63842" lon="6.65272">
        <ele>429.365967</ele>
        <time>2011-12-11T09:49:13Z</time>
      </trkpt>
      <trkpt lat="43.63836" lon="6.65282">
        <ele>429.846558</ele>
        <time>2011-12-11T09:49:20Z</time>
      </trkpt>
      <trkpt lat="43.6383" lon="6.653">
        <ele>426.001343</ele>
        <time>2011-12-11T09:49:35Z</time>
      </trkpt>
      <trkpt lat="43.63828" lon="6.65315">
        <ele>418.791504</ele>
        <time>2011-12-11T09:49:45Z</time>
      </trkpt>
      <trkpt lat="43.63835" lon="6.65347">
        <ele>413.02356</ele>
        <time>2011-12-11T09:50:05Z</time>
      </trkpt>
      <trkpt lat="43.63836" lon="6.65354">
        <ele>412.062256</ele>
        <time>2011-12-11T09:50:10Z</time>
      </trkpt>
      <trkpt lat="43.63837" lon="6.65357">
        <ele>412.062256</ele>
        <time>2011-12-11T09:50:12Z</time>
      </trkpt>
      <trkpt lat="43.6384" lon="6.65365">
        <ele>411.581665</ele>
        <time>2011-12-11T09:50:17Z</time>
      </trkpt>
      <trkpt lat="43.63845" lon="6.65375">
        <ele>410.139648</ele>
        <time>2011-12-11T09:50:24Z</time>
      </trkpt>
      <trkpt lat="43.63858" lon="6.65402">
        <ele>406.294312</ele>
        <time>2011-12-11T09:50:44Z</time>
      </trkpt>
      <trkpt lat="43.63859" lon="6.65411">
        <ele>406.294312</ele>
        <time>2011-12-11T09:50:50Z</time>
      </trkpt>
      <trkpt lat="43.63866" lon="6.65428">
        <ele>401.968506</ele>
        <time>2011-12-11T09:51:03Z</time>
      </trkpt>
      <trkpt lat="43.63876" lon="6.6545">
        <ele>399.084351</ele>
        <time>2011-12-11T09:51:18Z</time>
      </trkpt>
      <trkpt lat="43.63884" lon="6.65474">
        <ele>397.161743</ele>
        <time>2011-12-11T09:51:35Z</time>
      </trkpt>
      <trkpt lat="43.63895" lon="6.65508">
        <ele>394.277954</ele>
        <time>2011-12-11T09:52:00Z</time>
      </trkpt>
      <trkpt lat="43.63898" lon="6.65518">
        <ele>394.758545</ele>
        <time>2011-12-11T09:52:06Z</time>
      </trkpt>
      <trkpt lat="43.63898" lon="6.65552">
        <ele>394.758545</ele>
        <time>2011-12-11T09:52:26Z</time>
      </trkpt>
      <trkpt lat="43.639" lon="6.65579">
        <ele>394.277954</ele>
        <time>2011-12-11T09:52:42Z</time>
      </trkpt>
      <trkpt lat="43.63901" lon="6.65585">
        <ele>394.758545</ele>
        <time>2011-12-11T09:52:45Z</time>
      </trkpt>
      <trkpt lat="43.63909" lon="6.656">
        <ele>395.239136</ele>
        <time>2011-12-11T09:52:57Z</time>
      </trkpt>
      <trkpt lat="43.63918" lon="6.65607">
        <ele>396.681152</ele>
        <time>2011-12-11T09:53:07Z</time>
      </trkpt>
      <trkpt lat="43.63925" lon="6.65629">
        <ele>397.642456</ele>
        <time>2011-12-11T09:53:23Z</time>
      </trkpt>
      <trkpt lat="43.63927" lon="6.65632">
        <ele>397.642456</ele>
        <time>2011-12-11T09:53:25Z</time>
      </trkpt>
      <trkpt lat="43.63934" lon="6.65652">
        <ele>398.60376</ele>
        <time>2011-12-11T09:53:44Z</time>
      </trkpt>
      <trkpt lat="43.63942" lon="6.65663">
        <ele>401.487793</ele>
        <time>2011-12-11T09:53:58Z</time>
      </trkpt>
      <trkpt lat="43.63951" lon="6.6567">
        <ele>403.891113</ele>
        <time>2011-12-11T09:54:10Z</time>
      </trkpt>
      <trkpt lat="43.63959" lon="6.65679">
        <ele>405.813721</ele>
        <time>2011-12-11T09:54:25Z</time>
      </trkpt>
      <trkpt lat="43.63969" lon="6.65685">
        <ele>406.774902</ele>
        <time>2011-12-11T09:54:39Z</time>
      </trkpt>
      <trkpt lat="43.63975" lon="6.65694">
        <ele>409.659058</ele>
        <time>2011-12-11T09:54:51Z</time>
      </trkpt>
      <trkpt lat="43.63985" lon="6.65704">
        <ele>411.100952</ele>
        <time>2011-12-11T09:55:06Z</time>
      </trkpt>
      <trkpt lat="43.63991" lon="6.65712">
        <ele>409.659058</ele>
        <time>2011-12-11T09:55:17Z</time>
      </trkpt>
      <trkpt lat="43.63999" lon="6.65718">
        <ele>409.178345</ele>
        <time>2011-12-11T09:55:30Z</time>
      </trkpt>
      <trkpt lat="43.64" lon="6.65718">
        <ele>409.178345</ele>
        <time>2011-12-11T09:55:31Z</time>
      </trkpt>
      <trkpt lat="43.6401" lon="6.65729">
        <ele>408.697632</ele>
        <time>2011-12-11T09:55:45Z</time>
      </trkpt>
      <trkpt lat="43.64016" lon="6.65735">
        <ele>408.697632</ele>
        <time>2011-12-11T09:56:01Z</time>
      </trkpt>
      <trkpt lat="43.64028" lon="6.65748">
        <ele>411.581665</ele>
        <time>2011-12-11T09:56:22Z</time>
      </trkpt>
      <trkpt lat="43.64033" lon="6.65753">
        <ele>412.542847</ele>
        <time>2011-12-11T09:56:30Z</time>
      </trkpt>
      <trkpt lat="43.64039" lon="6.65759">
        <ele>417.8302</ele>
        <time>2011-12-11T09:56:43Z</time>
      </trkpt>
      <trkpt lat="43.64049" lon="6.65766">
        <ele>424.559448</ele>
        <time>2011-12-11T09:56:59Z</time>
      </trkpt>
      <trkpt lat="43.64055" lon="6.65767">
        <ele>427.92395</ele>
        <time>2011-12-11T09:57:07Z</time>
      </trkpt>
      <trkpt lat="43.64069" lon="6.65766">
        <ele>431.769165</ele>
        <time>2011-12-11T09:57:21Z</time>
      </trkpt>
      <trkpt lat="43.6408" lon="6.65761">
        <ele>435.133911</ele>
        <time>2011-12-11T09:57:33Z</time>
      </trkpt>
      <trkpt lat="43.64081" lon="6.65761">
        <ele>435.133911</ele>
        <time>2011-12-11T09:57:35Z</time>
      </trkpt>
      <trkpt lat="43.64082" lon="6.65762">
        <ele>437.537109</ele>
        <time>2011-12-11T09:57:38Z</time>
      </trkpt>
      <trkpt lat="43.64086" lon="6.65768">
        <ele>441.863159</ele>
        <time>2011-12-11T09:57:47Z</time>
      </trkpt>
      <trkpt lat="43.6409" lon="6.65783">
        <ele>448.592407</ele>
        <time>2011-12-11T09:58:05Z</time>
      </trkpt>
      <trkpt lat="43.64098" lon="6.65791">
        <ele>451.476318</ele>
        <time>2011-12-11T09:58:18Z</time>
      </trkpt>
      <trkpt lat="43.64105" lon="6.65802">
        <ele>457.724976</ele>
        <time>2011-12-11T09:58:33Z</time>
      </trkpt>
      <trkpt lat="43.6411" lon="6.65822">
        <ele>462.531372</ele>
        <time>2011-12-11T09:58:51Z</time>
      </trkpt>
      <trkpt lat="43.64115" lon="6.65839">
        <ele>465.415527</ele>
        <time>2011-12-11T09:59:06Z</time>
      </trkpt>
      <trkpt lat="43.64119" lon="6.65854">
        <ele>467.338135</ele>
        <time>2011-12-11T09:59:21Z</time>
      </trkpt>
      <trkpt lat="43.64124" lon="6.65866">
        <ele>468.299316</ele>
        <time>2011-12-11T09:59:33Z</time>
      </trkpt>
      <trkpt lat="43.64124" lon="6.65867">
        <ele>468.299316</ele>
        <time>2011-12-11T09:59:34Z</time>
      </trkpt>
      <trkpt lat="43.64131" lon="6.65872">
        <ele>470.221924</ele>
        <time>2011-12-11T09:59:42Z</time>
      </trkpt>
      <trkpt lat="43.64142" lon="6.65869">
        <ele>470.702637</ele>
        <time>2011-12-11T09:59:59Z</time>
      </trkpt>
      <trkpt lat="43.64155" lon="6.65866">
        <ele>471.66394</ele>
        <time>2011-12-11T10:00:17Z</time>
      </trkpt>
      <trkpt lat="43.6416" lon="6.65874">
        <ele>472.144653</ele>
        <time>2011-12-11T10:00:28Z</time>
      </trkpt>
      <trkpt lat="43.64164" lon="6.65883">
        <ele>472.625366</ele>
        <time>2011-12-11T10:00:40Z</time>
      </trkpt>
      <trkpt lat="43.64174" lon="6.65891">
        <ele>475.028687</ele>
        <time>2011-12-11T10:00:55Z</time>
      </trkpt>
      <trkpt lat="43.64181" lon="6.65898">
        <ele>478.393188</ele>
        <time>2011-12-11T10:01:11Z</time>
      </trkpt>
      <trkpt lat="43.64182" lon="6.659">
        <ele>478.873901</ele>
        <time>2011-12-11T10:01:14Z</time>
      </trkpt>
      <trkpt lat="43.64192" lon="6.65909">
        <ele>479.835083</ele>
        <time>2011-12-11T10:01:28Z</time>
      </trkpt>
      <trkpt lat="43.642" lon="6.65915">
        <ele>479.354492</ele>
        <time>2011-12-11T10:01:39Z</time>
      </trkpt>
      <trkpt lat="43.64205" lon="6.65922">
        <ele>481.757813</ele>
        <time>2011-12-11T10:01:54Z</time>
      </trkpt>
      <trkpt lat="43.64213" lon="6.65932">
        <ele>484.161133</ele>
        <time>2011-12-11T10:02:10Z</time>
      </trkpt>
      <trkpt lat="43.64221" lon="6.65945">
        <ele>487.045044</ele>
        <time>2011-12-11T10:02:25Z</time>
      </trkpt>
      <trkpt lat="43.64222" lon="6.65956">
        <ele>488.00647</ele>
        <time>2011-12-11T10:02:35Z</time>
      </trkpt>
      <trkpt lat="43.64217" lon="6.65977">
        <ele>488.00647</ele>
        <time>2011-12-11T10:02:55Z</time>
      </trkpt>
      <trkpt lat="43.64211" lon="6.65989">
        <ele>489.448364</ele>
        <time>2011-12-11T10:03:10Z</time>
      </trkpt>
      <trkpt lat="43.64205" lon="6.65996">
        <ele>490.40979</ele>
        <time>2011-12-11T10:03:24Z</time>
      </trkpt>
      <trkpt lat="43.64195" lon="6.66006">
        <ele>491.851685</ele>
        <time>2011-12-11T10:03:43Z</time>
      </trkpt>
      <trkpt lat="43.64177" lon="6.66017">
        <ele>493.774292</ele>
        <time>2011-12-11T10:04:07Z</time>
      </trkpt>
      <trkpt lat="43.64169" lon="6.66024">
        <ele>495.216187</ele>
        <time>2011-12-11T10:04:24Z</time>
      </trkpt>
      <trkpt lat="43.64155" lon="6.66031">
        <ele>496.177734</ele>
        <time>2011-12-11T10:04:49Z</time>
      </trkpt>
      <trkpt lat="43.64151" lon="6.66032">
        <ele>496.177734</ele>
        <time>2011-12-11T10:04:54Z</time>
      </trkpt>
      <trkpt lat="43.64136" lon="6.66037">
        <ele>498.580933</ele>
        <time>2011-12-11T10:05:13Z</time>
      </trkpt>
      <trkpt lat="43.64127" lon="6.66046">
        <ele>500.984131</ele>
        <time>2011-12-11T10:05:32Z</time>
      </trkpt>
      <trkpt lat="43.64112" lon="6.66058">
        <ele>503.868164</ele>
        <time>2011-12-11T10:06:02Z</time>
      </trkpt>
      <trkpt lat="43.64111" lon="6.66061">
        <ele>503.387451</ele>
        <time>2011-12-11T10:06:25Z</time>
      </trkpt>
      <trkpt lat="43.64113" lon="6.66064">
        <ele>502.906738</ele>
        <time>2011-12-11T10:07:06Z</time>
      </trkpt>
      <trkpt lat="43.64116" lon="6.66065">
        <ele>502.426147</ele>
        <time>2011-12-11T10:07:57Z</time>
      </trkpt>
      <trkpt lat="43.64122" lon="6.66063">
        <ele>502.426147</ele>
        <time>2011-12-11T10:09:07Z</time>
      </trkpt>
      <trkpt lat="43.64121" lon="6.66062">
        <ele>502.426147</ele>
        <time>2011-12-11T10:09:40Z</time>
      </trkpt>
      <trkpt lat="43.64123" lon="6.66062">
        <ele>504.348877</ele>
        <time>2011-12-11T10:10:07Z</time>
      </trkpt>
      <trkpt lat="43.64118" lon="6.66056">
        <ele>508.674683</ele>
        <time>2011-12-11T10:10:58Z</time>
      </trkpt>
      <trkpt lat="43.64118" lon="6.66055">
        <ele>508.674683</ele>
        <time>2011-12-11T10:11:54Z</time>
      </trkpt>
      <trkpt lat="43.64122" lon="6.66053">
        <ele>508.194092</ele>
        <time>2011-12-11T10:13:41Z</time>
      </trkpt>
      <trkpt lat="43.64139" lon="6.66055">
        <ele>506.752075</ele>
        <time>2011-12-11T10:14:14Z</time>
      </trkpt>
      <trkpt lat="43.64161" lon="6.66053">
        <ele>505.310181</ele>
        <time>2011-12-11T10:14:37Z</time>
      </trkpt>
      <trkpt lat="43.64182" lon="6.66065">
        <ele>505.790894</ele>
        <time>2011-12-11T10:15:05Z</time>
      </trkpt>
      <trkpt lat="43.64203" lon="6.66094">
        <ele>506.271484</ele>
        <time>2011-12-11T10:15:31Z</time>
      </trkpt>
      <trkpt lat="43.64205" lon="6.66113">
        <ele>507.713501</ele>
        <time>2011-12-11T10:15:50Z</time>
      </trkpt>
      <trkpt lat="43.64214" lon="6.66147">
        <ele>512.039429</ele>
        <time>2011-12-11T10:16:12Z</time>
      </trkpt>
      <trkpt lat="43.64215" lon="6.66158">
        <ele>513.962036</ele>
        <time>2011-12-11T10:16:28Z</time>
      </trkpt>
      <trkpt lat="43.64219" lon="6.66175">
        <ele>515.884644</ele>
        <time>2011-12-11T10:16:45Z</time>
      </trkpt>
      <trkpt lat="43.64225" lon="6.66184">
        <ele>517.32666</ele>
        <time>2011-12-11T10:16:58Z</time>
      </trkpt>
      <trkpt lat="43.64234" lon="6.66196">
        <ele>521.171997</ele>
        <time>2011-12-11T10:17:11Z</time>
      </trkpt>
      <trkpt lat="43.64248" lon="6.66213">
        <ele>525.017212</ele>
        <time>2011-12-11T10:17:29Z</time>
      </trkpt>
      <trkpt lat="43.64261" lon="6.66224">
        <ele>525.017212</ele>
        <time>2011-12-11T10:17:42Z</time>
      </trkpt>
      <trkpt lat="43.64274" lon="6.66229">
        <ele>525.017212</ele>
        <time>2011-12-11T10:17:59Z</time>
      </trkpt>
      <trkpt lat="43.64281" lon="6.66233">
        <ele>525.017212</ele>
        <time>2011-12-11T10:18:05Z</time>
      </trkpt>
      <trkpt lat="43.64286" lon="6.66237">
        <ele>525.978394</ele>
        <time>2011-12-11T10:18:12Z</time>
      </trkpt>
      <trkpt lat="43.64303" lon="6.66247">
        <ele>526.939819</ele>
        <time>2011-12-11T10:18:30Z</time>
      </trkpt>
      <trkpt lat="43.64324" lon="6.66258">
        <ele>528.381836</ele>
        <time>2011-12-11T10:18:49Z</time>
      </trkpt>
      <trkpt lat="43.64335" lon="6.66265">
        <ele>529.34314</ele>
        <time>2011-12-11T10:19:06Z</time>
      </trkpt>
      <trkpt lat="43.6434" lon="6.66267">
        <ele>530.304443</ele>
        <time>2011-12-11T10:19:12Z</time>
      </trkpt>
      <trkpt lat="43.64351" lon="6.66272">
        <ele>531.265747</ele>
        <time>2011-12-11T10:19:25Z</time>
      </trkpt>
      <trkpt lat="43.64357" lon="6.66275">
        <ele>531.265747</ele>
        <time>2011-12-11T10:19:46Z</time>
      </trkpt>
      <trkpt lat="43.64363" lon="6.66278">
        <ele>531.746338</ele>
        <time>2011-12-11T10:20:09Z</time>
      </trkpt>
      <trkpt lat="43.64363" lon="6.66281">
        <ele>531.746338</ele>
        <time>2011-12-11T10:20:29Z</time>
      </trkpt>
      <trkpt lat="43.64368" lon="6.66279">
        <ele>530.785156</ele>
        <time>2011-12-11T10:20:49Z</time>
      </trkpt>
      <trkpt lat="43.64386" lon="6.66278">
        <ele>529.34314</ele>
        <time>2011-12-11T10:21:14Z</time>
      </trkpt>
      <trkpt lat="43.64396" lon="6.66303">
        <ele>528.862549</ele>
        <time>2011-12-11T10:21:47Z</time>
      </trkpt>
      <trkpt lat="43.64399" lon="6.66339">
        <ele>528.381836</ele>
        <time>2011-12-11T10:22:21Z</time>
      </trkpt>
      <trkpt lat="43.6442" lon="6.6634">
        <ele>528.381836</ele>
        <time>2011-12-11T10:22:42Z</time>
      </trkpt>
      <trkpt lat="43.64439" lon="6.66319">
        <ele>528.862549</ele>
        <time>2011-12-11T10:23:18Z</time>
      </trkpt>
      <trkpt lat="43.64448" lon="6.66308">
        <ele>530.785156</ele>
        <time>2011-12-11T10:23:46Z</time>
      </trkpt>
      <trkpt lat="43.64443" lon="6.66306">
        <ele>532.227051</ele>
        <time>2011-12-11T10:23:59Z</time>
      </trkpt>
      <trkpt lat="43.64439" lon="6.66299">
        <ele>534.149658</ele>
        <time>2011-12-11T10:24:27Z</time>
      </trkpt>
      <trkpt lat="43.64439" lon="6.66297">
        <ele>534.149658</ele>
        <time>2011-12-11T10:24:29Z</time>
      </trkpt>
      <trkpt lat="43.64443" lon="6.66276">
        <ele>536.072388</ele>
        <time>2011-12-11T10:24:48Z</time>
      </trkpt>
      <trkpt lat="43.64443" lon="6.66272">
        <ele>536.553101</ele>
        <time>2011-12-11T10:24:52Z</time>
      </trkpt>
      <trkpt lat="43.64454" lon="6.66258">
        <ele>537.514282</ele>
        <time>2011-12-11T10:25:11Z</time>
      </trkpt>
      <trkpt lat="43.64459" lon="6.66242">
        <ele>537.514282</ele>
        <time>2011-12-11T10:25:26Z</time>
      </trkpt>
      <trkpt lat="43.64459" lon="6.6623">
        <ele>537.514282</ele>
        <time>2011-12-11T10:25:36Z</time>
      </trkpt>
      <trkpt lat="43.64472" lon="6.66213">
        <ele>548.569336</ele>
        <time>2011-12-11T10:25:56Z</time>
      </trkpt>
      <trkpt lat="43.64482" lon="6.6619">
        <ele>551.934082</ele>
        <time>2011-12-11T10:26:14Z</time>
      </trkpt>
      <trkpt lat="43.64488" lon="6.66192">
        <ele>551.934082</ele>
        <time>2011-12-11T10:26:40Z</time>
      </trkpt>
      <trkpt lat="43.64506" lon="6.66166">
        <ele>551.453369</ele>
        <time>2011-12-11T10:27:11Z</time>
      </trkpt>
      <trkpt lat="43.64516" lon="6.66135">
        <ele>552.414551</ele>
        <time>2011-12-11T10:27:36Z</time>
      </trkpt>
      <trkpt lat="43.64513" lon="6.66102">
        <ele>552.895264</ele>
        <time>2011-12-11T10:27:54Z</time>
      </trkpt>
      <trkpt lat="43.64516" lon="6.66073">
        <ele>553.856689</ele>
        <time>2011-12-11T10:28:17Z</time>
      </trkpt>
      <trkpt lat="43.64514" lon="6.66049">
        <ele>555.779297</ele>
        <time>2011-12-11T10:28:38Z</time>
      </trkpt>
      <trkpt lat="43.64507" lon="6.6602">
        <ele>558.182861</ele>
        <time>2011-12-11T10:28:59Z</time>
      </trkpt>
      <trkpt lat="43.64498" lon="6.65986">
        <ele>560.585938</ele>
        <time>2011-12-11T10:29:18Z</time>
      </trkpt>
      <trkpt lat="43.64487" lon="6.65956">
        <ele>562.028076</ele>
        <time>2011-12-11T10:29:36Z</time>
      </trkpt>
      <trkpt lat="43.64487" lon="6.65936">
        <ele>562.028076</ele>
        <time>2011-12-11T10:29:47Z</time>
      </trkpt>
      <trkpt lat="43.64493" lon="6.65923">
        <ele>562.989258</ele>
        <time>2011-12-11T10:29:55Z</time>
      </trkpt>
      <trkpt lat="43.64492" lon="6.65921">
        <ele>562.989258</ele>
        <time>2011-12-11T10:29:56Z</time>
      </trkpt>
      <trkpt lat="43.64492" lon="6.65918">
        <ele>563.469971</ele>
        <time>2011-12-11T10:29:58Z</time>
      </trkpt>
      <trkpt lat="43.64494" lon="6.65886">
        <ele>568.276367</ele>
        <time>2011-12-11T10:30:17Z</time>
      </trkpt>
      <trkpt lat="43.64495" lon="6.6588">
        <ele>568.75708</ele>
        <time>2011-12-11T10:30:21Z</time>
      </trkpt>
      <trkpt lat="43.645" lon="6.65859">
        <ele>572.602539</ele>
        <time>2011-12-11T10:30:34Z</time>
      </trkpt>
      <trkpt lat="43.64494" lon="6.65832">
        <ele>575.486328</ele>
        <time>2011-12-11T10:30:48Z</time>
      </trkpt>
      <trkpt lat="43.64493" lon="6.65815">
        <ele>577.889648</ele>
        <time>2011-12-11T10:30:58Z</time>
      </trkpt>
      <trkpt lat="43.64496" lon="6.65805">
        <ele>583.176758</ele>
        <time>2011-12-11T10:31:10Z</time>
      </trkpt>
      <trkpt lat="43.64492" lon="6.65803">
        <ele>586.060791</ele>
        <time>2011-12-11T10:31:22Z</time>
      </trkpt>
      <trkpt lat="43.64469" lon="6.65786">
        <ele>577.40918</ele>
        <time>2011-12-11T10:31:50Z</time>
      </trkpt>
      <trkpt lat="43.64466" lon="6.65782">
        <ele>577.40918</ele>
        <time>2011-12-11T10:31:54Z</time>
      </trkpt>
      <trkpt lat="43.64462" lon="6.65777">
        <ele>577.889648</ele>
        <time>2011-12-11T10:31:59Z</time>
      </trkpt>
      <trkpt lat="43.64458" lon="6.65755">
        <ele>578.851074</ele>
        <time>2011-12-11T10:32:15Z</time>
      </trkpt>
      <trkpt lat="43.6446" lon="6.65743">
        <ele>579.812256</ele>
        <time>2011-12-11T10:32:34Z</time>
      </trkpt>
      <trkpt lat="43.64459" lon="6.65727">
        <ele>577.889648</ele>
        <time>2011-12-11T10:32:59Z</time>
      </trkpt>
      <trkpt lat="43.64455" lon="6.65719">
        <ele>576.928467</ele>
        <time>2011-12-11T10:33:06Z</time>
      </trkpt>
      <trkpt lat="43.64453" lon="6.65703">
        <ele>575.967041</ele>
        <time>2011-12-11T10:33:18Z</time>
      </trkpt>
      <trkpt lat="43.64454" lon="6.65673">
        <ele>575.486328</ele>
        <time>2011-12-11T10:33:37Z</time>
      </trkpt>
      <trkpt lat="43.6445" lon="6.65662">
        <ele>574.044434</ele>
        <time>2011-12-11T10:33:50Z</time>
      </trkpt>
      <trkpt lat="43.64446" lon="6.6566">
        <ele>573.563965</ele>
        <time>2011-12-11T10:34:19Z</time>
      </trkpt>
      <trkpt lat="43.64437" lon="6.65654">
        <ele>573.083252</ele>
        <time>2011-12-11T10:34:32Z</time>
      </trkpt>
      <trkpt lat="43.64423" lon="6.6564">
        <ele>571.640869</ele>
        <time>2011-12-11T10:34:49Z</time>
      </trkpt>
      <trkpt lat="43.64419" lon="6.6563">
        <ele>570.679688</ele>
        <time>2011-12-11T10:34:59Z</time>
      </trkpt>
      <trkpt lat="43.64415" lon="6.65605">
        <ele>569.718506</ele>
        <time>2011-12-11T10:35:16Z</time>
      </trkpt>
      <trkpt lat="43.64411" lon="6.65594">
        <ele>568.276367</ele>
        <time>2011-12-11T10:35:23Z</time>
      </trkpt>
      <trkpt lat="43.64409" lon="6.65589">
        <ele>567.795654</ele>
        <time>2011-12-11T10:35:27Z</time>
      </trkpt>
      <trkpt lat="43.64408" lon="6.65566">
        <ele>563.469971</ele>
        <time>2011-12-11T10:35:44Z</time>
      </trkpt>
      <trkpt lat="43.64406" lon="6.65559">
        <ele>562.028076</ele>
        <time>2011-12-11T10:35:51Z</time>
      </trkpt>
      <trkpt lat="43.64397" lon="6.65541">
        <ele>560.105225</ele>
        <time>2011-12-11T10:36:04Z</time>
      </trkpt>
      <trkpt lat="43.64388" lon="6.65523">
        <ele>558.66333</ele>
        <time>2011-12-11T10:36:20Z</time>
      </trkpt>
      <trkpt lat="43.6438" lon="6.65503">
        <ele>558.66333</ele>
        <time>2011-12-11T10:36:43Z</time>
      </trkpt>
      <trkpt lat="43.64376" lon="6.65497">
        <ele>559.144043</ele>
        <time>2011-12-11T10:37:15Z</time>
      </trkpt>
      <trkpt lat="43.64376" lon="6.65497">
        <ele>559.144043</ele>
        <time>2011-12-11T10:38:03Z</time>
      </trkpt>
      <trkpt lat="43.64374" lon="6.65497">
        <ele>559.144043</ele>
        <time>2011-12-11T10:38:53Z</time>
      </trkpt>
      <trkpt lat="43.64367" lon="6.65496">
        <ele>558.182861</ele>
        <time>2011-12-11T10:40:09Z</time>
      </trkpt>
      <trkpt lat="43.64368" lon="6.65489">
        <ele>559.144043</ele>
        <time>2011-12-11T10:40:39Z</time>
      </trkpt>
      <trkpt lat="43.64368" lon="6.65471">
        <ele>560.105225</ele>
        <time>2011-12-11T10:40:55Z</time>
      </trkpt>
      <trkpt lat="43.64373" lon="6.65445">
        <ele>561.06665</ele>
        <time>2011-12-11T10:41:16Z</time>
      </trkpt>
      <trkpt lat="43.6438" lon="6.65423">
        <ele>561.06665</ele>
        <time>2011-12-11T10:41:34Z</time>
      </trkpt>
      <trkpt lat="43.64383" lon="6.65414">
        <ele>560.585938</ele>
        <time>2011-12-11T10:41:42Z</time>
      </trkpt>
      <trkpt lat="43.64388" lon="6.65411">
        <ele>560.105225</ele>
        <time>2011-12-11T10:41:46Z</time>
      </trkpt>
      <trkpt lat="43.64388" lon="6.65405">
        <ele>559.624756</ele>
        <time>2011-12-11T10:41:50Z</time>
      </trkpt>
      <trkpt lat="43.64392" lon="6.6538">
        <ele>556.740723</ele>
        <time>2011-12-11T10:42:09Z</time>
      </trkpt>
      <trkpt lat="43.64398" lon="6.65357">
        <ele>552.895264</ele>
        <time>2011-12-11T10:42:27Z</time>
      </trkpt>
      <trkpt lat="43.64401" lon="6.65352">
        <ele>551.934082</ele>
        <time>2011-12-11T10:42:32Z</time>
      </trkpt>
      <trkpt lat="43.6441" lon="6.65325">
        <ele>547.127441</ele>
        <time>2011-12-11T10:42:53Z</time>
      </trkpt>
      <trkpt lat="43.64409" lon="6.6532">
        <ele>544.724243</ele>
        <time>2011-12-11T10:43:15Z</time>
      </trkpt>
      <trkpt lat="43.64411" lon="6.65317">
        <ele>542.801514</ele>
        <time>2011-12-11T10:44:31Z</time>
      </trkpt>
      <trkpt lat="43.64415" lon="6.65312">
        <ele>545.204834</ele>
        <time>2011-12-11T10:45:03Z</time>
      </trkpt>
      <trkpt lat="43.64425" lon="6.65299">
        <ele>546.646851</ele>
        <time>2011-12-11T10:45:22Z</time>
      </trkpt>
      <trkpt lat="43.64441" lon="6.65275">
        <ele>550.011475</ele>
        <time>2011-12-11T10:45:50Z</time>
      </trkpt>
      <trkpt lat="43.64468" lon="6.65255">
        <ele>553.375977</ele>
        <time>2011-12-11T10:46:23Z</time>
      </trkpt>
      <trkpt lat="43.64486" lon="6.65243">
        <ele>553.856689</ele>
        <time>2011-12-11T10:46:43Z</time>
      </trkpt>
      <trkpt lat="43.64497" lon="6.65234">
        <ele>553.856689</ele>
        <time>2011-12-11T10:46:58Z</time>
      </trkpt>
      <trkpt lat="43.64521" lon="6.6522">
        <ele>552.895264</ele>
        <time>2011-12-11T10:47:26Z</time>
      </trkpt>
      <trkpt lat="43.64531" lon="6.65222">
        <ele>553.856689</ele>
        <time>2011-12-11T10:47:37Z</time>
      </trkpt>
      <trkpt lat="43.64544" lon="6.65226">
        <ele>555.779297</ele>
        <time>2011-12-11T10:47:47Z</time>
      </trkpt>
      <trkpt lat="43.64556" lon="6.65235">
        <ele>557.221436</ele>
        <time>2011-12-11T10:48:00Z</time>
      </trkpt>
      <trkpt lat="43.64565" lon="6.65236">
        <ele>559.144043</ele>
        <time>2011-12-11T10:48:12Z</time>
      </trkpt>
      <trkpt lat="43.64574" lon="6.65233">
        <ele>559.624756</ele>
        <time>2011-12-11T10:48:26Z</time>
      </trkpt>
      <trkpt lat="43.64592" lon="6.65226">
        <ele>561.547363</ele>
        <time>2011-12-11T10:48:45Z</time>
      </trkpt>
      <trkpt lat="43.64594" lon="6.65223">
        <ele>562.028076</ele>
        <time>2011-12-11T10:48:49Z</time>
      </trkpt>
      <trkpt lat="43.64608" lon="6.65213">
        <ele>563.469971</ele>
        <time>2011-12-11T10:49:03Z</time>
      </trkpt>
      <trkpt lat="43.6461" lon="6.65211">
        <ele>563.469971</ele>
        <time>2011-12-11T10:49:05Z</time>
      </trkpt>
      <trkpt lat="43.64611" lon="6.65209">
        <ele>563.950439</ele>
        <time>2011-12-11T10:49:08Z</time>
      </trkpt>
      <trkpt lat="43.64619" lon="6.65201">
        <ele>564.431152</ele>
        <time>2011-12-11T10:49:17Z</time>
      </trkpt>
      <trkpt lat="43.64622" lon="6.65199">
        <ele>564.911865</ele>
        <time>2011-12-11T10:49:21Z</time>
      </trkpt>
      <trkpt lat="43.6463" lon="6.65184">
        <ele>565.873291</ele>
        <time>2011-12-11T10:49:38Z</time>
      </trkpt>
      <trkpt lat="43.64631" lon="6.65183">
        <ele>565.392578</ele>
        <time>2011-12-11T10:49:40Z</time>
      </trkpt>
      <trkpt lat="43.64638" lon="6.65172">
        <ele>566.35376</ele>
        <time>2011-12-11T10:49:53Z</time>
      </trkpt>
      <trkpt lat="43.64639" lon="6.6517">
        <ele>566.35376</ele>
        <time>2011-12-11T10:49:55Z</time>
      </trkpt>
      <trkpt lat="43.64652" lon="6.65145">
        <ele>568.75708</ele>
        <time>2011-12-11T10:50:18Z</time>
      </trkpt>
      <trkpt lat="43.64663" lon="6.65127">
        <ele>569.718506</ele>
        <time>2011-12-11T10:50:37Z</time>
      </trkpt>
      <trkpt lat="43.64664" lon="6.65125">
        <ele>569.718506</ele>
        <time>2011-12-11T10:50:38Z</time>
      </trkpt>
      <trkpt lat="43.64679" lon="6.65103">
        <ele>570.679688</ele>
        <time>2011-12-11T10:50:59Z</time>
      </trkpt>
      <trkpt lat="43.64698" lon="6.65082">
        <ele>573.563965</ele>
        <time>2011-12-11T10:51:23Z</time>
      </trkpt>
      <trkpt lat="43.6471" lon="6.65065">
        <ele>577.40918</ele>
        <time>2011-12-11T10:51:39Z</time>
      </trkpt>
      <trkpt lat="43.64714" lon="6.65058">
        <ele>579.331543</ele>
        <time>2011-12-11T10:51:46Z</time>
      </trkpt>
      <trkpt lat="43.64722" lon="6.65043">
        <ele>583.176758</ele>
        <time>2011-12-11T10:51:59Z</time>
      </trkpt>
      <trkpt lat="43.64726" lon="6.6504">
        <ele>584.138184</ele>
        <time>2011-12-11T10:52:03Z</time>
      </trkpt>
      <trkpt lat="43.64726" lon="6.65038">
        <ele>584.618896</ele>
        <time>2011-12-11T10:52:05Z</time>
      </trkpt>
      <trkpt lat="43.6473" lon="6.6503">
        <ele>585.580078</ele>
        <time>2011-12-11T10:52:11Z</time>
      </trkpt>
      <trkpt lat="43.64742" lon="6.6502">
        <ele>588.464355</ele>
        <time>2011-12-11T10:52:28Z</time>
      </trkpt>
      <trkpt lat="43.64755" lon="6.65007">
        <ele>593.270752</ele>
        <time>2011-12-11T10:52:47Z</time>
      </trkpt>
      <trkpt lat="43.64773" lon="6.6499">
        <ele>599.038574</ele>
        <time>2011-12-11T10:53:08Z</time>
      </trkpt>
      <trkpt lat="43.64797" lon="6.64973">
        <ele>605.287354</ele>
        <time>2011-12-11T10:53:30Z</time>
      </trkpt>
      <trkpt lat="43.64798" lon="6.64968">
        <ele>605.768066</ele>
        <time>2011-12-11T10:53:33Z</time>
      </trkpt>
      <trkpt lat="43.648" lon="6.64964">
        <ele>606.729248</ele>
        <time>2011-12-11T10:53:37Z</time>
      </trkpt>
      <trkpt lat="43.6481" lon="6.64949">
        <ele>611.535889</ele>
        <time>2011-12-11T10:53:51Z</time>
      </trkpt>
      <trkpt lat="43.64821" lon="6.64933">
        <ele>617.78418</ele>
        <time>2011-12-11T10:54:06Z</time>
      </trkpt>
      <trkpt lat="43.64835" lon="6.64914">
        <ele>624.994385</ele>
        <time>2011-12-11T10:54:22Z</time>
      </trkpt>
      <trkpt lat="43.64828" lon="6.64901">
        <ele>625.955566</ele>
        <time>2011-12-11T10:54:31Z</time>
      </trkpt>
      <trkpt lat="43.64827" lon="6.64888">
        <ele>626.436279</ele>
        <time>2011-12-11T10:54:35Z</time>
      </trkpt>
      <trkpt lat="43.64828" lon="6.64881">
        <ele>627.397705</ele>
        <time>2011-12-11T10:54:38Z</time>
      </trkpt>
      <trkpt lat="43.6483" lon="6.64864">
        <ele>628.358887</ele>
        <time>2011-12-11T10:54:46Z</time>
      </trkpt>
      <trkpt lat="43.64833" lon="6.64854">
        <ele>628.358887</ele>
        <time>2011-12-11T10:54:53Z</time>
      </trkpt>
      <trkpt lat="43.64839" lon="6.64851">
        <ele>629.320068</ele>
        <time>2011-12-11T10:54:59Z</time>
      </trkpt>
      <trkpt lat="43.64843" lon="6.64847">
        <ele>630.281494</ele>
        <time>2011-12-11T10:55:04Z</time>
      </trkpt>
      <trkpt lat="43.64857" lon="6.6484">
        <ele>633.645996</ele>
        <time>2011-12-11T10:55:17Z</time>
      </trkpt>
      <trkpt lat="43.64859" lon="6.64834">
        <ele>634.607422</ele>
        <time>2011-12-11T10:55:20Z</time>
      </trkpt>
      <trkpt lat="43.64858" lon="6.64818">
        <ele>635.568604</ele>
        <time>2011-12-11T10:55:26Z</time>
      </trkpt>
      <trkpt lat="43.64863" lon="6.64801">
        <ele>638.452881</ele>
        <time>2011-12-11T10:55:39Z</time>
      </trkpt>
      <trkpt lat="43.64876" lon="6.64767">
        <ele>643.73999</ele>
        <time>2011-12-11T10:56:03Z</time>
      </trkpt>
      <trkpt lat="43.64874" lon="6.64755">
        <ele>645.181885</ele>
        <time>2011-12-11T10:56:09Z</time>
      </trkpt>
      <trkpt lat="43.64884" lon="6.64748">
        <ele>647.104492</ele>
        <time>2011-12-11T10:56:16Z</time>
      </trkpt>
      <trkpt lat="43.64885" lon="6.64745">
        <ele>647.585205</ele>
        <time>2011-12-11T10:56:18Z</time>
      </trkpt>
      <trkpt lat="43.64887" lon="6.64743">
        <ele>648.065918</ele>
        <time>2011-12-11T10:56:20Z</time>
      </trkpt>
      <trkpt lat="43.64888" lon="6.64739">
        <ele>649.0271</ele>
        <time>2011-12-11T10:56:23Z</time>
      </trkpt>
      <trkpt lat="43.64893" lon="6.64709">
        <ele>650.469238</ele>
        <time>2011-12-11T10:56:43Z</time>
      </trkpt>
      <trkpt lat="43.64894" lon="6.64702">
        <ele>650.949707</ele>
        <time>2011-12-11T10:56:50Z</time>
      </trkpt>
      <trkpt lat="43.64901" lon="6.64702">
        <ele>651.43042</ele>
        <time>2011-12-11T10:56:53Z</time>
      </trkpt>
      <trkpt lat="43.64912" lon="6.64693">
        <ele>651.911133</ele>
        <time>2011-12-11T10:57:06Z</time>
      </trkpt>
      <trkpt lat="43.64922" lon="6.6468">
        <ele>653.353271</ele>
        <time>2011-12-11T10:57:24Z</time>
      </trkpt>
      <trkpt lat="43.64943" lon="6.6466">
        <ele>654.314697</ele>
        <time>2011-12-11T10:57:45Z</time>
      </trkpt>
      <trkpt lat="43.64943" lon="6.64659">
        <ele>654.314697</ele>
        <time>2011-12-11T10:57:46Z</time>
      </trkpt>
      <trkpt lat="43.64954" lon="6.6466">
        <ele>654.314697</ele>
        <time>2011-12-11T10:58:07Z</time>
      </trkpt>
      <trkpt lat="43.64939" lon="6.64654">
        <ele>655.275879</ele>
        <time>2011-12-11T10:58:28Z</time>
      </trkpt>
      <trkpt lat="43.64941" lon="6.64648">
        <ele>656.237061</ele>
        <time>2011-12-11T10:58:45Z</time>
      </trkpt>
      <trkpt lat="43.64928" lon="6.64639">
        <ele>656.717773</ele>
        <time>2011-12-11T10:59:04Z</time>
      </trkpt>
      <trkpt lat="43.64927" lon="6.64638">
        <ele>657.198486</ele>
        <time>2011-12-11T10:59:06Z</time>
      </trkpt>
      <trkpt lat="43.64917" lon="6.64614">
        <ele>658.640381</ele>
        <time>2011-12-11T10:59:23Z</time>
      </trkpt>
      <trkpt lat="43.6491" lon="6.6459">
        <ele>659.601807</ele>
        <time>2011-12-11T10:59:43Z</time>
      </trkpt>
      <trkpt lat="43.64904" lon="6.64571">
        <ele>660.562988</ele>
        <time>2011-12-11T11:00:01Z</time>
      </trkpt>
      <trkpt lat="43.64906" lon="6.64545">
        <ele>659.121094</ele>
        <time>2011-12-11T11:00:21Z</time>
      </trkpt>
      <trkpt lat="43.6489" lon="6.64517">
        <ele>652.872559</ele>
        <time>2011-12-11T11:00:40Z</time>
      </trkpt>
      <trkpt lat="43.64883" lon="6.64503">
        <ele>654.314697</ele>
        <time>2011-12-11T11:00:59Z</time>
      </trkpt>
      <trkpt lat="43.64887" lon="6.64471">
        <ele>652.391846</ele>
        <time>2011-12-11T11:01:19Z</time>
      </trkpt>
      <trkpt lat="43.64878" lon="6.64443">
        <ele>649.988525</ele>
        <time>2011-12-11T11:01:36Z</time>
      </trkpt>
      <trkpt lat="43.64873" lon="6.64412">
        <ele>648.065918</ele>
        <time>2011-12-11T11:01:53Z</time>
      </trkpt>
      <trkpt lat="43.64859" lon="6.64423">
        <ele>646.624023</ele>
        <time>2011-12-11T11:02:12Z</time>
      </trkpt>
      <trkpt lat="43.64842" lon="6.64437">
        <ele>649.0271</ele>
        <time>2011-12-11T11:02:30Z</time>
      </trkpt>
      <trkpt lat="43.64827" lon="6.64446">
        <ele>651.43042</ele>
        <time>2011-12-11T11:02:50Z</time>
      </trkpt>
      <trkpt lat="43.64815" lon="6.64448">
        <ele>652.872559</ele>
        <time>2011-12-11T11:03:16Z</time>
      </trkpt>
      <trkpt lat="43.64799" lon="6.64434">
        <ele>653.353271</ele>
        <time>2011-12-11T11:06:20Z</time>
      </trkpt>
      <trkpt lat="43.64779" lon="6.64439">
        <ele>652.391846</ele>
        <time>2011-12-11T11:06:49Z</time>
      </trkpt>
      <trkpt lat="43.64754" lon="6.64442">
        <ele>651.43042</ele>
        <time>2011-12-11T11:07:16Z</time>
      </trkpt>
      <trkpt lat="43.64734" lon="6.6445">
        <ele>653.353271</ele>
        <time>2011-12-11T11:07:36Z</time>
      </trkpt>
      <trkpt lat="43.64729" lon="6.64453">
        <ele>651.911133</ele>
        <time>2011-12-11T11:07:40Z</time>
      </trkpt>
      <trkpt lat="43.64726" lon="6.64454">
        <ele>653.353271</ele>
        <time>2011-12-11T11:07:44Z</time>
      </trkpt>
      <trkpt lat="43.64712" lon="6.64463">
        <ele>651.911133</ele>
        <time>2011-12-11T11:07:59Z</time>
      </trkpt>
      <trkpt lat="43.64699" lon="6.64478">
        <ele>651.911133</ele>
        <time>2011-12-11T11:08:18Z</time>
      </trkpt>
      <trkpt lat="43.64692" lon="6.64492">
        <ele>653.833984</ele>
        <time>2011-12-11T11:08:32Z</time>
      </trkpt>
      <trkpt lat="43.64681" lon="6.64493">
        <ele>654.314697</ele>
        <time>2011-12-11T11:08:46Z</time>
      </trkpt>
      <trkpt lat="43.64674" lon="6.64489">
        <ele>657.679199</ele>
        <time>2011-12-11T11:08:58Z</time>
      </trkpt>
      <trkpt lat="43.64651" lon="6.64478">
        <ele>662.485596</ele>
        <time>2011-12-11T11:09:18Z</time>
      </trkpt>
      <trkpt lat="43.64646" lon="6.64478">
        <ele>663.92749</ele>
        <time>2011-12-11T11:09:22Z</time>
      </trkpt>
      <trkpt lat="43.6463" lon="6.64473">
        <ele>667.772705</ele>
        <time>2011-12-11T11:09:35Z</time>
      </trkpt>
      <trkpt lat="43.64614" lon="6.64461">
        <ele>673.060303</ele>
        <time>2011-12-11T11:09:54Z</time>
      </trkpt>
      <trkpt lat="43.64601" lon="6.64449">
        <ele>677.866699</ele>
        <time>2011-12-11T11:10:09Z</time>
      </trkpt>
      <trkpt lat="43.64597" lon="6.64431">
        <ele>680.27002</ele>
        <time>2011-12-11T11:10:20Z</time>
      </trkpt>
      <trkpt lat="43.64585" lon="6.64417">
        <ele>682.192627</ele>
        <time>2011-12-11T11:10:35Z</time>
      </trkpt>
      <trkpt lat="43.64568" lon="6.64407">
        <ele>685.557373</ele>
        <time>2011-12-11T11:10:57Z</time>
      </trkpt>
      <trkpt lat="43.64548" lon="6.64391">
        <ele>687.960693</ele>
        <time>2011-12-11T11:11:18Z</time>
      </trkpt>
      <trkpt lat="43.64536" lon="6.64379">
        <ele>690.844482</ele>
        <time>2011-12-11T11:11:37Z</time>
      </trkpt>
      <trkpt lat="43.64528" lon="6.64362">
        <ele>693.247803</ele>
        <time>2011-12-11T11:11:56Z</time>
      </trkpt>
      <trkpt lat="43.64503" lon="6.64337">
        <ele>697.093018</ele>
        <time>2011-12-11T11:12:22Z</time>
      </trkpt>
      <trkpt lat="43.64498" lon="6.64317">
        <ele>698.534912</ele>
        <time>2011-12-11T11:12:36Z</time>
      </trkpt>
      <trkpt lat="43.6449" lon="6.64304">
        <ele>699.977051</ele>
        <time>2011-12-11T11:12:56Z</time>
      </trkpt>
      <trkpt lat="43.64479" lon="6.64286">
        <ele>700.458008</ele>
        <time>2011-12-11T11:13:13Z</time>
      </trkpt>
      <trkpt lat="43.64469" lon="6.64262">
        <ele>700.938477</ele>
        <time>2011-12-11T11:13:32Z</time>
      </trkpt>
      <trkpt lat="43.64462" lon="6.64252">
        <ele>700.458008</ele>
        <time>2011-12-11T11:13:41Z</time>
      </trkpt>
      <trkpt lat="43.64461" lon="6.64221">
        <ele>700.458008</ele>
        <time>2011-12-11T11:13:59Z</time>
      </trkpt>
      <trkpt lat="43.64461" lon="6.64206">
        <ele>702.380371</ele>
        <time>2011-12-11T11:14:12Z</time>
      </trkpt>
      <trkpt lat="43.64462" lon="6.64186">
        <ele>704.303223</ele>
        <time>2011-12-11T11:14:27Z</time>
      </trkpt>
      <trkpt lat="43.64463" lon="6.64181">
        <ele>704.303223</ele>
        <time>2011-12-11T11:14:29Z</time>
      </trkpt>
      <trkpt lat="43.64463" lon="6.64158">
        <ele>707.667725</ele>
        <time>2011-12-11T11:14:49Z</time>
      </trkpt>
      <trkpt lat="43.64461" lon="6.64148">
        <ele>709.109619</ele>
        <time>2011-12-11T11:14:55Z</time>
      </trkpt>
      <trkpt lat="43.64455" lon="6.64128">
        <ele>713.916016</ele>
        <time>2011-12-11T11:15:12Z</time>
      </trkpt>
      <trkpt lat="43.64444" lon="6.6411">
        <ele>719.203613</ele>
        <time>2011-12-11T11:15:31Z</time>
      </trkpt>
      <trkpt lat="43.64439" lon="6.64106">
        <ele>720.645508</ele>
        <time>2011-12-11T11:15:37Z</time>
      </trkpt>
      <trkpt lat="43.64433" lon="6.6409">
        <ele>724.490723</ele>
        <time>2011-12-11T11:15:53Z</time>
      </trkpt>
      <trkpt lat="43.64421" lon="6.64083">
        <ele>727.374756</ele>
        <time>2011-12-11T11:16:07Z</time>
      </trkpt>
      <trkpt lat="43.64416" lon="6.64054">
        <ele>732.181396</ele>
        <time>2011-12-11T11:16:28Z</time>
      </trkpt>
      <trkpt lat="43.64404" lon="6.64023">
        <ele>737.468506</ele>
        <time>2011-12-11T11:16:53Z</time>
      </trkpt>
      <trkpt lat="43.64399" lon="6.64009">
        <ele>740.352539</ele>
        <time>2011-12-11T11:17:07Z</time>
      </trkpt>
      <trkpt lat="43.644" lon="6.64004">
        <ele>741.794434</ele>
        <time>2011-12-11T11:17:12Z</time>
      </trkpt>
      <trkpt lat="43.64393" lon="6.63992">
        <ele>745.158936</ele>
        <time>2011-12-11T11:17:32Z</time>
      </trkpt>
      <trkpt lat="43.6438" lon="6.63963">
        <ele>747.081543</ele>
        <time>2011-12-11T11:17:49Z</time>
      </trkpt>
      <trkpt lat="43.64376" lon="6.6396">
        <ele>747.562256</ele>
        <time>2011-12-11T11:17:53Z</time>
      </trkpt>
      <trkpt lat="43.64373" lon="6.63944">
        <ele>749.485107</ele>
        <time>2011-12-11T11:18:07Z</time>
      </trkpt>
      <trkpt lat="43.64365" lon="6.63921">
        <ele>753.330322</ele>
        <time>2011-12-11T11:18:27Z</time>
      </trkpt>
      <trkpt lat="43.64345" lon="6.63907">
        <ele>757.175537</ele>
        <time>2011-12-11T11:18:47Z</time>
      </trkpt>
      <trkpt lat="43.64339" lon="6.6386">
        <ele>761.501465</ele>
        <time>2011-12-11T11:19:10Z</time>
      </trkpt>
      <trkpt lat="43.6433" lon="6.63837">
        <ele>764.385498</ele>
        <time>2011-12-11T11:19:26Z</time>
      </trkpt>
      <trkpt lat="43.64332" lon="6.63831">
        <ele>764.866211</ele>
        <time>2011-12-11T11:19:28Z</time>
      </trkpt>
      <trkpt lat="43.64333" lon="6.63814">
        <ele>767.75</ele>
        <time>2011-12-11T11:19:41Z</time>
      </trkpt>
      <trkpt lat="43.64325" lon="6.63786">
        <ele>772.556641</ele>
        <time>2011-12-11T11:20:02Z</time>
      </trkpt>
      <trkpt lat="43.64326" lon="6.63776">
        <ele>773.518066</ele>
        <time>2011-12-11T11:20:08Z</time>
      </trkpt>
      <trkpt lat="43.64327" lon="6.6377">
        <ele>774.479248</ele>
        <time>2011-12-11T11:20:14Z</time>
      </trkpt>
      <trkpt lat="43.64327" lon="6.63767">
        <ele>774.479248</ele>
        <time>2011-12-11T11:20:17Z</time>
      </trkpt>
      <trkpt lat="43.64321" lon="6.63756">
        <ele>775.44043</ele>
        <time>2011-12-11T11:20:27Z</time>
      </trkpt>
      <trkpt lat="43.64323" lon="6.63745">
        <ele>775.44043</ele>
        <time>2011-12-11T11:20:31Z</time>
      </trkpt>
      <trkpt lat="43.64317" lon="6.6374">
        <ele>774.959961</ele>
        <time>2011-12-11T11:20:34Z</time>
      </trkpt>
      <trkpt lat="43.64311" lon="6.6372">
        <ele>773.998535</ele>
        <time>2011-12-11T11:20:48Z</time>
      </trkpt>
      <trkpt lat="43.64303" lon="6.63713">
        <ele>773.518066</ele>
        <time>2011-12-11T11:20:59Z</time>
      </trkpt>
      <trkpt lat="43.64291" lon="6.63695">
        <ele>773.037354</ele>
        <time>2011-12-11T11:21:16Z</time>
      </trkpt>
      <trkpt lat="43.64277" lon="6.63678">
        <ele>772.075928</ele>
        <time>2011-12-11T11:21:37Z</time>
      </trkpt>
      <trkpt lat="43.64268" lon="6.63646">
        <ele>771.114746</ele>
        <time>2011-12-11T11:21:54Z</time>
      </trkpt>
      <trkpt lat="43.64262" lon="6.63624">
        <ele>770.634033</ele>
        <time>2011-12-11T11:22:12Z</time>
      </trkpt>
      <trkpt lat="43.64264" lon="6.63619">
        <ele>770.634033</ele>
        <time>2011-12-11T11:22:14Z</time>
      </trkpt>
      <trkpt lat="43.64264" lon="6.636">
        <ele>770.15332</ele>
        <time>2011-12-11T11:22:23Z</time>
      </trkpt>
      <trkpt lat="43.64266" lon="6.63583">
        <ele>769.672852</ele>
        <time>2011-12-11T11:22:34Z</time>
      </trkpt>
      <trkpt lat="43.64262" lon="6.63567">
        <ele>768.711426</ele>
        <time>2011-12-11T11:22:48Z</time>
      </trkpt>
      <trkpt lat="43.64256" lon="6.63547">
        <ele>767.269531</ele>
        <time>2011-12-11T11:23:03Z</time>
      </trkpt>
      <trkpt lat="43.64257" lon="6.63544">
        <ele>767.269531</ele>
        <time>2011-12-11T11:23:04Z</time>
      </trkpt>
      <trkpt lat="43.64257" lon="6.63537">
        <ele>767.269531</ele>
        <time>2011-12-11T11:23:06Z</time>
      </trkpt>
      <trkpt lat="43.64251" lon="6.63514">
        <ele>765.827637</ele>
        <time>2011-12-11T11:23:21Z</time>
      </trkpt>
      <trkpt lat="43.64247" lon="6.63504">
        <ele>764.385498</ele>
        <time>2011-12-11T11:23:28Z</time>
      </trkpt>
      <trkpt lat="43.64243" lon="6.63472">
        <ele>761.501465</ele>
        <time>2011-12-11T11:23:44Z</time>
      </trkpt>
      <trkpt lat="43.64242" lon="6.63471">
        <ele>761.501465</ele>
        <time>2011-12-11T11:23:45Z</time>
      </trkpt>
      <trkpt lat="43.64238" lon="6.63465">
        <ele>760.059326</ele>
        <time>2011-12-11T11:23:50Z</time>
      </trkpt>
      <trkpt lat="43.64231" lon="6.63451">
        <ele>757.65625</ele>
        <time>2011-12-11T11:24:04Z</time>
      </trkpt>
      <trkpt lat="43.64225" lon="6.63433">
        <ele>754.772217</ele>
        <time>2011-12-11T11:24:17Z</time>
      </trkpt>
      <trkpt lat="43.64219" lon="6.63407">
        <ele>750.927002</ele>
        <time>2011-12-11T11:24:35Z</time>
      </trkpt>
      <trkpt lat="43.64218" lon="6.63406">
        <ele>750.446533</ele>
        <time>2011-12-11T11:24:36Z</time>
      </trkpt>
      <trkpt lat="43.64201" lon="6.63375">
        <ele>743.236328</ele>
        <time>2011-12-11T11:25:01Z</time>
      </trkpt>
      <trkpt lat="43.64191" lon="6.63336">
        <ele>733.142578</ele>
        <time>2011-12-11T11:25:27Z</time>
      </trkpt>
      <trkpt lat="43.64188" lon="6.63321">
        <ele>728.335938</ele>
        <time>2011-12-11T11:25:42Z</time>
      </trkpt>
      <trkpt lat="43.64167" lon="6.63327">
        <ele>723.529541</ele>
        <time>2011-12-11T11:25:57Z</time>
      </trkpt>
      <trkpt lat="43.64144" lon="6.63345">
        <ele>714.877441</ele>
        <time>2011-12-11T11:26:20Z</time>
      </trkpt>
      <trkpt lat="43.64143" lon="6.63347">
        <ele>713.916016</ele>
        <time>2011-12-11T11:26:22Z</time>
      </trkpt>
      <trkpt lat="43.64136" lon="6.63358">
        <ele>711.032227</ele>
        <time>2011-12-11T11:26:32Z</time>
      </trkpt>
      <trkpt lat="43.64118" lon="6.63378">
        <ele>705.264404</ele>
        <time>2011-12-11T11:26:46Z</time>
      </trkpt>
      <trkpt lat="43.64115" lon="6.63379">
        <ele>703.82251</ele>
        <time>2011-12-11T11:26:49Z</time>
      </trkpt>
      <trkpt lat="43.64106" lon="6.63381">
        <ele>701.899902</ele>
        <time>2011-12-11T11:26:57Z</time>
      </trkpt>
      <trkpt lat="43.64101" lon="6.6338">
        <ele>699.496338</ele>
        <time>2011-12-11T11:27:01Z</time>
      </trkpt>
      <trkpt lat="43.64099" lon="6.6338">
        <ele>698.534912</ele>
        <time>2011-12-11T11:27:03Z</time>
      </trkpt>
      <trkpt lat="43.64082" lon="6.63384">
        <ele>692.767334</ele>
        <time>2011-12-11T11:27:21Z</time>
      </trkpt>
      <trkpt lat="43.64074" lon="6.6339">
        <ele>689.883301</ele>
        <time>2011-12-11T11:27:33Z</time>
      </trkpt>
      <trkpt lat="43.64054" lon="6.63394">
        <ele>686.999268</ele>
        <time>2011-12-11T11:27:46Z</time>
      </trkpt>
      <trkpt lat="43.6404" lon="6.63392">
        <ele>683.153809</ele>
        <time>2011-12-11T11:27:58Z</time>
      </trkpt>
      <trkpt lat="43.64013" lon="6.63399">
        <ele>679.789307</ele>
        <time>2011-12-11T11:28:13Z</time>
      </trkpt>
      <trkpt lat="43.64006" lon="6.63392">
        <ele>680.27002</ele>
        <time>2011-12-11T11:28:24Z</time>
      </trkpt>
      <trkpt lat="43.63998" lon="6.63377">
        <ele>680.750732</ele>
        <time>2011-12-11T11:28:38Z</time>
      </trkpt>
      <trkpt lat="43.63988" lon="6.63375">
        <ele>679.308594</ele>
        <time>2011-12-11T11:28:45Z</time>
      </trkpt>
      <trkpt lat="43.63984" lon="6.63371">
        <ele>678.828125</ele>
        <time>2011-12-11T11:28:50Z</time>
      </trkpt>
      <trkpt lat="43.6397" lon="6.63362">
        <ele>677.38623</ele>
        <time>2011-12-11T11:29:02Z</time>
      </trkpt>
      <trkpt lat="43.63965" lon="6.63363">
        <ele>676.424805</ele>
        <time>2011-12-11T11:29:06Z</time>
      </trkpt>
      <trkpt lat="43.63943" lon="6.63364">
        <ele>674.021484</ele>
        <time>2011-12-11T11:29:21Z</time>
      </trkpt>
      <trkpt lat="43.63897" lon="6.63372">
        <ele>672.57959</ele>
        <time>2011-12-11T11:29:47Z</time>
      </trkpt>
      <trkpt lat="43.63892" lon="6.63371">
        <ele>672.57959</ele>
        <time>2011-12-11T11:29:51Z</time>
      </trkpt>
      <trkpt lat="43.63872" lon="6.6338">
        <ele>671.618164</ele>
        <time>2011-12-11T11:30:10Z</time>
      </trkpt>
      <trkpt lat="43.63854" lon="6.63395">
        <ele>668.253662</ele>
        <time>2011-12-11T11:30:28Z</time>
      </trkpt>
      <trkpt lat="43.63841" lon="6.63406">
        <ele>666.330811</ele>
        <time>2011-12-11T11:30:40Z</time>
      </trkpt>
      <trkpt lat="43.63831" lon="6.63429">
        <ele>662.966309</ele>
        <time>2011-12-11T11:30:52Z</time>
      </trkpt>
      <trkpt lat="43.63818" lon="6.63444">
        <ele>656.237061</ele>
        <time>2011-12-11T11:31:05Z</time>
      </trkpt>
      <trkpt lat="43.63812" lon="6.63448">
        <ele>654.314697</ele>
        <time>2011-12-11T11:31:10Z</time>
      </trkpt>
      <trkpt lat="43.638" lon="6.63452">
        <ele>652.391846</ele>
        <time>2011-12-11T11:31:18Z</time>
      </trkpt>
      <trkpt lat="43.63776" lon="6.63463">
        <ele>646.143311</ele>
        <time>2011-12-11T11:31:32Z</time>
      </trkpt>
      <trkpt lat="43.63752" lon="6.63469">
        <ele>637.010742</ele>
        <time>2011-12-11T11:31:50Z</time>
      </trkpt>
      <trkpt lat="43.6374" lon="6.63468">
        <ele>631.723389</ele>
        <time>2011-12-11T11:32:00Z</time>
      </trkpt>
      <trkpt lat="43.63715" lon="6.63469">
        <ele>621.629639</ele>
        <time>2011-12-11T11:32:19Z</time>
      </trkpt>
      <trkpt lat="43.63702" lon="6.6344">
        <ele>611.535889</ele>
        <time>2011-12-11T11:32:43Z</time>
      </trkpt>
      <trkpt lat="43.63695" lon="6.63421">
        <ele>604.806641</ele>
        <time>2011-12-11T11:32:59Z</time>
      </trkpt>
      <trkpt lat="43.63688" lon="6.63406">
        <ele>602.403076</ele>
        <time>2011-12-11T11:33:12Z</time>
      </trkpt>
      <trkpt lat="43.63672" lon="6.63392">
        <ele>600.480713</ele>
        <time>2011-12-11T11:33:32Z</time>
      </trkpt>
      <trkpt lat="43.63657" lon="6.63399">
        <ele>599.038574</ele>
        <time>2011-12-11T11:33:49Z</time>
      </trkpt>
      <trkpt lat="43.63639" lon="6.63397">
        <ele>592.790283</ele>
        <time>2011-12-11T11:34:10Z</time>
      </trkpt>
      <trkpt lat="43.63634" lon="6.63395">
        <ele>590.867432</ele>
        <time>2011-12-11T11:34:16Z</time>
      </trkpt>
      <trkpt lat="43.63627" lon="6.6339">
        <ele>589.425537</ele>
        <time>2011-12-11T11:34:23Z</time>
      </trkpt>
      <trkpt lat="43.63613" lon="6.63379">
        <ele>589.425537</ele>
        <time>2011-12-11T11:34:37Z</time>
      </trkpt>
      <trkpt lat="43.63606" lon="6.63368">
        <ele>589.90625</ele>
        <time>2011-12-11T11:34:49Z</time>
      </trkpt>
      <trkpt lat="43.63601" lon="6.63343">
        <ele>592.790283</ele>
        <time>2011-12-11T11:35:12Z</time>
      </trkpt>
      <trkpt lat="43.63597" lon="6.63329">
        <ele>594.232178</ele>
        <time>2011-12-11T11:35:27Z</time>
      </trkpt>
      <trkpt lat="43.63592" lon="6.63313">
        <ele>597.115967</ele>
        <time>2011-12-11T11:35:43Z</time>
      </trkpt>
      <trkpt lat="43.63588" lon="6.63296">
        <ele>599.519287</ele>
        <time>2011-12-11T11:35:58Z</time>
      </trkpt>
      <trkpt lat="43.63583" lon="6.63276">
        <ele>602.403076</ele>
        <time>2011-12-11T11:36:19Z</time>
      </trkpt>
      <trkpt lat="43.63579" lon="6.63271">
        <ele>603.364502</ele>
        <time>2011-12-11T11:36:45Z</time>
      </trkpt>
      <trkpt lat="43.63576" lon="6.63267">
        <ele>604.326172</ele>
        <time>2011-12-11T11:37:01Z</time>
      </trkpt>
      <trkpt lat="43.63573" lon="6.63267">
        <ele>604.326172</ele>
        <time>2011-12-11T11:37:34Z</time>
      </trkpt>
      <trkpt lat="43.63577" lon="6.63268">
        <ele>603.845215</ele>
        <time>2011-12-11T11:38:04Z</time>
      </trkpt>
      <trkpt lat="43.63577" lon="6.6327">
        <ele>603.845215</ele>
        <time>2011-12-11T11:39:06Z</time>
      </trkpt>
      <trkpt lat="43.6357" lon="6.63252">
        <ele>604.326172</ele>
        <time>2011-12-11T11:39:28Z</time>
      </trkpt>
      <trkpt lat="43.63564" lon="6.63237">
        <ele>604.806641</ele>
        <time>2011-12-11T11:39:45Z</time>
      </trkpt>
      <trkpt lat="43.63552" lon="6.63226">
        <ele>605.287354</ele>
        <time>2011-12-11T11:40:02Z</time>
      </trkpt>
      <trkpt lat="43.63543" lon="6.63215">
        <ele>605.287354</ele>
        <time>2011-12-11T11:40:17Z</time>
      </trkpt>
      <trkpt lat="43.63533" lon="6.63203">
        <ele>605.287354</ele>
        <time>2011-12-11T11:40:34Z</time>
      </trkpt>
      <trkpt lat="43.63528" lon="6.63192">
        <ele>606.248535</ele>
        <time>2011-12-11T11:40:48Z</time>
      </trkpt>
      <trkpt lat="43.63522" lon="6.63181">
        <ele>607.209961</ele>
        <time>2011-12-11T11:41:04Z</time>
      </trkpt>
      <trkpt lat="43.63512" lon="6.63163">
        <ele>606.729248</ele>
        <time>2011-12-11T11:41:22Z</time>
      </trkpt>
      <trkpt lat="43.635" lon="6.63148">
        <ele>606.248535</ele>
        <time>2011-12-11T11:41:40Z</time>
      </trkpt>
      <trkpt lat="43.63491" lon="6.63135">
        <ele>607.209961</ele>
        <time>2011-12-11T11:41:52Z</time>
      </trkpt>
      <trkpt lat="43.63491" lon="6.63133">
        <ele>607.209961</ele>
        <time>2011-12-11T11:41:53Z</time>
      </trkpt>
      <trkpt lat="43.63472" lon="6.6312">
        <ele>608.171387</ele>
        <time>2011-12-11T11:42:14Z</time>
      </trkpt>
      <trkpt lat="43.63451" lon="6.63115">
        <ele>607.690674</ele>
        <time>2011-12-11T11:42:36Z</time>
      </trkpt>
      <trkpt lat="43.63438" lon="6.63118">
        <ele>607.209961</ele>
        <time>2011-12-11T11:42:49Z</time>
      </trkpt>
      <trkpt lat="43.6343" lon="6.63119">
        <ele>606.729248</ele>
        <time>2011-12-11T11:42:56Z</time>
      </trkpt>
      <trkpt lat="43.63414" lon="6.63124">
        <ele>607.690674</ele>
        <time>2011-12-11T11:43:13Z</time>
      </trkpt>
      <trkpt lat="43.634" lon="6.63127">
        <ele>610.574463</ele>
        <time>2011-12-11T11:43:27Z</time>
      </trkpt>
      <trkpt lat="43.63397" lon="6.63128">
        <ele>611.055176</ele>
        <time>2011-12-11T11:43:30Z</time>
      </trkpt>
      <trkpt lat="43.6338" lon="6.63138">
        <ele>612.49707</ele>
        <time>2011-12-11T11:43:46Z</time>
      </trkpt>
      <trkpt lat="43.63379" lon="6.63139">
        <ele>612.977783</ele>
        <time>2011-12-11T11:43:47Z</time>
      </trkpt>
      <trkpt lat="43.63372" lon="6.6314">
        <ele>612.977783</ele>
        <time>2011-12-11T11:43:55Z</time>
      </trkpt>
      <trkpt lat="43.63352" lon="6.63147">
        <ele>609.613281</ele>
        <time>2011-12-11T11:44:12Z</time>
      </trkpt>
      <trkpt lat="43.63334" lon="6.63147">
        <ele>606.248535</ele>
        <time>2011-12-11T11:44:29Z</time>
      </trkpt>
      <trkpt lat="43.63317" lon="6.63151">
        <ele>606.248535</ele>
        <time>2011-12-11T11:44:45Z</time>
      </trkpt>
      <trkpt lat="43.63305" lon="6.63159">
        <ele>606.248535</ele>
        <time>2011-12-11T11:44:59Z</time>
      </trkpt>
      <trkpt lat="43.63286" lon="6.63164">
        <ele>606.248535</ele>
        <time>2011-12-11T11:45:16Z</time>
      </trkpt>
      <trkpt lat="43.6328" lon="6.63163">
        <ele>606.248535</ele>
        <time>2011-12-11T11:45:22Z</time>
      </trkpt>
      <trkpt lat="43.63275" lon="6.63157">
        <ele>608.651855</ele>
        <time>2011-12-11T11:45:29Z</time>
      </trkpt>
      <trkpt lat="43.63261" lon="6.63158">
        <ele>611.055176</ele>
        <time>2011-12-11T11:45:43Z</time>
      </trkpt>
      <trkpt lat="43.63257" lon="6.63159">
        <ele>611.535889</ele>
        <time>2011-12-11T11:45:47Z</time>
      </trkpt>
      <trkpt lat="43.63255" lon="6.63158">
        <ele>612.016602</ele>
        <time>2011-12-11T11:45:49Z</time>
      </trkpt>
      <trkpt lat="43.63241" lon="6.63154">
        <ele>614.419678</ele>
        <time>2011-12-11T11:46:02Z</time>
      </trkpt>
      <trkpt lat="43.6323" lon="6.6315">
        <ele>617.78418</ele>
        <time>2011-12-11T11:46:16Z</time>
      </trkpt>
      <trkpt lat="43.63217" lon="6.63155">
        <ele>620.668457</ele>
        <time>2011-12-11T11:46:26Z</time>
      </trkpt>
      <trkpt lat="43.63209" lon="6.63151">
        <ele>623.55249</ele>
        <time>2011-12-11T11:46:35Z</time>
      </trkpt>
      <trkpt lat="43.63204" lon="6.63148">
        <ele>624.994385</ele>
        <time>2011-12-11T11:46:40Z</time>
      </trkpt>
      <trkpt lat="43.63196" lon="6.6314">
        <ele>627.878174</ele>
        <time>2011-12-11T11:46:51Z</time>
      </trkpt>
      <trkpt lat="43.63178" lon="6.63124">
        <ele>632.204102</ele>
        <time>2011-12-11T11:47:11Z</time>
      </trkpt>
      <trkpt lat="43.63177" lon="6.63118">
        <ele>632.684814</ele>
        <time>2011-12-11T11:47:16Z</time>
      </trkpt>
      <trkpt lat="43.63179" lon="6.63102">
        <ele>633.165283</ele>
        <time>2011-12-11T11:47:31Z</time>
      </trkpt>
      <trkpt lat="43.63187" lon="6.63082">
        <ele>634.126709</ele>
        <time>2011-12-11T11:47:49Z</time>
      </trkpt>
      <trkpt lat="43.63188" lon="6.63078">
        <ele>633.165283</ele>
        <time>2011-12-11T11:47:52Z</time>
      </trkpt>
      <trkpt lat="43.63192" lon="6.6306">
        <ele>626.916992</ele>
        <time>2011-12-11T11:48:10Z</time>
      </trkpt>
      <trkpt lat="43.63197" lon="6.63043">
        <ele>622.110352</ele>
        <time>2011-12-11T11:48:32Z</time>
      </trkpt>
      <trkpt lat="43.63205" lon="6.63015">
        <ele>613.938965</ele>
        <time>2011-12-11T11:48:58Z</time>
      </trkpt>
      <trkpt lat="43.63205" lon="6.62995">
        <ele>610.09375</ele>
        <time>2011-12-11T11:49:18Z</time>
      </trkpt>
      <trkpt lat="43.63206" lon="6.6298">
        <ele>609.132568</ele>
        <time>2011-12-11T11:49:29Z</time>
      </trkpt>
      <trkpt lat="43.63205" lon="6.62973">
        <ele>608.651855</ele>
        <time>2011-12-11T11:49:34Z</time>
      </trkpt>
      <trkpt lat="43.63204" lon="6.62951">
        <ele>606.729248</ele>
        <time>2011-12-11T11:49:50Z</time>
      </trkpt>
      <trkpt lat="43.63203" lon="6.62945">
        <ele>606.248535</ele>
        <time>2011-12-11T11:49:55Z</time>
      </trkpt>
      <trkpt lat="43.63202" lon="6.6294">
        <ele>605.768066</ele>
        <time>2011-12-11T11:49:59Z</time>
      </trkpt>
      <trkpt lat="43.63196" lon="6.62911">
        <ele>600.961182</ele>
        <time>2011-12-11T11:50:23Z</time>
      </trkpt>
      <trkpt lat="43.63195" lon="6.62902">
        <ele>600.961182</ele>
        <time>2011-12-11T11:50:29Z</time>
      </trkpt>
      <trkpt lat="43.63194" lon="6.6289">
        <ele>600</ele>
        <time>2011-12-11T11:50:38Z</time>
      </trkpt>
      <trkpt lat="43.63196" lon="6.62867">
        <ele>602.403076</ele>
        <time>2011-12-11T11:50:54Z</time>
      </trkpt>
      <trkpt lat="43.63197" lon="6.62863">
        <ele>601.922607</ele>
        <time>2011-12-11T11:50:57Z</time>
      </trkpt>
      <trkpt lat="43.63195" lon="6.62851">
        <ele>602.403076</ele>
        <time>2011-12-11T11:51:06Z</time>
      </trkpt>
      <trkpt lat="43.63192" lon="6.62843">
        <ele>602.403076</ele>
        <time>2011-12-11T11:51:11Z</time>
      </trkpt>
      <trkpt lat="43.63191" lon="6.62841">
        <ele>602.403076</ele>
        <time>2011-12-11T11:51:13Z</time>
      </trkpt>
      <trkpt lat="43.63181" lon="6.62824">
        <ele>600.480713</ele>
        <time>2011-12-11T11:51:29Z</time>
      </trkpt>
      <trkpt lat="43.63177" lon="6.62818">
        <ele>600</ele>
        <time>2011-12-11T11:51:34Z</time>
      </trkpt>
      <trkpt lat="43.63171" lon="6.62809">
        <ele>599.038574</ele>
        <time>2011-12-11T11:51:43Z</time>
      </trkpt>
      <trkpt lat="43.6316" lon="6.62794">
        <ele>600.480713</ele>
        <time>2011-12-11T11:51:59Z</time>
      </trkpt>
      <trkpt lat="43.63153" lon="6.6277">
        <ele>602.403076</ele>
        <time>2011-12-11T11:52:18Z</time>
      </trkpt>
      <trkpt lat="43.6315" lon="6.62753">
        <ele>604.806641</ele>
        <time>2011-12-11T11:52:36Z</time>
      </trkpt>
      <trkpt lat="43.63147" lon="6.62734">
        <ele>608.171387</ele>
        <time>2011-12-11T11:52:51Z</time>
      </trkpt>
      <trkpt lat="43.63147" lon="6.62731">
        <ele>608.651855</ele>
        <time>2011-12-11T11:52:54Z</time>
      </trkpt>
      <trkpt lat="43.63145" lon="6.6271">
        <ele>610.09375</ele>
        <time>2011-12-11T11:53:07Z</time>
      </trkpt>
      <trkpt lat="43.63145" lon="6.62708">
        <ele>609.132568</ele>
        <time>2011-12-11T11:53:09Z</time>
      </trkpt>
      <trkpt lat="43.63144" lon="6.62701">
        <ele>608.171387</ele>
        <time>2011-12-11T11:53:13Z</time>
      </trkpt>
      <trkpt lat="43.63141" lon="6.62681">
        <ele>606.729248</ele>
        <time>2011-12-11T11:53:28Z</time>
      </trkpt>
      <trkpt lat="43.63141" lon="6.62678">
        <ele>606.248535</ele>
        <time>2011-12-11T11:53:30Z</time>
      </trkpt>
      <trkpt lat="43.63143" lon="6.62662">
        <ele>603.364502</ele>
        <time>2011-12-11T11:53:39Z</time>
      </trkpt>
      <trkpt lat="43.63147" lon="6.62652">
        <ele>605.287354</ele>
        <time>2011-12-11T11:53:48Z</time>
      </trkpt>
      <trkpt lat="43.63155" lon="6.62639">
        <ele>606.248535</ele>
        <time>2011-12-11T11:54:02Z</time>
      </trkpt>
      <trkpt lat="43.63162" lon="6.62635">
        <ele>607.690674</ele>
        <time>2011-12-11T11:54:10Z</time>
      </trkpt>
      <trkpt lat="43.63174" lon="6.62633">
        <ele>608.651855</ele>
        <time>2011-12-11T11:54:25Z</time>
      </trkpt>
      <trkpt lat="43.63191" lon="6.62634">
        <ele>612.016602</ele>
        <time>2011-12-11T11:54:45Z</time>
      </trkpt>
      <trkpt lat="43.63217" lon="6.6262">
        <ele>619.707031</ele>
        <time>2011-12-11T11:55:13Z</time>
      </trkpt>
      <trkpt lat="43.63229" lon="6.62607">
        <ele>622.110352</ele>
        <time>2011-12-11T11:55:31Z</time>
      </trkpt>
      <trkpt lat="43.63243" lon="6.62596">
        <ele>626.436279</ele>
        <time>2011-12-11T11:55:50Z</time>
      </trkpt>
      <trkpt lat="43.63248" lon="6.62591">
        <ele>627.878174</ele>
        <time>2011-12-11T11:55:56Z</time>
      </trkpt>
      <trkpt lat="43.63255" lon="6.62587">
        <ele>628.358887</ele>
        <time>2011-12-11T11:56:03Z</time>
      </trkpt>
      <trkpt lat="43.63261" lon="6.62576">
        <ele>628.8396</ele>
        <time>2011-12-11T11:56:13Z</time>
      </trkpt>
      <trkpt lat="43.63262" lon="6.62559">
        <ele>629.320068</ele>
        <time>2011-12-11T11:56:24Z</time>
      </trkpt>
      <trkpt lat="43.63262" lon="6.62531">
        <ele>631.24292</ele>
        <time>2011-12-11T11:56:44Z</time>
      </trkpt>
      <trkpt lat="43.63273" lon="6.62518">
        <ele>631.723389</ele>
        <time>2011-12-11T11:57:01Z</time>
      </trkpt>
      <trkpt lat="43.63275" lon="6.6251">
        <ele>631.723389</ele>
        <time>2011-12-11T11:57:06Z</time>
      </trkpt>
      <trkpt lat="43.63281" lon="6.6249">
        <ele>632.684814</ele>
        <time>2011-12-11T11:57:23Z</time>
      </trkpt>
      <trkpt lat="43.63286" lon="6.62482">
        <ele>631.723389</ele>
        <time>2011-12-11T11:57:29Z</time>
      </trkpt>
      <trkpt lat="43.63294" lon="6.62472">
        <ele>633.165283</ele>
        <time>2011-12-11T11:57:41Z</time>
      </trkpt>
      <trkpt lat="43.63293" lon="6.6247">
        <ele>634.126709</ele>
        <time>2011-12-11T11:57:43Z</time>
      </trkpt>
      <trkpt lat="43.63299" lon="6.62456">
        <ele>638.452881</ele>
        <time>2011-12-11T11:58:00Z</time>
      </trkpt>
      <trkpt lat="43.633" lon="6.62444">
        <ele>638.933594</ele>
        <time>2011-12-11T11:58:10Z</time>
      </trkpt>
      <trkpt lat="43.63301" lon="6.6243">
        <ele>638.452881</ele>
        <time>2011-12-11T11:58:20Z</time>
      </trkpt>
      <trkpt lat="43.63305" lon="6.62398">
        <ele>634.607422</ele>
        <time>2011-12-11T11:58:44Z</time>
      </trkpt>
      <trkpt lat="43.63312" lon="6.6238">
        <ele>637.010742</ele>
        <time>2011-12-11T11:58:58Z</time>
      </trkpt>
      <trkpt lat="43.63319" lon="6.62368">
        <ele>640.375488</ele>
        <time>2011-12-11T11:59:10Z</time>
      </trkpt>
      <trkpt lat="43.63325" lon="6.62349">
        <ele>646.143311</ele>
        <time>2011-12-11T11:59:29Z</time>
      </trkpt>
      <trkpt lat="43.63334" lon="6.62326">
        <ele>650.949707</ele>
        <time>2011-12-11T11:59:48Z</time>
      </trkpt>
      <trkpt lat="43.6334" lon="6.62308">
        <ele>654.795166</ele>
        <time>2011-12-11T12:00:01Z</time>
      </trkpt>
      <trkpt lat="43.63342" lon="6.62299">
        <ele>655.756592</ele>
        <time>2011-12-11T12:00:07Z</time>
      </trkpt>
      <trkpt lat="43.63344" lon="6.6228">
        <ele>659.601807</ele>
        <time>2011-12-11T12:00:21Z</time>
      </trkpt>
      <trkpt lat="43.63343" lon="6.62268">
        <ele>655.756592</ele>
        <time>2011-12-11T12:00:32Z</time>
      </trkpt>
      <trkpt lat="43.63344" lon="6.62259">
        <ele>655.275879</ele>
        <time>2011-12-11T12:00:38Z</time>
      </trkpt>
      <trkpt lat="43.63345" lon="6.62254">
        <ele>655.756592</ele>
        <time>2011-12-11T12:00:41Z</time>
      </trkpt>
      <trkpt lat="43.63348" lon="6.62221">
        <ele>654.795166</ele>
        <time>2011-12-11T12:01:05Z</time>
      </trkpt>
      <trkpt lat="43.63348" lon="6.62205">
        <ele>656.717773</ele>
        <time>2011-12-11T12:01:20Z</time>
      </trkpt>
      <trkpt lat="43.63343" lon="6.62184">
        <ele>657.198486</ele>
        <time>2011-12-11T12:01:39Z</time>
      </trkpt>
      <trkpt lat="43.63329" lon="6.6216">
        <ele>656.237061</ele>
        <time>2011-12-11T12:02:03Z</time>
      </trkpt>
      <trkpt lat="43.63315" lon="6.6215">
        <ele>656.717773</ele>
        <time>2011-12-11T12:02:21Z</time>
      </trkpt>
      <trkpt lat="43.63299" lon="6.62143">
        <ele>657.198486</ele>
        <time>2011-12-11T12:02:39Z</time>
      </trkpt>
      <trkpt lat="43.63291" lon="6.62136">
        <ele>658.159912</ele>
        <time>2011-12-11T12:02:47Z</time>
      </trkpt>
      <trkpt lat="43.63277" lon="6.62123">
        <ele>656.237061</ele>
        <time>2011-12-11T12:03:05Z</time>
      </trkpt>
      <trkpt lat="43.63263" lon="6.62116">
        <ele>654.795166</ele>
        <time>2011-12-11T12:03:21Z</time>
      </trkpt>
      <trkpt lat="43.63253" lon="6.62099">
        <ele>654.314697</ele>
        <time>2011-12-11T12:03:38Z</time>
      </trkpt>
      <trkpt lat="43.63249" lon="6.6209">
        <ele>653.353271</ele>
        <time>2011-12-11T12:03:46Z</time>
      </trkpt>
      <trkpt lat="43.63234" lon="6.62067">
        <ele>647.585205</ele>
        <time>2011-12-11T12:04:05Z</time>
      </trkpt>
      <trkpt lat="43.63225" lon="6.6205">
        <ele>643.259277</ele>
        <time>2011-12-11T12:04:21Z</time>
      </trkpt>
      <trkpt lat="43.63216" lon="6.62031">
        <ele>640.375488</ele>
        <time>2011-12-11T12:04:37Z</time>
      </trkpt>
      <trkpt lat="43.63213" lon="6.62002">
        <ele>638.452881</ele>
        <time>2011-12-11T12:04:59Z</time>
      </trkpt>
      <trkpt lat="43.63209" lon="6.61977">
        <ele>637.972168</ele>
        <time>2011-12-11T12:05:19Z</time>
      </trkpt>
      <trkpt lat="43.632" lon="6.61946">
        <ele>635.088135</ele>
        <time>2011-12-11T12:05:45Z</time>
      </trkpt>
      <trkpt lat="43.63191" lon="6.61926">
        <ele>637.010742</ele>
        <time>2011-12-11T12:05:59Z</time>
      </trkpt>
      <trkpt lat="43.6319" lon="6.61923">
        <ele>636.530273</ele>
        <time>2011-12-11T12:06:02Z</time>
      </trkpt>
      <trkpt lat="43.63184" lon="6.61898">
        <ele>635.568604</ele>
        <time>2011-12-11T12:06:21Z</time>
      </trkpt>
      <trkpt lat="43.63171" lon="6.61867">
        <ele>637.491455</ele>
        <time>2011-12-11T12:06:46Z</time>
      </trkpt>
      <trkpt lat="43.63162" lon="6.61832">
        <ele>638.452881</ele>
        <time>2011-12-11T12:07:18Z</time>
      </trkpt>
      <trkpt lat="43.63151" lon="6.61806">
        <ele>639.894775</ele>
        <time>2011-12-11T12:07:45Z</time>
      </trkpt>
      <trkpt lat="43.63146" lon="6.61783">
        <ele>642.298096</ele>
        <time>2011-12-11T12:08:08Z</time>
      </trkpt>
      <trkpt lat="43.63141" lon="6.61754">
        <ele>645.181885</ele>
        <time>2011-12-11T12:08:33Z</time>
      </trkpt>
      <trkpt lat="43.63125" lon="6.61725">
        <ele>648.065918</ele>
        <time>2011-12-11T12:09:00Z</time>
      </trkpt>
      <trkpt lat="43.63105" lon="6.61708">
        <ele>649.507813</ele>
        <time>2011-12-11T12:09:27Z</time>
      </trkpt>
      <trkpt lat="43.63092" lon="6.61698">
        <ele>649.507813</ele>
        <time>2011-12-11T12:09:42Z</time>
      </trkpt>
      <trkpt lat="43.63077" lon="6.61688">
        <ele>649.0271</ele>
        <time>2011-12-11T12:10:02Z</time>
      </trkpt>
      <trkpt lat="43.63065" lon="6.61673">
        <ele>648.546387</ele>
        <time>2011-12-11T12:10:21Z</time>
      </trkpt>
      <trkpt lat="43.63062" lon="6.61668">
        <ele>646.624023</ele>
        <time>2011-12-11T12:10:26Z</time>
      </trkpt>
      <trkpt lat="43.63048" lon="6.61652">
        <ele>645.181885</ele>
        <time>2011-12-11T12:10:45Z</time>
      </trkpt>
      <trkpt lat="43.63038" lon="6.61632">
        <ele>647.104492</ele>
        <time>2011-12-11T12:11:03Z</time>
      </trkpt>
      <trkpt lat="43.63039" lon="6.61602">
        <ele>643.73999</ele>
        <time>2011-12-11T12:11:28Z</time>
      </trkpt>
      <trkpt lat="43.63033" lon="6.61575">
        <ele>643.259277</ele>
        <time>2011-12-11T12:11:51Z</time>
      </trkpt>
      <trkpt lat="43.63024" lon="6.61549">
        <ele>642.298096</ele>
        <time>2011-12-11T12:12:13Z</time>
      </trkpt>
      <trkpt lat="43.63013" lon="6.61518">
        <ele>641.817383</ele>
        <time>2011-12-11T12:12:33Z</time>
      </trkpt>
      <trkpt lat="43.63007" lon="6.615">
        <ele>643.259277</ele>
        <time>2011-12-11T12:12:48Z</time>
      </trkpt>
      <trkpt lat="43.63005" lon="6.61494">
        <ele>643.73999</ele>
        <time>2011-12-11T12:12:54Z</time>
      </trkpt>
      <trkpt lat="43.63002" lon="6.61482">
        <ele>643.259277</ele>
        <time>2011-12-11T12:13:04Z</time>
      </trkpt>
      <trkpt lat="43.63003" lon="6.61458">
        <ele>642.778809</ele>
        <time>2011-12-11T12:13:21Z</time>
      </trkpt>
      <trkpt lat="43.62998" lon="6.61433">
        <ele>644.701172</ele>
        <time>2011-12-11T12:13:40Z</time>
      </trkpt>
      <trkpt lat="43.63001" lon="6.61402">
        <ele>645.181885</ele>
        <time>2011-12-11T12:14:03Z</time>
      </trkpt>
      <trkpt lat="43.63001" lon="6.61395">
        <ele>646.143311</ele>
        <time>2011-12-11T12:14:07Z</time>
      </trkpt>
      <trkpt lat="43.63001" lon="6.61382">
        <ele>645.181885</ele>
        <time>2011-12-11T12:14:15Z</time>
      </trkpt>
      <trkpt lat="43.63003" lon="6.61377">
        <ele>645.662598</ele>
        <time>2011-12-11T12:14:18Z</time>
      </trkpt>
      <trkpt lat="43.63004" lon="6.61368">
        <ele>646.143311</ele>
        <time>2011-12-11T12:14:24Z</time>
      </trkpt>
      <trkpt lat="43.63006" lon="6.61363">
        <ele>645.662598</ele>
        <time>2011-12-11T12:14:27Z</time>
      </trkpt>
      <trkpt lat="43.63006" lon="6.61359">
        <ele>645.662598</ele>
        <time>2011-12-11T12:14:29Z</time>
      </trkpt>
      <trkpt lat="43.63006" lon="6.61341">
        <ele>647.104492</ele>
        <time>2011-12-11T12:14:43Z</time>
      </trkpt>
      <trkpt lat="43.63003" lon="6.61333">
        <ele>648.546387</ele>
        <time>2011-12-11T12:14:51Z</time>
      </trkpt>
      <trkpt lat="43.62996" lon="6.6131">
        <ele>651.911133</ele>
        <time>2011-12-11T12:15:07Z</time>
      </trkpt>
      <trkpt lat="43.62994" lon="6.61283">
        <ele>654.795166</ele>
        <time>2011-12-11T12:15:26Z</time>
      </trkpt>
      <trkpt lat="43.62999" lon="6.61252">
        <ele>654.314697</ele>
        <time>2011-12-11T12:15:46Z</time>
      </trkpt>
      <trkpt lat="43.62995" lon="6.61222">
        <ele>653.353271</ele>
        <time>2011-12-11T12:16:08Z</time>
      </trkpt>
      <trkpt lat="43.62994" lon="6.612">
        <ele>652.872559</ele>
        <time>2011-12-11T12:16:22Z</time>
      </trkpt>
      <trkpt lat="43.6299" lon="6.61189">
        <ele>651.43042</ele>
        <time>2011-12-11T12:16:31Z</time>
      </trkpt>
      <trkpt lat="43.62983" lon="6.61187">
        <ele>650.469238</ele>
        <time>2011-12-11T12:16:37Z</time>
      </trkpt>
      <trkpt lat="43.62967" lon="6.61185">
        <ele>644.701172</ele>
        <time>2011-12-11T12:16:53Z</time>
      </trkpt>
      <trkpt lat="43.62965" lon="6.61178">
        <ele>643.259277</ele>
        <time>2011-12-11T12:17:03Z</time>
      </trkpt>
      <trkpt lat="43.62964" lon="6.61177">
        <ele>643.259277</ele>
        <time>2011-12-11T12:17:05Z</time>
      </trkpt>
      <trkpt lat="43.62951" lon="6.61163">
        <ele>642.778809</ele>
        <time>2011-12-11T12:17:22Z</time>
      </trkpt>
      <trkpt lat="43.62936" lon="6.61151">
        <ele>644.220703</ele>
        <time>2011-12-11T12:17:36Z</time>
      </trkpt>
      <trkpt lat="43.62927" lon="6.61129">
        <ele>647.104492</ele>
        <time>2011-12-11T12:17:53Z</time>
      </trkpt>
      <trkpt lat="43.62917" lon="6.61111">
        <ele>648.065918</ele>
        <time>2011-12-11T12:18:09Z</time>
      </trkpt>
      <trkpt lat="43.62917" lon="6.61106">
        <ele>648.065918</ele>
        <time>2011-12-11T12:18:12Z</time>
      </trkpt>
      <trkpt lat="43.62911" lon="6.61081">
        <ele>652.872559</ele>
        <time>2011-12-11T12:18:28Z</time>
      </trkpt>
      <trkpt lat="43.62911" lon="6.61074">
        <ele>653.833984</ele>
        <time>2011-12-11T12:18:33Z</time>
      </trkpt>
      <trkpt lat="43.62907" lon="6.61053">
        <ele>659.601807</ele>
        <time>2011-12-11T12:18:51Z</time>
      </trkpt>
      <trkpt lat="43.62909" lon="6.61051">
        <ele>659.121094</ele>
        <time>2011-12-11T12:18:52Z</time>
      </trkpt>
      <trkpt lat="43.62901" lon="6.61028">
        <ele>658.640381</ele>
        <time>2011-12-11T12:19:08Z</time>
      </trkpt>
      <trkpt lat="43.62901" lon="6.61027">
        <ele>658.640381</ele>
        <time>2011-12-11T12:19:09Z</time>
      </trkpt>
      <trkpt lat="43.62892" lon="6.61011">
        <ele>655.756592</ele>
        <time>2011-12-11T12:19:25Z</time>
      </trkpt>
      <trkpt lat="43.62888" lon="6.61012">
        <ele>653.353271</ele>
        <time>2011-12-11T12:19:31Z</time>
      </trkpt>
      <trkpt lat="43.62876" lon="6.60994">
        <ele>653.353271</ele>
        <time>2011-12-11T12:19:44Z</time>
      </trkpt>
      <trkpt lat="43.62868" lon="6.60979">
        <ele>653.833984</ele>
        <time>2011-12-11T12:19:58Z</time>
      </trkpt>
      <trkpt lat="43.62864" lon="6.60975">
        <ele>653.353271</ele>
        <time>2011-12-11T12:20:03Z</time>
      </trkpt>
      <trkpt lat="43.62862" lon="6.60969">
        <ele>653.353271</ele>
        <time>2011-12-11T12:20:07Z</time>
      </trkpt>
      <trkpt lat="43.62859" lon="6.60958">
        <ele>653.833984</ele>
        <time>2011-12-11T12:20:17Z</time>
      </trkpt>
      <trkpt lat="43.62855" lon="6.60953">
        <ele>654.795166</ele>
        <time>2011-12-11T12:20:21Z</time>
      </trkpt>
      <trkpt lat="43.6284" lon="6.60932">
        <ele>658.640381</ele>
        <time>2011-12-11T12:20:39Z</time>
      </trkpt>
      <trkpt lat="43.62819" lon="6.60918">
        <ele>656.237061</ele>
        <time>2011-12-11T12:21:05Z</time>
      </trkpt>
      <trkpt lat="43.62805" lon="6.60913">
        <ele>653.833984</ele>
        <time>2011-12-11T12:21:23Z</time>
      </trkpt>
      <trkpt lat="43.62798" lon="6.60904">
        <ele>652.391846</ele>
        <time>2011-12-11T12:21:34Z</time>
      </trkpt>
      <trkpt lat="43.62786" lon="6.60888">
        <ele>649.0271</ele>
        <time>2011-12-11T12:21:55Z</time>
      </trkpt>
      <trkpt lat="43.628" lon="6.60899">
        <ele>651.911133</ele>
        <time>2011-12-11T12:22:16Z</time>
      </trkpt>
      <trkpt lat="43.628" lon="6.609">
        <ele>651.43042</ele>
        <time>2011-12-11T12:22:17Z</time>
      </trkpt>
      <trkpt lat="43.62812" lon="6.60908">
        <ele>650.949707</ele>
        <time>2011-12-11T12:22:33Z</time>
      </trkpt>
      <trkpt lat="43.62821" lon="6.60903">
        <ele>649.988525</ele>
        <time>2011-12-11T12:22:48Z</time>
      </trkpt>
      <trkpt lat="43.62831" lon="6.609">
        <ele>650.949707</ele>
        <time>2011-12-11T12:23:04Z</time>
      </trkpt>
      <trkpt lat="43.62835" lon="6.60898">
        <ele>652.872559</ele>
        <time>2011-12-11T12:23:16Z</time>
      </trkpt>
      <trkpt lat="43.62835" lon="6.60898">
        <ele>653.353271</ele>
        <time>2011-12-11T12:23:41Z</time>
      </trkpt>
      <trkpt lat="43.62834" lon="6.60902">
        <ele>655.275879</ele>
        <time>2011-12-11T12:24:06Z</time>
      </trkpt>
      <trkpt lat="43.6283" lon="6.60903">
        <ele>655.756592</ele>
        <time>2011-12-11T12:24:34Z</time>
      </trkpt>
      <trkpt lat="43.62823" lon="6.60903">
        <ele>655.756592</ele>
        <time>2011-12-11T12:24:47Z</time>
      </trkpt>
      <trkpt lat="43.62825" lon="6.60909">
        <ele>656.717773</ele>
        <time>2011-12-11T12:25:14Z</time>
      </trkpt>
      <trkpt lat="43.62823" lon="6.60909">
        <ele>660.082275</ele>
        <time>2011-12-11T12:25:49Z</time>
      </trkpt>
      <trkpt lat="43.62825" lon="6.60901">
        <ele>661.524414</ele>
        <time>2011-12-11T12:26:14Z</time>
      </trkpt>
      <trkpt lat="43.62833" lon="6.60897">
        <ele>661.043701</ele>
        <time>2011-12-11T12:26:30Z</time>
      </trkpt>
      <trkpt lat="43.62833" lon="6.60897">
        <ele>660.082275</ele>
        <time>2011-12-11T12:26:56Z</time>
      </trkpt>
      <trkpt lat="43.62832" lon="6.60897">
        <ele>658.640381</ele>
        <time>2011-12-11T12:27:15Z</time>
      </trkpt>
      <trkpt lat="43.6283" lon="6.60896">
        <ele>659.121094</ele>
        <time>2011-12-11T12:27:37Z</time>
      </trkpt>
      <trkpt lat="43.62825" lon="6.60898">
        <ele>657.679199</ele>
        <time>2011-12-11T12:28:09Z</time>
      </trkpt>
      <trkpt lat="43.62832" lon="6.60896">
        <ele>657.679199</ele>
        <time>2011-12-11T12:28:21Z</time>
      </trkpt>
      <trkpt lat="43.62832" lon="6.60895">
        <ele>658.640381</ele>
        <time>2011-12-11T12:29:09Z</time>
      </trkpt>
      <trkpt lat="43.62828" lon="6.60881">
        <ele>659.601807</ele>
        <time>2011-12-11T12:29:27Z</time>
      </trkpt>
      <trkpt lat="43.6283" lon="6.60875">
        <ele>659.121094</ele>
        <time>2011-12-11T12:29:45Z</time>
      </trkpt>
      <trkpt lat="43.62826" lon="6.60887">
        <ele>657.198486</ele>
        <time>2011-12-11T12:30:41Z</time>
      </trkpt>
      <trkpt lat="43.62831" lon="6.60893">
        <ele>654.795166</ele>
        <time>2011-12-11T12:30:55Z</time>
      </trkpt>
      <trkpt lat="43.6283" lon="6.60896">
        <ele>654.795166</ele>
        <time>2011-12-11T12:31:36Z</time>
      </trkpt>
      <trkpt lat="43.6283" lon="6.60897">
        <ele>654.314697</ele>
        <time>2011-12-11T12:32:46Z</time>
      </trkpt>
      <trkpt lat="43.6283" lon="6.60897">
        <ele>654.795166</ele>
        <time>2011-12-11T12:33:00Z</time>
      </trkpt>
      <trkpt lat="43.62831" lon="6.60896">
        <ele>654.795166</ele>
        <time>2011-12-11T12:33:21Z</time>
      </trkpt>
      <trkpt lat="43.62832" lon="6.60895">
        <ele>654.795166</ele>
        <time>2011-12-11T12:41:03Z</time>
      </trkpt>
      <trkpt lat="43.62834" lon="6.60895">
        <ele>653.833984</ele>
        <time>2011-12-11T12:42:30Z</time>
      </trkpt>
      <trkpt lat="43.62836" lon="6.60894">
        <ele>654.795166</ele>
        <time>2011-12-11T12:42:50Z</time>
      </trkpt>
      <trkpt lat="43.62837" lon="6.60896">
        <ele>654.795166</ele>
        <time>2011-12-11T12:43:10Z</time>
      </trkpt>
      <trkpt lat="43.62836" lon="6.60898">
        <ele>653.353271</ele>
        <time>2011-12-11T12:44:15Z</time>
      </trkpt>
      <trkpt lat="43.62836" lon="6.60895">
        <ele>651.43042</ele>
        <time>2011-12-11T12:53:03Z</time>
      </trkpt>
      <trkpt lat="43.62835" lon="6.60895">
        <ele>654.314697</ele>
        <time>2011-12-11T13:04:12Z</time>
      </trkpt>
      <trkpt lat="43.62835" lon="6.60896">
        <ele>656.237061</ele>
        <time>2011-12-11T13:04:27Z</time>
      </trkpt>
      <trkpt lat="43.62834" lon="6.60894">
        <ele>658.640381</ele>
        <time>2011-12-11T13:05:09Z</time>
      </trkpt>
      <trkpt lat="43.62834" lon="6.60899">
        <ele>659.601807</ele>
        <time>2011-12-11T13:05:57Z</time>
      </trkpt>
      <trkpt lat="43.62834" lon="6.60897">
        <ele>660.562988</ele>
        <time>2011-12-11T13:06:15Z</time>
      </trkpt>
      <trkpt lat="43.62831" lon="6.60896">
        <ele>661.524414</ele>
        <time>2011-12-11T13:06:59Z</time>
      </trkpt>
      <trkpt lat="43.62826" lon="6.60898">
        <ele>660.562988</ele>
        <time>2011-12-11T13:09:06Z</time>
      </trkpt>
      <trkpt lat="43.62826" lon="6.60898">
        <ele>660.562988</ele>
        <time>2011-12-11T13:09:58Z</time>
      </trkpt>
      <trkpt lat="43.62823" lon="6.60904">
        <ele>662.005127</ele>
        <time>2011-12-11T13:10:31Z</time>
      </trkpt>
      <trkpt lat="43.62815" lon="6.60914">
        <ele>661.524414</ele>
        <time>2011-12-11T13:10:51Z</time>
      </trkpt>
      <trkpt lat="43.62813" lon="6.60913">
        <ele>661.524414</ele>
        <time>2011-12-11T13:11:01Z</time>
      </trkpt>
      <trkpt lat="43.62803" lon="6.60902">
        <ele>661.524414</ele>
        <time>2011-12-11T13:11:22Z</time>
      </trkpt>
      <trkpt lat="43.62796" lon="6.60894">
        <ele>660.562988</ele>
        <time>2011-12-11T13:11:43Z</time>
      </trkpt>
      <trkpt lat="43.62783" lon="6.60884">
        <ele>660.562988</ele>
        <time>2011-12-11T13:12:03Z</time>
      </trkpt>
      <trkpt lat="43.62779" lon="6.60883">
        <ele>660.562988</ele>
        <time>2011-12-11T13:12:12Z</time>
      </trkpt>
      <trkpt lat="43.62763" lon="6.60888">
        <ele>663.447021</ele>
        <time>2011-12-11T13:12:38Z</time>
      </trkpt>
      <trkpt lat="43.62759" lon="6.60884">
        <ele>663.92749</ele>
        <time>2011-12-11T13:12:47Z</time>
      </trkpt>
      <trkpt lat="43.62754" lon="6.60882">
        <ele>664.888916</ele>
        <time>2011-12-11T13:12:55Z</time>
      </trkpt>
      <trkpt lat="43.62756" lon="6.60868">
        <ele>665.369629</ele>
        <time>2011-12-11T13:13:07Z</time>
      </trkpt>
      <trkpt lat="43.62758" lon="6.60847">
        <ele>666.330811</ele>
        <time>2011-12-11T13:13:27Z</time>
      </trkpt>
      <trkpt lat="43.62756" lon="6.60823">
        <ele>668.734375</ele>
        <time>2011-12-11T13:13:48Z</time>
      </trkpt>
      <trkpt lat="43.62756" lon="6.60821">
        <ele>668.734375</ele>
        <time>2011-12-11T13:13:50Z</time>
      </trkpt>
      <trkpt lat="43.62758" lon="6.6081">
        <ele>669.695801</ele>
        <time>2011-12-11T13:13:58Z</time>
      </trkpt>
      <trkpt lat="43.62758" lon="6.60802">
        <ele>671.618164</ele>
        <time>2011-12-11T13:14:03Z</time>
      </trkpt>
      <trkpt lat="43.62761" lon="6.60782">
        <ele>672.57959</ele>
        <time>2011-12-11T13:14:18Z</time>
      </trkpt>
      <trkpt lat="43.62772" lon="6.60769">
        <ele>668.253662</ele>
        <time>2011-12-11T13:14:34Z</time>
      </trkpt>
      <trkpt lat="43.62772" lon="6.60768">
        <ele>668.253662</ele>
        <time>2011-12-11T13:14:35Z</time>
      </trkpt>
      <trkpt lat="43.62772" lon="6.60749">
        <ele>666.330811</ele>
        <time>2011-12-11T13:14:54Z</time>
      </trkpt>
      <trkpt lat="43.62768" lon="6.60733">
        <ele>664.888916</ele>
        <time>2011-12-11T13:15:08Z</time>
      </trkpt>
      <trkpt lat="43.62762" lon="6.60709">
        <ele>661.524414</ele>
        <time>2011-12-11T13:15:28Z</time>
      </trkpt>
      <trkpt lat="43.62761" lon="6.60696">
        <ele>660.082275</ele>
        <time>2011-12-11T13:15:44Z</time>
      </trkpt>
      <trkpt lat="43.62753" lon="6.60669">
        <ele>659.601807</ele>
        <time>2011-12-11T13:16:04Z</time>
      </trkpt>
      <trkpt lat="43.62739" lon="6.60647">
        <ele>658.159912</ele>
        <time>2011-12-11T13:16:23Z</time>
      </trkpt>
      <trkpt lat="43.6273" lon="6.60629">
        <ele>657.198486</ele>
        <time>2011-12-11T13:16:38Z</time>
      </trkpt>
      <trkpt lat="43.62713" lon="6.60604">
        <ele>657.198486</ele>
        <time>2011-12-11T13:16:58Z</time>
      </trkpt>
      <trkpt lat="43.62698" lon="6.60583">
        <ele>651.43042</ele>
        <time>2011-12-11T13:17:15Z</time>
      </trkpt>
      <trkpt lat="43.62689" lon="6.60567">
        <ele>649.0271</ele>
        <time>2011-12-11T13:17:31Z</time>
      </trkpt>
      <trkpt lat="43.62675" lon="6.60546">
        <ele>647.104492</ele>
        <time>2011-12-11T13:17:52Z</time>
      </trkpt>
      <trkpt lat="43.62661" lon="6.60533">
        <ele>641.817383</ele>
        <time>2011-12-11T13:18:14Z</time>
      </trkpt>
      <trkpt lat="43.62649" lon="6.60518">
        <ele>637.972168</ele>
        <time>2011-12-11T13:18:33Z</time>
      </trkpt>
      <trkpt lat="43.62633" lon="6.60497">
        <ele>635.088135</ele>
        <time>2011-12-11T13:19:00Z</time>
      </trkpt>
      <trkpt lat="43.62624" lon="6.60488">
        <ele>632.684814</ele>
        <time>2011-12-11T13:19:21Z</time>
      </trkpt>
      <trkpt lat="43.62609" lon="6.60465">
        <ele>628.358887</ele>
        <time>2011-12-11T13:19:48Z</time>
      </trkpt>
      <trkpt lat="43.62594" lon="6.60448">
        <ele>626.436279</ele>
        <time>2011-12-11T13:20:14Z</time>
      </trkpt>
      <trkpt lat="43.62583" lon="6.60433">
        <ele>624.994385</ele>
        <time>2011-12-11T13:20:33Z</time>
      </trkpt>
      <trkpt lat="43.62574" lon="6.60418">
        <ele>626.916992</ele>
        <time>2011-12-11T13:20:47Z</time>
      </trkpt>
      <trkpt lat="43.62567" lon="6.60408">
        <ele>624.994385</ele>
        <time>2011-12-11T13:21:04Z</time>
      </trkpt>
      <trkpt lat="43.62554" lon="6.60393">
        <ele>624.032959</ele>
        <time>2011-12-11T13:21:18Z</time>
      </trkpt>
      <trkpt lat="43.62538" lon="6.60374">
        <ele>618.264893</ele>
        <time>2011-12-11T13:21:35Z</time>
      </trkpt>
      <trkpt lat="43.62523" lon="6.60354">
        <ele>617.303711</ele>
        <time>2011-12-11T13:21:54Z</time>
      </trkpt>
      <trkpt lat="43.62508" lon="6.60331">
        <ele>614.419678</ele>
        <time>2011-12-11T13:22:14Z</time>
      </trkpt>
      <trkpt lat="43.625" lon="6.60315">
        <ele>612.49707</ele>
        <time>2011-12-11T13:22:25Z</time>
      </trkpt>
      <trkpt lat="43.62497" lon="6.60308">
        <ele>612.977783</ele>
        <time>2011-12-11T13:22:31Z</time>
      </trkpt>
      <trkpt lat="43.62493" lon="6.60295">
        <ele>612.016602</ele>
        <time>2011-12-11T13:22:46Z</time>
      </trkpt>
      <trkpt lat="43.62493" lon="6.60288">
        <ele>610.574463</ele>
        <time>2011-12-11T13:22:55Z</time>
      </trkpt>
      <trkpt lat="43.62489" lon="6.60262">
        <ele>613.458496</ele>
        <time>2011-12-11T13:23:13Z</time>
      </trkpt>
      <trkpt lat="43.62487" lon="6.60252">
        <ele>613.938965</ele>
        <time>2011-12-11T13:23:21Z</time>
      </trkpt>
      <trkpt lat="43.62483" lon="6.60239">
        <ele>612.49707</ele>
        <time>2011-12-11T13:23:30Z</time>
      </trkpt>
      <trkpt lat="43.62481" lon="6.60224">
        <ele>611.535889</ele>
        <time>2011-12-11T13:23:42Z</time>
      </trkpt>
      <trkpt lat="43.62478" lon="6.60216">
        <ele>610.574463</ele>
        <time>2011-12-11T13:23:59Z</time>
      </trkpt>
      <trkpt lat="43.62472" lon="6.60203">
        <ele>608.171387</ele>
        <time>2011-12-11T13:24:15Z</time>
      </trkpt>
      <trkpt lat="43.62469" lon="6.60191">
        <ele>608.171387</ele>
        <time>2011-12-11T13:24:27Z</time>
      </trkpt>
      <trkpt lat="43.62461" lon="6.6017">
        <ele>606.248535</ele>
        <time>2011-12-11T13:24:43Z</time>
      </trkpt>
      <trkpt lat="43.62451" lon="6.60152">
        <ele>603.845215</ele>
        <time>2011-12-11T13:25:00Z</time>
      </trkpt>
      <trkpt lat="43.62434" lon="6.60141">
        <ele>606.248535</ele>
        <time>2011-12-11T13:25:17Z</time>
      </trkpt>
      <trkpt lat="43.62418" lon="6.60128">
        <ele>608.171387</ele>
        <time>2011-12-11T13:25:34Z</time>
      </trkpt>
      <trkpt lat="43.62412" lon="6.60122">
        <ele>609.132568</ele>
        <time>2011-12-11T13:25:41Z</time>
      </trkpt>
      <trkpt lat="43.624" lon="6.60109">
        <ele>610.574463</ele>
        <time>2011-12-11T13:25:54Z</time>
      </trkpt>
      <trkpt lat="43.62391" lon="6.60085">
        <ele>612.977783</ele>
        <time>2011-12-11T13:26:11Z</time>
      </trkpt>
      <trkpt lat="43.62384" lon="6.60061">
        <ele>611.535889</ele>
        <time>2011-12-11T13:26:30Z</time>
      </trkpt>
      <trkpt lat="43.62384" lon="6.60055">
        <ele>610.574463</ele>
        <time>2011-12-11T13:26:35Z</time>
      </trkpt>
      <trkpt lat="43.62381" lon="6.60031">
        <ele>609.132568</ele>
        <time>2011-12-11T13:26:48Z</time>
      </trkpt>
      <trkpt lat="43.62376" lon="6.6001">
        <ele>606.729248</ele>
        <time>2011-12-11T13:27:05Z</time>
      </trkpt>
      <trkpt lat="43.62374" lon="6.59992">
        <ele>606.729248</ele>
        <time>2011-12-11T13:27:16Z</time>
      </trkpt>
      <trkpt lat="43.62372" lon="6.59979">
        <ele>606.729248</ele>
        <time>2011-12-11T13:27:23Z</time>
      </trkpt>
      <trkpt lat="43.6237" lon="6.59969">
        <ele>606.729248</ele>
        <time>2011-12-11T13:27:29Z</time>
      </trkpt>
      <trkpt lat="43.62365" lon="6.59953">
        <ele>606.248535</ele>
        <time>2011-12-11T13:27:40Z</time>
      </trkpt>
      <trkpt lat="43.62361" lon="6.59944">
        <ele>608.171387</ele>
        <time>2011-12-11T13:27:48Z</time>
      </trkpt>
      <trkpt lat="43.6236" lon="6.59939">
        <ele>608.171387</ele>
        <time>2011-12-11T13:27:52Z</time>
      </trkpt>
      <trkpt lat="43.62357" lon="6.59933">
        <ele>607.209961</ele>
        <time>2011-12-11T13:27:57Z</time>
      </trkpt>
      <trkpt lat="43.62349" lon="6.59909">
        <ele>602.883789</ele>
        <time>2011-12-11T13:28:12Z</time>
      </trkpt>
      <trkpt lat="43.62341" lon="6.59891">
        <ele>599.038574</ele>
        <time>2011-12-11T13:28:28Z</time>
      </trkpt>
      <trkpt lat="43.62334" lon="6.59875">
        <ele>593.751465</ele>
        <time>2011-12-11T13:28:46Z</time>
      </trkpt>
      <trkpt lat="43.62328" lon="6.59855">
        <ele>591.828857</ele>
        <time>2011-12-11T13:29:03Z</time>
      </trkpt>
      <trkpt lat="43.62326" lon="6.59832">
        <ele>590.867432</ele>
        <time>2011-12-11T13:29:17Z</time>
      </trkpt>
      <trkpt lat="43.62326" lon="6.59829">
        <ele>590.867432</ele>
        <time>2011-12-11T13:29:19Z</time>
      </trkpt>
      <trkpt lat="43.62316" lon="6.59822">
        <ele>590.386963</ele>
        <time>2011-12-11T13:29:31Z</time>
      </trkpt>
      <trkpt lat="43.62312" lon="6.59822">
        <ele>589.90625</ele>
        <time>2011-12-11T13:29:35Z</time>
      </trkpt>
      <trkpt lat="43.62298" lon="6.59804">
        <ele>585.580078</ele>
        <time>2011-12-11T13:29:55Z</time>
      </trkpt>
      <trkpt lat="43.62289" lon="6.59797">
        <ele>586.060791</ele>
        <time>2011-12-11T13:30:09Z</time>
      </trkpt>
      <trkpt lat="43.62287" lon="6.59797">
        <ele>587.502686</ele>
        <time>2011-12-11T13:30:24Z</time>
      </trkpt>
      <trkpt lat="43.62284" lon="6.59795">
        <ele>588.945068</ele>
        <time>2011-12-11T13:30:44Z</time>
      </trkpt>
      <trkpt lat="43.62273" lon="6.59794">
        <ele>587.502686</ele>
        <time>2011-12-11T13:31:04Z</time>
      </trkpt>
      <trkpt lat="43.62269" lon="6.5979">
        <ele>587.021973</ele>
        <time>2011-12-11T13:31:09Z</time>
      </trkpt>
      <trkpt lat="43.62255" lon="6.59775">
        <ele>589.425537</ele>
        <time>2011-12-11T13:31:25Z</time>
      </trkpt>
      <trkpt lat="43.62244" lon="6.59754">
        <ele>594.712646</ele>
        <time>2011-12-11T13:31:42Z</time>
      </trkpt>
      <trkpt lat="43.62234" lon="6.59742">
        <ele>598.557861</ele>
        <time>2011-12-11T13:31:56Z</time>
      </trkpt>
      <trkpt lat="43.62233" lon="6.59738">
        <ele>598.557861</ele>
        <time>2011-12-11T13:31:57Z</time>
      </trkpt>
      <trkpt lat="43.62221" lon="6.59727">
        <ele>600</ele>
        <time>2011-12-11T13:32:14Z</time>
      </trkpt>
      <trkpt lat="43.62214" lon="6.59711">
        <ele>600</ele>
        <time>2011-12-11T13:32:29Z</time>
      </trkpt>
      <trkpt lat="43.62211" lon="6.59699">
        <ele>600</ele>
        <time>2011-12-11T13:32:40Z</time>
      </trkpt>
      <trkpt lat="43.62209" lon="6.59678">
        <ele>600</ele>
        <time>2011-12-11T13:32:51Z</time>
      </trkpt>
      <trkpt lat="43.62208" lon="6.59669">
        <ele>600.480713</ele>
        <time>2011-12-11T13:32:56Z</time>
      </trkpt>
      <trkpt lat="43.62211" lon="6.59662">
        <ele>601.441895</ele>
        <time>2011-12-11T13:33:03Z</time>
      </trkpt>
      <trkpt lat="43.62211" lon="6.59651">
        <ele>600.961182</ele>
        <time>2011-12-11T13:33:10Z</time>
      </trkpt>
      <trkpt lat="43.62205" lon="6.59635">
        <ele>601.441895</ele>
        <time>2011-12-11T13:33:21Z</time>
      </trkpt>
      <trkpt lat="43.62195" lon="6.5961">
        <ele>605.287354</ele>
        <time>2011-12-11T13:33:41Z</time>
      </trkpt>
      <trkpt lat="43.6219" lon="6.59604">
        <ele>604.806641</ele>
        <time>2011-12-11T13:33:46Z</time>
      </trkpt>
      <trkpt lat="43.62185" lon="6.59602">
        <ele>602.883789</ele>
        <time>2011-12-11T13:33:50Z</time>
      </trkpt>
      <trkpt lat="43.62173" lon="6.59594">
        <ele>600</ele>
        <time>2011-12-11T13:34:04Z</time>
      </trkpt>
      <trkpt lat="43.6217" lon="6.59591">
        <ele>599.519287</ele>
        <time>2011-12-11T13:34:07Z</time>
      </trkpt>
      <trkpt lat="43.62154" lon="6.5958">
        <ele>600</ele>
        <time>2011-12-11T13:34:23Z</time>
      </trkpt>
      <trkpt lat="43.62141" lon="6.5957">
        <ele>599.038574</ele>
        <time>2011-12-11T13:34:38Z</time>
      </trkpt>
      <trkpt lat="43.62137" lon="6.59567">
        <ele>598.557861</ele>
        <time>2011-12-11T13:34:43Z</time>
      </trkpt>
      <trkpt lat="43.62129" lon="6.59557">
        <ele>599.519287</ele>
        <time>2011-12-11T13:34:54Z</time>
      </trkpt>
      <trkpt lat="43.62123" lon="6.59545">
        <ele>601.441895</ele>
        <time>2011-12-11T13:35:05Z</time>
      </trkpt>
      <trkpt lat="43.62118" lon="6.59529">
        <ele>602.403076</ele>
        <time>2011-12-11T13:35:19Z</time>
      </trkpt>
      <trkpt lat="43.62114" lon="6.59509">
        <ele>607.209961</ele>
        <time>2011-12-11T13:35:33Z</time>
      </trkpt>
      <trkpt lat="43.62114" lon="6.59505">
        <ele>607.690674</ele>
        <time>2011-12-11T13:35:36Z</time>
      </trkpt>
      <trkpt lat="43.62113" lon="6.59483">
        <ele>613.458496</ele>
        <time>2011-12-11T13:35:52Z</time>
      </trkpt>
      <trkpt lat="43.62113" lon="6.59466">
        <ele>619.226318</ele>
        <time>2011-12-11T13:36:07Z</time>
      </trkpt>
      <trkpt lat="43.62107" lon="6.59445">
        <ele>619.707031</ele>
        <time>2011-12-11T13:36:21Z</time>
      </trkpt>
      <trkpt lat="43.621" lon="6.59431">
        <ele>620.668457</ele>
        <time>2011-12-11T13:36:34Z</time>
      </trkpt>
      <trkpt lat="43.62092" lon="6.59418">
        <ele>627.397705</ele>
        <time>2011-12-11T13:36:50Z</time>
      </trkpt>
      <trkpt lat="43.62089" lon="6.59405">
        <ele>629.320068</ele>
        <time>2011-12-11T13:37:00Z</time>
      </trkpt>
      <trkpt lat="43.6209" lon="6.59391">
        <ele>632.684814</ele>
        <time>2011-12-11T13:37:10Z</time>
      </trkpt>
      <trkpt lat="43.62093" lon="6.59377">
        <ele>635.568604</ele>
        <time>2011-12-11T13:37:23Z</time>
      </trkpt>
      <trkpt lat="43.62096" lon="6.59372">
        <ele>636.530273</ele>
        <time>2011-12-11T13:37:27Z</time>
      </trkpt>
      <trkpt lat="43.62094" lon="6.59361">
        <ele>637.972168</ele>
        <time>2011-12-11T13:37:37Z</time>
      </trkpt>
      <trkpt lat="43.62088" lon="6.5935">
        <ele>639.414063</ele>
        <time>2011-12-11T13:37:52Z</time>
      </trkpt>
      <trkpt lat="43.62087" lon="6.59348">
        <ele>639.894775</ele>
        <time>2011-12-11T13:38:46Z</time>
      </trkpt>
      <trkpt lat="43.62069" lon="6.59344">
        <ele>640.375488</ele>
        <time>2011-12-11T13:39:28Z</time>
      </trkpt>
      <trkpt lat="43.62058" lon="6.59341">
        <ele>639.414063</ele>
        <time>2011-12-11T13:39:38Z</time>
      </trkpt>
      <trkpt lat="43.6204" lon="6.5934">
        <ele>638.452881</ele>
        <time>2011-12-11T13:39:52Z</time>
      </trkpt>
      <trkpt lat="43.62024" lon="6.59328">
        <ele>638.452881</ele>
        <time>2011-12-11T13:40:11Z</time>
      </trkpt>
      <trkpt lat="43.62006" lon="6.59312">
        <ele>636.530273</ele>
        <time>2011-12-11T13:40:31Z</time>
      </trkpt>
      <trkpt lat="43.62" lon="6.59313">
        <ele>636.530273</ele>
        <time>2011-12-11T13:40:36Z</time>
      </trkpt>
      <trkpt lat="43.61989" lon="6.59325">
        <ele>635.568604</ele>
        <time>2011-12-11T13:40:49Z</time>
      </trkpt>
      <trkpt lat="43.61986" lon="6.59326">
        <ele>635.088135</ele>
        <time>2011-12-11T13:40:51Z</time>
      </trkpt>
      <trkpt lat="43.61978" lon="6.59332">
        <ele>635.088135</ele>
        <time>2011-12-11T13:40:58Z</time>
      </trkpt>
      <trkpt lat="43.61965" lon="6.59337">
        <ele>635.088135</ele>
        <time>2011-12-11T13:41:10Z</time>
      </trkpt>
      <trkpt lat="43.61958" lon="6.59334">
        <ele>634.607422</ele>
        <time>2011-12-11T13:41:15Z</time>
      </trkpt>
      <trkpt lat="43.61954" lon="6.59336">
        <ele>636.049561</ele>
        <time>2011-12-11T13:41:19Z</time>
      </trkpt>
      <trkpt lat="43.61949" lon="6.59336">
        <ele>636.049561</ele>
        <time>2011-12-11T13:41:26Z</time>
      </trkpt>
      <trkpt lat="43.61943" lon="6.5933">
        <ele>633.645996</ele>
        <time>2011-12-11T13:41:34Z</time>
      </trkpt>
      <trkpt lat="43.61939" lon="6.5933">
        <ele>633.645996</ele>
        <time>2011-12-11T13:41:37Z</time>
      </trkpt>
      <trkpt lat="43.61934" lon="6.59328">
        <ele>632.684814</ele>
        <time>2011-12-11T13:41:42Z</time>
      </trkpt>
      <trkpt lat="43.61919" lon="6.59325">
        <ele>630.281494</ele>
        <time>2011-12-11T13:41:56Z</time>
      </trkpt>
      <trkpt lat="43.61908" lon="6.59325">
        <ele>629.320068</ele>
        <time>2011-12-11T13:42:03Z</time>
      </trkpt>
      <trkpt lat="43.61892" lon="6.59323">
        <ele>628.8396</ele>
        <time>2011-12-11T13:42:17Z</time>
      </trkpt>
      <trkpt lat="43.6189" lon="6.59322">
        <ele>628.8396</ele>
        <time>2011-12-11T13:42:19Z</time>
      </trkpt>
      <trkpt lat="43.61874" lon="6.59324">
        <ele>624.994385</ele>
        <time>2011-12-11T13:42:33Z</time>
      </trkpt>
      <trkpt lat="43.61868" lon="6.59324">
        <ele>624.032959</ele>
        <time>2011-12-11T13:42:38Z</time>
      </trkpt>
      <trkpt lat="43.61862" lon="6.59324">
        <ele>624.032959</ele>
        <time>2011-12-11T13:42:43Z</time>
      </trkpt>
      <trkpt lat="43.6186" lon="6.59324">
        <ele>624.513672</ele>
        <time>2011-12-11T13:42:45Z</time>
      </trkpt>
      <trkpt lat="43.61854" lon="6.59323">
        <ele>625.955566</ele>
        <time>2011-12-11T13:42:51Z</time>
      </trkpt>
      <trkpt lat="43.61849" lon="6.59323">
        <ele>626.436279</ele>
        <time>2011-12-11T13:42:56Z</time>
      </trkpt>
      <trkpt lat="43.61833" lon="6.59327">
        <ele>626.436279</ele>
        <time>2011-12-11T13:43:10Z</time>
      </trkpt>
      <trkpt lat="43.61832" lon="6.59327">
        <ele>626.436279</ele>
        <time>2011-12-11T13:43:11Z</time>
      </trkpt>
      <trkpt lat="43.61827" lon="6.5933">
        <ele>625.474854</ele>
        <time>2011-12-11T13:43:16Z</time>
      </trkpt>
      <trkpt lat="43.61823" lon="6.59332">
        <ele>624.032959</ele>
        <time>2011-12-11T13:43:20Z</time>
      </trkpt>
      <trkpt lat="43.61813" lon="6.59343">
        <ele>625.955566</ele>
        <time>2011-12-11T13:43:31Z</time>
      </trkpt>
      <trkpt lat="43.6181" lon="6.59345">
        <ele>626.436279</ele>
        <time>2011-12-11T13:43:34Z</time>
      </trkpt>
      <trkpt lat="43.61806" lon="6.59348">
        <ele>627.878174</ele>
        <time>2011-12-11T13:43:37Z</time>
      </trkpt>
      <trkpt lat="43.618" lon="6.59351">
        <ele>626.436279</ele>
        <time>2011-12-11T13:43:42Z</time>
      </trkpt>
      <trkpt lat="43.61798" lon="6.59351">
        <ele>625.474854</ele>
        <time>2011-12-11T13:43:44Z</time>
      </trkpt>
      <trkpt lat="43.61788" lon="6.59357">
        <ele>625.955566</ele>
        <time>2011-12-11T13:43:53Z</time>
      </trkpt>
      <trkpt lat="43.61781" lon="6.5936">
        <ele>625.955566</ele>
        <time>2011-12-11T13:43:59Z</time>
      </trkpt>
      <trkpt lat="43.61762" lon="6.59381">
        <ele>624.513672</ele>
        <time>2011-12-11T13:44:20Z</time>
      </trkpt>
      <trkpt lat="43.61739" lon="6.59408">
        <ele>623.55249</ele>
        <time>2011-12-11T13:44:46Z</time>
      </trkpt>
      <trkpt lat="43.61719" lon="6.59412">
        <ele>623.55249</ele>
        <time>2011-12-11T13:45:03Z</time>
      </trkpt>
      <trkpt lat="43.61698" lon="6.59417">
        <ele>623.071777</ele>
        <time>2011-12-11T13:45:22Z</time>
      </trkpt>
      <trkpt lat="43.6169" lon="6.59417">
        <ele>622.591064</ele>
        <time>2011-12-11T13:45:35Z</time>
      </trkpt>
      <trkpt lat="43.61689" lon="6.5941">
        <ele>622.110352</ele>
        <time>2011-12-11T13:45:51Z</time>
      </trkpt>
      <trkpt lat="43.61686" lon="6.5941">
        <ele>627.397705</ele>
        <time>2011-12-11T13:46:12Z</time>
      </trkpt>
      <trkpt lat="43.61687" lon="6.59411">
        <ele>629.320068</ele>
        <time>2011-12-11T13:46:57Z</time>
      </trkpt>
      <trkpt lat="43.61687" lon="6.59409">
        <ele>629.320068</ele>
        <time>2011-12-11T13:48:53Z</time>
      </trkpt>
      <trkpt lat="43.61682" lon="6.59406">
        <ele>632.204102</ele>
        <time>2011-12-11T13:49:29Z</time>
      </trkpt>
      <trkpt lat="43.6167" lon="6.59416">
        <ele>631.24292</ele>
        <time>2011-12-11T13:49:49Z</time>
      </trkpt>
      <trkpt lat="43.61668" lon="6.59429">
        <ele>629.800781</ele>
        <time>2011-12-11T13:50:10Z</time>
      </trkpt>
      <trkpt lat="43.61667" lon="6.59439">
        <ele>629.800781</ele>
        <time>2011-12-11T13:50:19Z</time>
      </trkpt>
      <trkpt lat="43.6166" lon="6.59466">
        <ele>627.878174</ele>
        <time>2011-12-11T13:50:40Z</time>
      </trkpt>
      <trkpt lat="43.61657" lon="6.59477">
        <ele>627.397705</ele>
        <time>2011-12-11T13:50:48Z</time>
      </trkpt>
      <trkpt lat="43.61654" lon="6.59499">
        <ele>627.397705</ele>
        <time>2011-12-11T13:51:06Z</time>
      </trkpt>
      <trkpt lat="43.6165" lon="6.59527">
        <ele>624.032959</ele>
        <time>2011-12-11T13:51:28Z</time>
      </trkpt>
      <trkpt lat="43.61646" lon="6.59545">
        <ele>623.071777</ele>
        <time>2011-12-11T13:51:41Z</time>
      </trkpt>
      <trkpt lat="43.61644" lon="6.5955">
        <ele>623.55249</ele>
        <time>2011-12-11T13:51:45Z</time>
      </trkpt>
      <trkpt lat="43.61626" lon="6.59574">
        <ele>621.14917</ele>
        <time>2011-12-11T13:52:08Z</time>
      </trkpt>
      <trkpt lat="43.61616" lon="6.59597">
        <ele>618.264893</ele>
        <time>2011-12-11T13:52:27Z</time>
      </trkpt>
      <trkpt lat="43.61609" lon="6.59619">
        <ele>618.264893</ele>
        <time>2011-12-11T13:52:45Z</time>
      </trkpt>
      <trkpt lat="43.6161" lon="6.59647">
        <ele>617.78418</ele>
        <time>2011-12-11T13:53:05Z</time>
      </trkpt>
      <trkpt lat="43.61601" lon="6.59682">
        <ele>618.745605</ele>
        <time>2011-12-11T13:53:30Z</time>
      </trkpt>
      <trkpt lat="43.61595" lon="6.59701">
        <ele>616.342285</ele>
        <time>2011-12-11T13:53:47Z</time>
      </trkpt>
      <trkpt lat="43.61593" lon="6.59726">
        <ele>616.342285</ele>
        <time>2011-12-11T13:54:05Z</time>
      </trkpt>
      <trkpt lat="43.61592" lon="6.59753">
        <ele>614.900391</ele>
        <time>2011-12-11T13:54:24Z</time>
      </trkpt>
      <trkpt lat="43.61593" lon="6.59781">
        <ele>612.49707</ele>
        <time>2011-12-11T13:54:47Z</time>
      </trkpt>
      <trkpt lat="43.61597" lon="6.59811">
        <ele>609.613281</ele>
        <time>2011-12-11T13:55:12Z</time>
      </trkpt>
      <trkpt lat="43.61595" lon="6.59841">
        <ele>607.690674</ele>
        <time>2011-12-11T13:55:35Z</time>
      </trkpt>
      <trkpt lat="43.61602" lon="6.59878">
        <ele>607.209961</ele>
        <time>2011-12-11T13:56:02Z</time>
      </trkpt>
      <trkpt lat="43.61603" lon="6.59892">
        <ele>607.209961</ele>
        <time>2011-12-11T13:56:15Z</time>
      </trkpt>
      <trkpt lat="43.61612" lon="6.59915">
        <ele>604.326172</ele>
        <time>2011-12-11T13:56:35Z</time>
      </trkpt>
      <trkpt lat="43.61618" lon="6.59934">
        <ele>601.441895</ele>
        <time>2011-12-11T13:56:52Z</time>
      </trkpt>
      <trkpt lat="43.61617" lon="6.59959">
        <ele>597.59668</ele>
        <time>2011-12-11T13:57:12Z</time>
      </trkpt>
      <trkpt lat="43.61616" lon="6.59972">
        <ele>596.635498</ele>
        <time>2011-12-11T13:57:22Z</time>
      </trkpt>
      <trkpt lat="43.61621" lon="6.5999">
        <ele>593.270752</ele>
        <time>2011-12-11T13:57:37Z</time>
      </trkpt>
      <trkpt lat="43.61626" lon="6.60018">
        <ele>592.30957</ele>
        <time>2011-12-11T13:57:57Z</time>
      </trkpt>
      <trkpt lat="43.61632" lon="6.60049">
        <ele>592.790283</ele>
        <time>2011-12-11T13:58:18Z</time>
      </trkpt>
      <trkpt lat="43.61635" lon="6.60077">
        <ele>593.270752</ele>
        <time>2011-12-11T13:58:38Z</time>
      </trkpt>
      <trkpt lat="43.61638" lon="6.60098">
        <ele>596.635498</ele>
        <time>2011-12-11T13:58:52Z</time>
      </trkpt>
      <trkpt lat="43.61634" lon="6.60128">
        <ele>597.59668</ele>
        <time>2011-12-11T13:59:10Z</time>
      </trkpt>
      <trkpt lat="43.61637" lon="6.60155">
        <ele>596.635498</ele>
        <time>2011-12-11T13:59:28Z</time>
      </trkpt>
      <trkpt lat="43.61642" lon="6.6019">
        <ele>593.270752</ele>
        <time>2011-12-11T13:59:52Z</time>
      </trkpt>
      <trkpt lat="43.61647" lon="6.60221">
        <ele>593.270752</ele>
        <time>2011-12-11T14:00:13Z</time>
      </trkpt>
      <trkpt lat="43.61649" lon="6.6025">
        <ele>591.828857</ele>
        <time>2011-12-11T14:00:31Z</time>
      </trkpt>
      <trkpt lat="43.6166" lon="6.60284">
        <ele>589.90625</ele>
        <time>2011-12-11T14:00:56Z</time>
      </trkpt>
      <trkpt lat="43.61682" lon="6.60301">
        <ele>586.541504</ele>
        <time>2011-12-11T14:01:21Z</time>
      </trkpt>
      <trkpt lat="43.61686" lon="6.60307">
        <ele>587.021973</ele>
        <time>2011-12-11T14:01:26Z</time>
      </trkpt>
      <trkpt lat="43.61691" lon="6.60328">
        <ele>586.060791</ele>
        <time>2011-12-11T14:01:42Z</time>
      </trkpt>
      <trkpt lat="43.61694" lon="6.60355">
        <ele>586.060791</ele>
        <time>2011-12-11T14:02:01Z</time>
      </trkpt>
      <trkpt lat="43.61695" lon="6.60382">
        <ele>584.138184</ele>
        <time>2011-12-11T14:02:17Z</time>
      </trkpt>
      <trkpt lat="43.61699" lon="6.60416">
        <ele>582.696289</ele>
        <time>2011-12-11T14:02:39Z</time>
      </trkpt>
      <trkpt lat="43.617" lon="6.6044">
        <ele>582.696289</ele>
        <time>2011-12-11T14:02:56Z</time>
      </trkpt>
      <trkpt lat="43.61701" lon="6.6047">
        <ele>587.021973</ele>
        <time>2011-12-11T14:03:15Z</time>
      </trkpt>
      <trkpt lat="43.61702" lon="6.60484">
        <ele>587.502686</ele>
        <time>2011-12-11T14:03:24Z</time>
      </trkpt>
      <trkpt lat="43.61705" lon="6.60506">
        <ele>590.867432</ele>
        <time>2011-12-11T14:03:40Z</time>
      </trkpt>
      <trkpt lat="43.61714" lon="6.60533">
        <ele>588.464355</ele>
        <time>2011-12-11T14:03:59Z</time>
      </trkpt>
      <trkpt lat="43.61719" lon="6.60563">
        <ele>586.541504</ele>
        <time>2011-12-11T14:04:19Z</time>
      </trkpt>
      <trkpt lat="43.61727" lon="6.60592">
        <ele>587.021973</ele>
        <time>2011-12-11T14:04:39Z</time>
      </trkpt>
      <trkpt lat="43.61742" lon="6.60623">
        <ele>586.541504</ele>
        <time>2011-12-11T14:05:03Z</time>
      </trkpt>
      <trkpt lat="43.61753" lon="6.60654">
        <ele>586.541504</ele>
        <time>2011-12-11T14:05:28Z</time>
      </trkpt>
      <trkpt lat="43.61763" lon="6.60687">
        <ele>587.502686</ele>
        <time>2011-12-11T14:05:53Z</time>
      </trkpt>
      <trkpt lat="43.61764" lon="6.60696">
        <ele>587.021973</ele>
        <time>2011-12-11T14:06:00Z</time>
      </trkpt>
      <trkpt lat="43.61774" lon="6.60727">
        <ele>587.021973</ele>
        <time>2011-12-11T14:06:21Z</time>
      </trkpt>
      <trkpt lat="43.61774" lon="6.6073">
        <ele>587.021973</ele>
        <time>2011-12-11T14:06:23Z</time>
      </trkpt>
      <trkpt lat="43.61783" lon="6.60763">
        <ele>586.060791</ele>
        <time>2011-12-11T14:06:48Z</time>
      </trkpt>
      <trkpt lat="43.61786" lon="6.60778">
        <ele>584.138184</ele>
        <time>2011-12-11T14:07:00Z</time>
      </trkpt>
      <trkpt lat="43.61787" lon="6.60803">
        <ele>581.734863</ele>
        <time>2011-12-11T14:07:18Z</time>
      </trkpt>
      <trkpt lat="43.61787" lon="6.60806">
        <ele>582.215576</ele>
        <time>2011-12-11T14:07:21Z</time>
      </trkpt>
      <trkpt lat="43.61789" lon="6.60834">
        <ele>584.138184</ele>
        <time>2011-12-11T14:07:36Z</time>
      </trkpt>
      <trkpt lat="43.61798" lon="6.60858">
        <ele>585.099609</ele>
        <time>2011-12-11T14:07:52Z</time>
      </trkpt>
      <trkpt lat="43.61808" lon="6.60881">
        <ele>587.021973</ele>
        <time>2011-12-11T14:08:08Z</time>
      </trkpt>
      <trkpt lat="43.61816" lon="6.60909">
        <ele>587.502686</ele>
        <time>2011-12-11T14:08:28Z</time>
      </trkpt>
      <trkpt lat="43.61819" lon="6.60929">
        <ele>585.099609</ele>
        <time>2011-12-11T14:08:44Z</time>
      </trkpt>
      <trkpt lat="43.6182" lon="6.60949">
        <ele>584.138184</ele>
        <time>2011-12-11T14:09:00Z</time>
      </trkpt>
      <trkpt lat="43.61822" lon="6.6098">
        <ele>582.696289</ele>
        <time>2011-12-11T14:09:22Z</time>
      </trkpt>
      <trkpt lat="43.61823" lon="6.61006">
        <ele>582.696289</ele>
        <time>2011-12-11T14:09:39Z</time>
      </trkpt>
      <trkpt lat="43.61824" lon="6.61039">
        <ele>583.176758</ele>
        <time>2011-12-11T14:09:59Z</time>
      </trkpt>
      <trkpt lat="43.61825" lon="6.61058">
        <ele>583.657471</ele>
        <time>2011-12-11T14:10:12Z</time>
      </trkpt>
      <trkpt lat="43.61827" lon="6.6108">
        <ele>581.734863</ele>
        <time>2011-12-11T14:10:27Z</time>
      </trkpt>
      <trkpt lat="43.61829" lon="6.61111">
        <ele>582.215576</ele>
        <time>2011-12-11T14:10:48Z</time>
      </trkpt>
      <trkpt lat="43.61833" lon="6.61145">
        <ele>578.370361</ele>
        <time>2011-12-11T14:11:12Z</time>
      </trkpt>
      <trkpt lat="43.61833" lon="6.61171">
        <ele>577.889648</ele>
        <time>2011-12-11T14:11:29Z</time>
      </trkpt>
      <trkpt lat="43.61832" lon="6.6118">
        <ele>576.447754</ele>
        <time>2011-12-11T14:11:36Z</time>
      </trkpt>
      <trkpt lat="43.61831" lon="6.61192">
        <ele>575.486328</ele>
        <time>2011-12-11T14:11:44Z</time>
      </trkpt>
      <trkpt lat="43.61833" lon="6.61203">
        <ele>574.044434</ele>
        <time>2011-12-11T14:11:52Z</time>
      </trkpt>
      <trkpt lat="43.61839" lon="6.61214">
        <ele>570.679688</ele>
        <time>2011-12-11T14:12:01Z</time>
      </trkpt>
      <trkpt lat="43.61855" lon="6.61244">
        <ele>564.911865</ele>
        <time>2011-12-11T14:12:25Z</time>
      </trkpt>
      <trkpt lat="43.61874" lon="6.61273">
        <ele>561.547363</ele>
        <time>2011-12-11T14:12:50Z</time>
      </trkpt>
      <trkpt lat="43.61894" lon="6.61298">
        <ele>557.221436</ele>
        <time>2011-12-11T14:13:14Z</time>
      </trkpt>
      <trkpt lat="43.61908" lon="6.61316">
        <ele>557.221436</ele>
        <time>2011-12-11T14:13:31Z</time>
      </trkpt>
      <trkpt lat="43.61909" lon="6.61317">
        <ele>557.221436</ele>
        <time>2011-12-11T14:13:32Z</time>
      </trkpt>
      <trkpt lat="43.61921" lon="6.61335">
        <ele>556.740723</ele>
        <time>2011-12-11T14:13:48Z</time>
      </trkpt>
      <trkpt lat="43.61921" lon="6.61336">
        <ele>556.740723</ele>
        <time>2011-12-11T14:13:49Z</time>
      </trkpt>
      <trkpt lat="43.61924" lon="6.61347">
        <ele>555.779297</ele>
        <time>2011-12-11T14:14:07Z</time>
      </trkpt>
      <trkpt lat="43.6193" lon="6.61349">
        <ele>555.779297</ele>
        <time>2011-12-11T14:14:23Z</time>
      </trkpt>
      <trkpt lat="43.61939" lon="6.61371">
        <ele>555.298584</ele>
        <time>2011-12-11T14:14:41Z</time>
      </trkpt>
      <trkpt lat="43.61957" lon="6.61394">
        <ele>555.298584</ele>
        <time>2011-12-11T14:15:02Z</time>
      </trkpt>
      <trkpt lat="43.61977" lon="6.61415">
        <ele>554.337402</ele>
        <time>2011-12-11T14:15:22Z</time>
      </trkpt>
      <trkpt lat="43.62001" lon="6.61431">
        <ele>557.221436</ele>
        <time>2011-12-11T14:15:47Z</time>
      </trkpt>
      <trkpt lat="43.62013" lon="6.61435">
        <ele>558.182861</ele>
        <time>2011-12-11T14:16:03Z</time>
      </trkpt>
      <trkpt lat="43.6202" lon="6.61436">
        <ele>557.702148</ele>
        <time>2011-12-11T14:16:16Z</time>
      </trkpt>
      <trkpt lat="43.62031" lon="6.61437">
        <ele>560.585938</ele>
        <time>2011-12-11T14:16:31Z</time>
      </trkpt>
      <trkpt lat="43.62046" lon="6.61437">
        <ele>561.547363</ele>
        <time>2011-12-11T14:16:48Z</time>
      </trkpt>
      <trkpt lat="43.62057" lon="6.61438">
        <ele>561.547363</ele>
        <time>2011-12-11T14:17:02Z</time>
      </trkpt>
      <trkpt lat="43.6207" lon="6.61444">
        <ele>563.469971</ele>
        <time>2011-12-11T14:17:20Z</time>
      </trkpt>
      <trkpt lat="43.62081" lon="6.61452">
        <ele>565.873291</ele>
        <time>2011-12-11T14:17:35Z</time>
      </trkpt>
      <trkpt lat="43.62097" lon="6.61467">
        <ele>569.237793</ele>
        <time>2011-12-11T14:17:56Z</time>
      </trkpt>
      <trkpt lat="43.62101" lon="6.61473">
        <ele>570.198975</ele>
        <time>2011-12-11T14:18:05Z</time>
      </trkpt>
      <trkpt lat="43.62114" lon="6.61483">
        <ele>570.679688</ele>
        <time>2011-12-11T14:18:22Z</time>
      </trkpt>
      <trkpt lat="43.62122" lon="6.61488">
        <ele>570.679688</ele>
        <time>2011-12-11T14:18:42Z</time>
      </trkpt>
      <trkpt lat="43.62134" lon="6.61492">
        <ele>572.121826</ele>
        <time>2011-12-11T14:18:56Z</time>
      </trkpt>
      <trkpt lat="43.62145" lon="6.61494">
        <ele>575.005859</ele>
        <time>2011-12-11T14:19:12Z</time>
      </trkpt>
      <trkpt lat="43.62142" lon="6.61505">
        <ele>584.138184</ele>
        <time>2011-12-11T14:19:34Z</time>
      </trkpt>
      <trkpt lat="43.62135" lon="6.61518">
        <ele>585.580078</ele>
        <time>2011-12-11T14:19:57Z</time>
      </trkpt>
      <trkpt lat="43.62129" lon="6.6153">
        <ele>585.099609</ele>
        <time>2011-12-11T14:20:13Z</time>
      </trkpt>
      <trkpt lat="43.62123" lon="6.61538">
        <ele>585.580078</ele>
        <time>2011-12-11T14:20:36Z</time>
      </trkpt>
      <trkpt lat="43.62123" lon="6.61544">
        <ele>584.138184</ele>
        <time>2011-12-11T14:21:01Z</time>
      </trkpt>
      <trkpt lat="43.62126" lon="6.61559">
        <ele>579.331543</ele>
        <time>2011-12-11T14:21:25Z</time>
      </trkpt>
      <trkpt lat="43.62127" lon="6.61576">
        <ele>577.40918</ele>
        <time>2011-12-11T14:21:45Z</time>
      </trkpt>
      <trkpt lat="43.62129" lon="6.61603">
        <ele>574.525146</ele>
        <time>2011-12-11T14:22:09Z</time>
      </trkpt>
      <trkpt lat="43.62138" lon="6.61615">
        <ele>571.640869</ele>
        <time>2011-12-11T14:22:31Z</time>
      </trkpt>
      <trkpt lat="43.62147" lon="6.61617">
        <ele>564.431152</ele>
        <time>2011-12-11T14:22:44Z</time>
      </trkpt>
      <trkpt lat="43.62147" lon="6.61618">
        <ele>564.911865</ele>
        <time>2011-12-11T14:22:45Z</time>
      </trkpt>
      <trkpt lat="43.62144" lon="6.61626">
        <ele>563.469971</ele>
        <time>2011-12-11T14:23:00Z</time>
      </trkpt>
      <trkpt lat="43.62141" lon="6.61625">
        <ele>564.911865</ele>
        <time>2011-12-11T14:23:16Z</time>
      </trkpt>
      <trkpt lat="43.62136" lon="6.61625">
        <ele>565.392578</ele>
        <time>2011-12-11T14:23:36Z</time>
      </trkpt>
      <trkpt lat="43.62142" lon="6.61627">
        <ele>564.431152</ele>
        <time>2011-12-11T14:23:54Z</time>
      </trkpt>
      <trkpt lat="43.62151" lon="6.61626">
        <ele>563.469971</ele>
        <time>2011-12-11T14:24:14Z</time>
      </trkpt>
      <trkpt lat="43.62159" lon="6.61628">
        <ele>562.028076</ele>
        <time>2011-12-11T14:24:26Z</time>
      </trkpt>
      <trkpt lat="43.62162" lon="6.61628">
        <ele>564.431152</ele>
        <time>2011-12-11T14:24:42Z</time>
      </trkpt>
      <trkpt lat="43.62161" lon="6.61627">
        <ele>565.392578</ele>
        <time>2011-12-11T14:25:02Z</time>
      </trkpt>
      <trkpt lat="43.62157" lon="6.61631">
        <ele>564.911865</ele>
        <time>2011-12-11T14:25:17Z</time>
      </trkpt>
      <trkpt lat="43.62159" lon="6.61629">
        <ele>563.469971</ele>
        <time>2011-12-11T14:25:37Z</time>
      </trkpt>
      <trkpt lat="43.6216" lon="6.61628">
        <ele>562.508545</ele>
        <time>2011-12-11T14:25:50Z</time>
      </trkpt>
      <trkpt lat="43.62169" lon="6.61625">
        <ele>563.469971</ele>
        <time>2011-12-11T14:26:04Z</time>
      </trkpt>
      <trkpt lat="43.62177" lon="6.61621">
        <ele>563.950439</ele>
        <time>2011-12-11T14:26:22Z</time>
      </trkpt>
      <trkpt lat="43.6219" lon="6.6162">
        <ele>561.06665</ele>
        <time>2011-12-11T14:26:39Z</time>
      </trkpt>
      <trkpt lat="43.62191" lon="6.6162">
        <ele>561.06665</ele>
        <time>2011-12-11T14:26:40Z</time>
      </trkpt>
      <trkpt lat="43.62199" lon="6.6162">
        <ele>556.26001</ele>
        <time>2011-12-11T14:26:52Z</time>
      </trkpt>
      <trkpt lat="43.62201" lon="6.6162">
        <ele>556.740723</ele>
        <time>2011-12-11T14:26:53Z</time>
      </trkpt>
      <trkpt lat="43.62223" lon="6.61627">
        <ele>553.375977</ele>
        <time>2011-12-11T14:27:17Z</time>
      </trkpt>
      <trkpt lat="43.62231" lon="6.61643">
        <ele>550.492188</ele>
        <time>2011-12-11T14:27:40Z</time>
      </trkpt>
      <trkpt lat="43.62213" lon="6.61652">
        <ele>547.127441</ele>
        <time>2011-12-11T14:28:03Z</time>
      </trkpt>
      <trkpt lat="43.62205" lon="6.61658">
        <ele>545.685547</ele>
        <time>2011-12-11T14:28:14Z</time>
      </trkpt>
      <trkpt lat="43.62197" lon="6.61669">
        <ele>544.724243</ele>
        <time>2011-12-11T14:28:29Z</time>
      </trkpt>
      <trkpt lat="43.62185" lon="6.6168">
        <ele>541.84021</ele>
        <time>2011-12-11T14:28:43Z</time>
      </trkpt>
      <trkpt lat="43.62182" lon="6.61681">
        <ele>541.359497</ele>
        <time>2011-12-11T14:28:46Z</time>
      </trkpt>
      <trkpt lat="43.62172" lon="6.61687">
        <ele>541.359497</ele>
        <time>2011-12-11T14:29:06Z</time>
      </trkpt>
      <trkpt lat="43.62168" lon="6.61687">
        <ele>539.43689</ele>
        <time>2011-12-11T14:29:24Z</time>
      </trkpt>
      <trkpt lat="43.6216" lon="6.61688">
        <ele>538.956299</ele>
        <time>2011-12-11T14:29:32Z</time>
      </trkpt>
      <trkpt lat="43.6215" lon="6.61694">
        <ele>538.956299</ele>
        <time>2011-12-11T14:29:39Z</time>
      </trkpt>
      <trkpt lat="43.62139" lon="6.61697">
        <ele>533.188354</ele>
        <time>2011-12-11T14:29:53Z</time>
      </trkpt>
      <trkpt lat="43.6213" lon="6.61703">
        <ele>533.188354</ele>
        <time>2011-12-11T14:30:08Z</time>
      </trkpt>
      <trkpt lat="43.62126" lon="6.61708">
        <ele>533.188354</ele>
        <time>2011-12-11T14:30:28Z</time>
      </trkpt>
      <trkpt lat="43.62114" lon="6.61715">
        <ele>536.072388</ele>
        <time>2011-12-11T14:30:45Z</time>
      </trkpt>
      <trkpt lat="43.62111" lon="6.61716">
        <ele>536.072388</ele>
        <time>2011-12-11T14:30:48Z</time>
      </trkpt>
      <trkpt lat="43.62093" lon="6.61712">
        <ele>537.033691</ele>
        <time>2011-12-11T14:31:05Z</time>
      </trkpt>
      <trkpt lat="43.6206" lon="6.61706">
        <ele>535.110962</ele>
        <time>2011-12-11T14:31:33Z</time>
      </trkpt>
      <trkpt lat="43.62038" lon="6.61704">
        <ele>534.630371</ele>
        <time>2011-12-11T14:31:58Z</time>
      </trkpt>
      <trkpt lat="43.62036" lon="6.6172">
        <ele>531.265747</ele>
        <time>2011-12-11T14:32:22Z</time>
      </trkpt>
      <trkpt lat="43.62022" lon="6.61739">
        <ele>525.497803</ele>
        <time>2011-12-11T14:32:52Z</time>
      </trkpt>
      <trkpt lat="43.62026" lon="6.61757">
        <ele>521.652588</ele>
        <time>2011-12-11T14:33:13Z</time>
      </trkpt>
      <trkpt lat="43.62026" lon="6.6177">
        <ele>519.729858</ele>
        <time>2011-12-11T14:33:34Z</time>
      </trkpt>
      <trkpt lat="43.6203" lon="6.61789">
        <ele>517.807251</ele>
        <time>2011-12-11T14:33:58Z</time>
      </trkpt>
      <trkpt lat="43.62017" lon="6.61813">
        <ele>516.365234</ele>
        <time>2011-12-11T14:34:51Z</time>
      </trkpt>
      <trkpt lat="43.62007" lon="6.61834">
        <ele>512.039429</ele>
        <time>2011-12-11T14:35:15Z</time>
      </trkpt>
      <trkpt lat="43.62004" lon="6.61851">
        <ele>509.155396</ele>
        <time>2011-12-11T14:35:36Z</time>
      </trkpt>
      <trkpt lat="43.62008" lon="6.61859">
        <ele>509.155396</ele>
        <time>2011-12-11T14:35:52Z</time>
      </trkpt>
      <trkpt lat="43.62019" lon="6.61869">
        <ele>508.674683</ele>
        <time>2011-12-11T14:36:09Z</time>
      </trkpt>
      <trkpt lat="43.62031" lon="6.61874">
        <ele>505.310181</ele>
        <time>2011-12-11T14:36:30Z</time>
      </trkpt>
      <trkpt lat="43.62032" lon="6.61885">
        <ele>501.945557</ele>
        <time>2011-12-11T14:36:47Z</time>
      </trkpt>
      <trkpt lat="43.62035" lon="6.61891">
        <ele>498.100342</ele>
        <time>2011-12-11T14:37:06Z</time>
      </trkpt>
      <trkpt lat="43.62033" lon="6.61904">
        <ele>496.177734</ele>
        <time>2011-12-11T14:37:25Z</time>
      </trkpt>
      <trkpt lat="43.62032" lon="6.61916">
        <ele>494.255005</ele>
        <time>2011-12-11T14:37:41Z</time>
      </trkpt>
      <trkpt lat="43.62031" lon="6.61928">
        <ele>491.370972</ele>
        <time>2011-12-11T14:37:59Z</time>
      </trkpt>
      <trkpt lat="43.62028" lon="6.61942">
        <ele>488.487183</ele>
        <time>2011-12-11T14:38:18Z</time>
      </trkpt>
      <trkpt lat="43.6202" lon="6.61942">
        <ele>487.045044</ele>
        <time>2011-12-11T14:38:37Z</time>
      </trkpt>
      <trkpt lat="43.62012" lon="6.6195">
        <ele>484.641846</ele>
        <time>2011-12-11T14:39:00Z</time>
      </trkpt>
      <trkpt lat="43.62005" lon="6.61956">
        <ele>483.68042</ele>
        <time>2011-12-11T14:39:18Z</time>
      </trkpt>
      <trkpt lat="43.62007" lon="6.61967">
        <ele>486.08374</ele>
        <time>2011-12-11T14:39:37Z</time>
      </trkpt>
      <trkpt lat="43.62005" lon="6.61969">
        <ele>485.603027</ele>
        <time>2011-12-11T14:40:01Z</time>
      </trkpt>
      <trkpt lat="43.62005" lon="6.61967">
        <ele>485.122437</ele>
        <time>2011-12-11T14:40:40Z</time>
      </trkpt>
      <trkpt lat="43.62013" lon="6.61968">
        <ele>484.161133</ele>
        <time>2011-12-11T14:41:24Z</time>
      </trkpt>
      <trkpt lat="43.62017" lon="6.61977">
        <ele>483.68042</ele>
        <time>2011-12-11T14:41:33Z</time>
      </trkpt>
      <trkpt lat="43.62024" lon="6.61985">
        <ele>482.238525</ele>
        <time>2011-12-11T14:41:41Z</time>
      </trkpt>
      <trkpt lat="43.6203" lon="6.61988">
        <ele>481.277222</ele>
        <time>2011-12-11T14:41:48Z</time>
      </trkpt>
      <trkpt lat="43.62044" lon="6.61995">
        <ele>480.315918</ele>
        <time>2011-12-11T14:42:07Z</time>
      </trkpt>
      <trkpt lat="43.62061" lon="6.61994">
        <ele>477.912476</ele>
        <time>2011-12-11T14:42:22Z</time>
      </trkpt>
      <trkpt lat="43.62079" lon="6.6199">
        <ele>475.509277</ele>
        <time>2011-12-11T14:42:42Z</time>
      </trkpt>
      <trkpt lat="43.62096" lon="6.61984">
        <ele>475.509277</ele>
        <time>2011-12-11T14:43:05Z</time>
      </trkpt>
      <trkpt lat="43.62124" lon="6.61969">
        <ele>480.315918</ele>
        <time>2011-12-11T14:43:37Z</time>
      </trkpt>
      <trkpt lat="43.62133" lon="6.61975">
        <ele>483.199829</ele>
        <time>2011-12-11T14:43:58Z</time>
      </trkpt>
      <trkpt lat="43.6214" lon="6.6196">
        <ele>483.68042</ele>
        <time>2011-12-11T14:44:15Z</time>
      </trkpt>
      <trkpt lat="43.62152" lon="6.61954">
        <ele>483.68042</ele>
        <time>2011-12-11T14:44:26Z</time>
      </trkpt>
      <trkpt lat="43.62167" lon="6.61948">
        <ele>484.161133</ele>
        <time>2011-12-11T14:44:40Z</time>
      </trkpt>
      <trkpt lat="43.62178" lon="6.61943">
        <ele>482.719238</ele>
        <time>2011-12-11T14:44:48Z</time>
      </trkpt>
      <trkpt lat="43.62189" lon="6.61925">
        <ele>485.122437</ele>
        <time>2011-12-11T14:45:04Z</time>
      </trkpt>
      <trkpt lat="43.62198" lon="6.61914">
        <ele>485.122437</ele>
        <time>2011-12-11T14:45:14Z</time>
      </trkpt>
      <trkpt lat="43.62208" lon="6.61913">
        <ele>485.122437</ele>
        <time>2011-12-11T14:45:24Z</time>
      </trkpt>
      <trkpt lat="43.62209" lon="6.61917">
        <ele>485.122437</ele>
        <time>2011-12-11T14:45:27Z</time>
      </trkpt>
      <trkpt lat="43.6222" lon="6.61921">
        <ele>485.122437</ele>
        <time>2011-12-11T14:45:40Z</time>
      </trkpt>
      <trkpt lat="43.6224" lon="6.61929">
        <ele>486.564453</ele>
        <time>2011-12-11T14:45:59Z</time>
      </trkpt>
      <trkpt lat="43.62262" lon="6.61962">
        <ele>488.967773</ele>
        <time>2011-12-11T14:46:16Z</time>
      </trkpt>
      <trkpt lat="43.62269" lon="6.61972">
        <ele>490.40979</ele>
        <time>2011-12-11T14:46:24Z</time>
      </trkpt>
      <trkpt lat="43.62289" lon="6.61984">
        <ele>492.332397</ele>
        <time>2011-12-11T14:46:45Z</time>
      </trkpt>
      <trkpt lat="43.62307" lon="6.61992">
        <ele>491.370972</ele>
        <time>2011-12-11T14:47:05Z</time>
      </trkpt>
      <trkpt lat="43.62329" lon="6.6196">
        <ele>487.525635</ele>
        <time>2011-12-11T14:47:18Z</time>
      </trkpt>
      <trkpt lat="43.6233" lon="6.61957">
        <ele>487.525635</ele>
        <time>2011-12-11T14:47:20Z</time>
      </trkpt>
      <trkpt lat="43.62335" lon="6.61938">
        <ele>486.564453</ele>
        <time>2011-12-11T14:47:29Z</time>
      </trkpt>
      <trkpt lat="43.62337" lon="6.6192">
        <ele>485.603027</ele>
        <time>2011-12-11T14:47:37Z</time>
      </trkpt>
      <trkpt lat="43.62339" lon="6.61918">
        <ele>485.122437</ele>
        <time>2011-12-11T14:47:39Z</time>
      </trkpt>
      <trkpt lat="43.62343" lon="6.61901">
        <ele>484.641846</ele>
        <time>2011-12-11T14:47:51Z</time>
      </trkpt>
      <trkpt lat="43.6234" lon="6.61883">
        <ele>487.525635</ele>
        <time>2011-12-11T14:48:08Z</time>
      </trkpt>
      <trkpt lat="43.6234" lon="6.6188">
        <ele>488.487183</ele>
        <time>2011-12-11T14:48:12Z</time>
      </trkpt>
      <trkpt lat="43.62353" lon="6.61867">
        <ele>488.967773</ele>
        <time>2011-12-11T14:48:31Z</time>
      </trkpt>
      <trkpt lat="43.62374" lon="6.61877">
        <ele>489.929077</ele>
        <time>2011-12-11T14:48:53Z</time>
      </trkpt>
      <trkpt lat="43.6239" lon="6.61872">
        <ele>489.929077</ele>
        <time>2011-12-11T14:49:03Z</time>
      </trkpt>
      <trkpt lat="43.62393" lon="6.61875">
        <ele>489.448364</ele>
        <time>2011-12-11T14:49:06Z</time>
      </trkpt>
      <trkpt lat="43.624" lon="6.61875">
        <ele>488.487183</ele>
        <time>2011-12-11T14:49:10Z</time>
      </trkpt>
      <trkpt lat="43.62405" lon="6.6188">
        <ele>488.487183</ele>
        <time>2011-12-11T14:49:15Z</time>
      </trkpt>
      <trkpt lat="43.62408" lon="6.61882">
        <ele>488.00647</ele>
        <time>2011-12-11T14:49:18Z</time>
      </trkpt>
      <trkpt lat="43.62413" lon="6.61885">
        <ele>488.00647</ele>
        <time>2011-12-11T14:49:23Z</time>
      </trkpt>
      <trkpt lat="43.62419" lon="6.61886">
        <ele>489.448364</ele>
        <time>2011-12-11T14:49:37Z</time>
      </trkpt>
      <trkpt lat="43.62423" lon="6.61891">
        <ele>489.448364</ele>
        <time>2011-12-11T14:49:43Z</time>
      </trkpt>
      <trkpt lat="43.62435" lon="6.61902">
        <ele>490.40979</ele>
        <time>2011-12-11T14:49:57Z</time>
      </trkpt>
      <trkpt lat="43.62437" lon="6.61906">
        <ele>490.890381</ele>
        <time>2011-12-11T14:50:02Z</time>
      </trkpt>
      <trkpt lat="43.62448" lon="6.61917">
        <ele>493.293579</ele>
        <time>2011-12-11T14:50:15Z</time>
      </trkpt>
      <trkpt lat="43.62462" lon="6.61936">
        <ele>497.138916</ele>
        <time>2011-12-11T14:50:33Z</time>
      </trkpt>
      <trkpt lat="43.62466" lon="6.61955">
        <ele>498.580933</ele>
        <time>2011-12-11T14:50:45Z</time>
      </trkpt>
      <trkpt lat="43.62464" lon="6.61959">
        <ele>499.542236</ele>
        <time>2011-12-11T14:50:49Z</time>
      </trkpt>
      <trkpt lat="43.62461" lon="6.61961">
        <ele>500.50354</ele>
        <time>2011-12-11T14:50:52Z</time>
      </trkpt>
      <trkpt lat="43.62455" lon="6.61972">
        <ele>503.868164</ele>
        <time>2011-12-11T14:51:06Z</time>
      </trkpt>
      <trkpt lat="43.62441" lon="6.61996">
        <ele>508.674683</ele>
        <time>2011-12-11T14:51:23Z</time>
      </trkpt>
      <trkpt lat="43.62442" lon="6.62017">
        <ele>511.558716</ele>
        <time>2011-12-11T14:51:33Z</time>
      </trkpt>
      <trkpt lat="43.62452" lon="6.62062">
        <ele>517.32666</ele>
        <time>2011-12-11T14:51:56Z</time>
      </trkpt>
      <trkpt lat="43.6246" lon="6.62087">
        <ele>515.884644</ele>
        <time>2011-12-11T14:52:13Z</time>
      </trkpt>
      <trkpt lat="43.62461" lon="6.62091">
        <ele>515.404053</ele>
        <time>2011-12-11T14:52:16Z</time>
      </trkpt>
      <trkpt lat="43.62468" lon="6.62108">
        <ele>513.962036</ele>
        <time>2011-12-11T14:52:29Z</time>
      </trkpt>
      <trkpt lat="43.6247" lon="6.62115">
        <ele>513.481445</ele>
        <time>2011-12-11T14:52:34Z</time>
      </trkpt>
      <trkpt lat="43.62482" lon="6.62138">
        <ele>509.155396</ele>
        <time>2011-12-11T14:52:56Z</time>
      </trkpt>
      <trkpt lat="43.62491" lon="6.62154">
        <ele>506.271484</ele>
        <time>2011-12-11T14:53:10Z</time>
      </trkpt>
      <trkpt lat="43.62508" lon="6.62166">
        <ele>504.348877</ele>
        <time>2011-12-11T14:53:29Z</time>
      </trkpt>
      <trkpt lat="43.62521" lon="6.62164">
        <ele>502.426147</ele>
        <time>2011-12-11T14:53:41Z</time>
      </trkpt>
      <trkpt lat="43.62524" lon="6.62166">
        <ele>502.426147</ele>
        <time>2011-12-11T14:53:44Z</time>
      </trkpt>
      <trkpt lat="43.62539" lon="6.62168">
        <ele>504.829468</ele>
        <time>2011-12-11T14:53:57Z</time>
      </trkpt>
      <trkpt lat="43.62554" lon="6.62175">
        <ele>508.674683</ele>
        <time>2011-12-11T14:54:14Z</time>
      </trkpt>
      <trkpt lat="43.6257" lon="6.6218">
        <ele>511.078003</ele>
        <time>2011-12-11T14:54:29Z</time>
      </trkpt>
      <trkpt lat="43.62582" lon="6.62181">
        <ele>511.078003</ele>
        <time>2011-12-11T14:54:42Z</time>
      </trkpt>
      <trkpt lat="43.62591" lon="6.62181">
        <ele>510.59729</ele>
        <time>2011-12-11T14:54:50Z</time>
      </trkpt>
      <trkpt lat="43.62607" lon="6.62182">
        <ele>511.078003</ele>
        <time>2011-12-11T14:55:07Z</time>
      </trkpt>
      <trkpt lat="43.62623" lon="6.62189">
        <ele>512.52002</ele>
        <time>2011-12-11T14:55:23Z</time>
      </trkpt>
      <trkpt lat="43.62626" lon="6.62191">
        <ele>512.52002</ele>
        <time>2011-12-11T14:55:27Z</time>
      </trkpt>
      <trkpt lat="43.6263" lon="6.62201">
        <ele>512.52002</ele>
        <time>2011-12-11T14:55:32Z</time>
      </trkpt>
      <trkpt lat="43.62636" lon="6.62209">
        <ele>513.000732</ele>
        <time>2011-12-11T14:55:39Z</time>
      </trkpt>
      <trkpt lat="43.62641" lon="6.62215">
        <ele>512.52002</ele>
        <time>2011-12-11T14:55:45Z</time>
      </trkpt>
      <trkpt lat="43.62643" lon="6.6222">
        <ele>513.000732</ele>
        <time>2011-12-11T14:55:49Z</time>
      </trkpt>
      <trkpt lat="43.62644" lon="6.62224">
        <ele>513.000732</ele>
        <time>2011-12-11T14:55:51Z</time>
      </trkpt>
      <trkpt lat="43.62658" lon="6.6224">
        <ele>514.92334</ele>
        <time>2011-12-11T14:56:06Z</time>
      </trkpt>
      <trkpt lat="43.62661" lon="6.62244">
        <ele>515.404053</ele>
        <time>2011-12-11T14:56:09Z</time>
      </trkpt>
      <trkpt lat="43.62667" lon="6.62251">
        <ele>516.365234</ele>
        <time>2011-12-11T14:56:16Z</time>
      </trkpt>
      <trkpt lat="43.62671" lon="6.62258">
        <ele>517.32666</ele>
        <time>2011-12-11T14:56:21Z</time>
      </trkpt>
      <trkpt lat="43.62672" lon="6.62264">
        <ele>517.807251</ele>
        <time>2011-12-11T14:56:25Z</time>
      </trkpt>
      <trkpt lat="43.62675" lon="6.62273">
        <ele>518.768555</ele>
        <time>2011-12-11T14:56:31Z</time>
      </trkpt>
      <trkpt lat="43.62692" lon="6.62274">
        <ele>519.249268</ele>
        <time>2011-12-11T14:56:44Z</time>
      </trkpt>
      <trkpt lat="43.62704" lon="6.62279">
        <ele>518.768555</ele>
        <time>2011-12-11T14:56:55Z</time>
      </trkpt>
      <trkpt lat="43.62718" lon="6.62289">
        <ele>517.32666</ele>
        <time>2011-12-11T14:57:11Z</time>
      </trkpt>
      <trkpt lat="43.62729" lon="6.6229">
        <ele>513.000732</ele>
        <time>2011-12-11T14:57:20Z</time>
      </trkpt>
      <trkpt lat="43.62731" lon="6.62294">
        <ele>513.481445</ele>
        <time>2011-12-11T14:57:23Z</time>
      </trkpt>
      <trkpt lat="43.62734" lon="6.62304">
        <ele>514.92334</ele>
        <time>2011-12-11T14:57:29Z</time>
      </trkpt>
      <trkpt lat="43.62736" lon="6.62308">
        <ele>515.404053</ele>
        <time>2011-12-11T14:57:32Z</time>
      </trkpt>
      <trkpt lat="43.62741" lon="6.62324">
        <ele>515.884644</ele>
        <time>2011-12-11T14:57:43Z</time>
      </trkpt>
      <trkpt lat="43.62743" lon="6.62328">
        <ele>515.884644</ele>
        <time>2011-12-11T14:57:46Z</time>
      </trkpt>
      <trkpt lat="43.6275" lon="6.62341">
        <ele>515.884644</ele>
        <time>2011-12-11T14:57:57Z</time>
      </trkpt>
      <trkpt lat="43.62753" lon="6.62343">
        <ele>515.884644</ele>
        <time>2011-12-11T14:58:00Z</time>
      </trkpt>
      <trkpt lat="43.62757" lon="6.62348">
        <ele>514.442627</ele>
        <time>2011-12-11T14:58:06Z</time>
      </trkpt>
      <trkpt lat="43.62763" lon="6.62342">
        <ele>508.194092</ele>
        <time>2011-12-11T14:58:14Z</time>
      </trkpt>
      <trkpt lat="43.62769" lon="6.6236">
        <ele>509.155396</ele>
        <time>2011-12-11T14:58:25Z</time>
      </trkpt>
      <trkpt lat="43.62771" lon="6.6237">
        <ele>509.636108</ele>
        <time>2011-12-11T14:58:30Z</time>
      </trkpt>
      <trkpt lat="43.62777" lon="6.62402">
        <ele>513.481445</ele>
        <time>2011-12-11T14:58:50Z</time>
      </trkpt>
      <trkpt lat="43.62778" lon="6.62409">
        <ele>513.962036</ele>
        <time>2011-12-11T14:58:54Z</time>
      </trkpt>
      <trkpt lat="43.62781" lon="6.62435">
        <ele>514.92334</ele>
        <time>2011-12-11T14:59:09Z</time>
      </trkpt>
      <trkpt lat="43.6279" lon="6.62454">
        <ele>509.636108</ele>
        <time>2011-12-11T14:59:27Z</time>
      </trkpt>
      <trkpt lat="43.62797" lon="6.62469">
        <ele>500.984131</ele>
        <time>2011-12-11T14:59:47Z</time>
      </trkpt>
      <trkpt lat="43.62811" lon="6.62482">
        <ele>494.255005</ele>
        <time>2011-12-11T15:00:03Z</time>
      </trkpt>
      <trkpt lat="43.62826" lon="6.62491">
        <ele>490.40979</ele>
        <time>2011-12-11T15:00:17Z</time>
      </trkpt>
      <trkpt lat="43.62843" lon="6.62505">
        <ele>488.00647</ele>
        <time>2011-12-11T15:00:36Z</time>
      </trkpt>
      <trkpt lat="43.62847" lon="6.62508">
        <ele>487.525635</ele>
        <time>2011-12-11T15:00:40Z</time>
      </trkpt>
      <trkpt lat="43.62857" lon="6.6252">
        <ele>487.045044</ele>
        <time>2011-12-11T15:00:59Z</time>
      </trkpt>
      <trkpt lat="43.62858" lon="6.62522">
        <ele>486.564453</ele>
        <time>2011-12-11T15:01:04Z</time>
      </trkpt>
      <trkpt lat="43.62866" lon="6.62525">
        <ele>485.603027</ele>
        <time>2011-12-11T15:01:11Z</time>
      </trkpt>
      <trkpt lat="43.62879" lon="6.62533">
        <ele>485.603027</ele>
        <time>2011-12-11T15:01:24Z</time>
      </trkpt>
      <trkpt lat="43.62878" lon="6.62556">
        <ele>482.719238</ele>
        <time>2011-12-11T15:01:44Z</time>
      </trkpt>
      <trkpt lat="43.62859" lon="6.62561">
        <ele>481.277222</ele>
        <time>2011-12-11T15:02:05Z</time>
      </trkpt>
      <trkpt lat="43.62851" lon="6.62563">
        <ele>480.796631</ele>
        <time>2011-12-11T15:02:13Z</time>
      </trkpt>
      <trkpt lat="43.62831" lon="6.62578">
        <ele>479.835083</ele>
        <time>2011-12-11T15:02:35Z</time>
      </trkpt>
      <trkpt lat="43.62816" lon="6.62601">
        <ele>479.354492</ele>
        <time>2011-12-11T15:02:51Z</time>
      </trkpt>
      <trkpt lat="43.62815" lon="6.62633">
        <ele>476.951294</ele>
        <time>2011-12-11T15:03:13Z</time>
      </trkpt>
      <trkpt lat="43.62816" lon="6.62656">
        <ele>474.547974</ele>
        <time>2011-12-11T15:03:28Z</time>
      </trkpt>
      <trkpt lat="43.62813" lon="6.62687">
        <ele>472.625366</ele>
        <time>2011-12-11T15:03:48Z</time>
      </trkpt>
      <trkpt lat="43.62807" lon="6.62704">
        <ele>471.18335</ele>
        <time>2011-12-11T15:04:02Z</time>
      </trkpt>
      <trkpt lat="43.62801" lon="6.62721">
        <ele>468.299316</ele>
        <time>2011-12-11T15:04:16Z</time>
      </trkpt>
      <trkpt lat="43.62794" lon="6.62745">
        <ele>463.012085</ele>
        <time>2011-12-11T15:04:36Z</time>
      </trkpt>
      <trkpt lat="43.62788" lon="6.62774">
        <ele>458.205566</ele>
        <time>2011-12-11T15:04:56Z</time>
      </trkpt>
      <trkpt lat="43.62787" lon="6.62797">
        <ele>455.802246</ele>
        <time>2011-12-11T15:05:15Z</time>
      </trkpt>
      <trkpt lat="43.62783" lon="6.62827">
        <ele>453.879639</ele>
        <time>2011-12-11T15:05:37Z</time>
      </trkpt>
      <trkpt lat="43.62775" lon="6.62851">
        <ele>455.321533</ele>
        <time>2011-12-11T15:05:55Z</time>
      </trkpt>
      <trkpt lat="43.6277" lon="6.62865">
        <ele>456.76355</ele>
        <time>2011-12-11T15:06:08Z</time>
      </trkpt>
      <trkpt lat="43.62766" lon="6.62881">
        <ele>458.205566</ele>
        <time>2011-12-11T15:06:22Z</time>
      </trkpt>
      <trkpt lat="43.62763" lon="6.62907">
        <ele>463.973389</ele>
        <time>2011-12-11T15:06:39Z</time>
      </trkpt>
      <trkpt lat="43.62767" lon="6.62937">
        <ele>465.896118</ele>
        <time>2011-12-11T15:06:57Z</time>
      </trkpt>
      <trkpt lat="43.62759" lon="6.62955">
        <ele>464.454102</ele>
        <time>2011-12-11T15:07:11Z</time>
      </trkpt>
      <trkpt lat="43.62751" lon="6.62966">
        <ele>465.896118</ele>
        <time>2011-12-11T15:07:24Z</time>
      </trkpt>
      <trkpt lat="43.62739" lon="6.62994">
        <ele>467.338135</ele>
        <time>2011-12-11T15:07:44Z</time>
      </trkpt>
      <trkpt lat="43.62731" lon="6.63017">
        <ele>468.299316</ele>
        <time>2011-12-11T15:07:59Z</time>
      </trkpt>
      <trkpt lat="43.62727" lon="6.63042">
        <ele>467.818726</ele>
        <time>2011-12-11T15:08:15Z</time>
      </trkpt>
      <trkpt lat="43.62724" lon="6.63069">
        <ele>467.818726</ele>
        <time>2011-12-11T15:08:37Z</time>
      </trkpt>
      <trkpt lat="43.62719" lon="6.63082">
        <ele>469.741333</ele>
        <time>2011-12-11T15:09:00Z</time>
      </trkpt>
      <trkpt lat="43.62722" lon="6.63101">
        <ele>468.299316</ele>
        <time>2011-12-11T15:10:07Z</time>
      </trkpt>
      <trkpt lat="43.62723" lon="6.63127">
        <ele>465.415527</ele>
        <time>2011-12-11T15:10:27Z</time>
      </trkpt>
      <trkpt lat="43.62723" lon="6.63147">
        <ele>463.973389</ele>
        <time>2011-12-11T15:10:43Z</time>
      </trkpt>
      <trkpt lat="43.62721" lon="6.63171">
        <ele>466.376709</ele>
        <time>2011-12-11T15:11:02Z</time>
      </trkpt>
      <trkpt lat="43.62716" lon="6.63207">
        <ele>467.818726</ele>
        <time>2011-12-11T15:11:24Z</time>
      </trkpt>
      <trkpt lat="43.62714" lon="6.63215">
        <ele>468.299316</ele>
        <time>2011-12-11T15:11:28Z</time>
      </trkpt>
      <trkpt lat="43.62706" lon="6.63234">
        <ele>469.741333</ele>
        <time>2011-12-11T15:11:44Z</time>
      </trkpt>
      <trkpt lat="43.627" lon="6.6325">
        <ele>470.221924</ele>
        <time>2011-12-11T15:11:58Z</time>
      </trkpt>
      <trkpt lat="43.62692" lon="6.63274">
        <ele>471.18335</ele>
        <time>2011-12-11T15:12:17Z</time>
      </trkpt>
      <trkpt lat="43.62687" lon="6.63294">
        <ele>469.741333</ele>
        <time>2011-12-11T15:12:32Z</time>
      </trkpt>
      <trkpt lat="43.62684" lon="6.63316">
        <ele>466.376709</ele>
        <time>2011-12-11T15:12:49Z</time>
      </trkpt>
      <trkpt lat="43.62676" lon="6.6334">
        <ele>463.012085</ele>
        <time>2011-12-11T15:13:07Z</time>
      </trkpt>
      <trkpt lat="43.6267" lon="6.63368">
        <ele>463.492798</ele>
        <time>2011-12-11T15:13:26Z</time>
      </trkpt>
      <trkpt lat="43.62671" lon="6.63385">
        <ele>466.376709</ele>
        <time>2011-12-11T15:13:38Z</time>
      </trkpt>
      <trkpt lat="43.62676" lon="6.63406">
        <ele>465.896118</ele>
        <time>2011-12-11T15:13:56Z</time>
      </trkpt>
      <trkpt lat="43.62684" lon="6.63426">
        <ele>467.818726</ele>
        <time>2011-12-11T15:14:12Z</time>
      </trkpt>
      <trkpt lat="43.62692" lon="6.63447">
        <ele>470.702637</ele>
        <time>2011-12-11T15:14:34Z</time>
      </trkpt>
      <trkpt lat="43.627" lon="6.63463">
        <ele>471.18335</ele>
        <time>2011-12-11T15:14:50Z</time>
      </trkpt>
      <trkpt lat="43.62711" lon="6.63478">
        <ele>471.18335</ele>
        <time>2011-12-11T15:15:06Z</time>
      </trkpt>
      <trkpt lat="43.62722" lon="6.63496">
        <ele>471.18335</ele>
        <time>2011-12-11T15:15:26Z</time>
      </trkpt>
      <trkpt lat="43.62732" lon="6.63513">
        <ele>471.66394</ele>
        <time>2011-12-11T15:15:44Z</time>
      </trkpt>
      <trkpt lat="43.62749" lon="6.63534">
        <ele>474.067261</ele>
        <time>2011-12-11T15:16:05Z</time>
      </trkpt>
      <trkpt lat="43.6276" lon="6.63547">
        <ele>473.58667</ele>
        <time>2011-12-11T15:16:20Z</time>
      </trkpt>
      <trkpt lat="43.62779" lon="6.63564">
        <ele>473.58667</ele>
        <time>2011-12-11T15:16:40Z</time>
      </trkpt>
      <trkpt lat="43.62794" lon="6.63575">
        <ele>473.106079</ele>
        <time>2011-12-11T15:16:57Z</time>
      </trkpt>
      <trkpt lat="43.62796" lon="6.63576">
        <ele>472.625366</ele>
        <time>2011-12-11T15:16:59Z</time>
      </trkpt>
      <trkpt lat="43.62802" lon="6.63579">
        <ele>471.66394</ele>
        <time>2011-12-11T15:17:05Z</time>
      </trkpt>
      <trkpt lat="43.62814" lon="6.63584">
        <ele>469.260742</ele>
        <time>2011-12-11T15:17:20Z</time>
      </trkpt>
      <trkpt lat="43.62827" lon="6.63586">
        <ele>468.780029</ele>
        <time>2011-12-11T15:17:32Z</time>
      </trkpt>
      <trkpt lat="43.62847" lon="6.6359">
        <ele>467.818726</ele>
        <time>2011-12-11T15:17:50Z</time>
      </trkpt>
      <trkpt lat="43.62861" lon="6.63596">
        <ele>465.896118</ele>
        <time>2011-12-11T15:18:06Z</time>
      </trkpt>
      <trkpt lat="43.62868" lon="6.63598">
        <ele>466.376709</ele>
        <time>2011-12-11T15:18:13Z</time>
      </trkpt>
      <trkpt lat="43.62878" lon="6.63603">
        <ele>466.857422</ele>
        <time>2011-12-11T15:18:22Z</time>
      </trkpt>
      <trkpt lat="43.62892" lon="6.63613">
        <ele>465.896118</ele>
        <time>2011-12-11T15:18:37Z</time>
      </trkpt>
      <trkpt lat="43.62895" lon="6.63615">
        <ele>464.934814</ele>
        <time>2011-12-11T15:18:40Z</time>
      </trkpt>
      <trkpt lat="43.62915" lon="6.63633">
        <ele>461.57019</ele>
        <time>2011-12-11T15:19:03Z</time>
      </trkpt>
      <trkpt lat="43.62922" lon="6.6364">
        <ele>461.089478</ele>
        <time>2011-12-11T15:19:11Z</time>
      </trkpt>
      <trkpt lat="43.62941" lon="6.63647">
        <ele>460.608765</ele>
        <time>2011-12-11T15:19:30Z</time>
      </trkpt>
      <trkpt lat="43.62954" lon="6.63651">
        <ele>461.57019</ele>
        <time>2011-12-11T15:19:43Z</time>
      </trkpt>
      <trkpt lat="43.62967" lon="6.63659">
        <ele>462.531372</ele>
        <time>2011-12-11T15:19:58Z</time>
      </trkpt>
      <trkpt lat="43.62969" lon="6.63661">
        <ele>463.012085</ele>
        <time>2011-12-11T15:20:00Z</time>
      </trkpt>
      <trkpt lat="43.62977" lon="6.63666">
        <ele>463.012085</ele>
        <time>2011-12-11T15:20:08Z</time>
      </trkpt>
      <trkpt lat="43.62986" lon="6.63671">
        <ele>463.492798</ele>
        <time>2011-12-11T15:20:17Z</time>
      </trkpt>
      <trkpt lat="43.62989" lon="6.63674">
        <ele>463.492798</ele>
        <time>2011-12-11T15:20:20Z</time>
      </trkpt>
      <trkpt lat="43.63006" lon="6.63689">
        <ele>463.012085</ele>
        <time>2011-12-11T15:20:39Z</time>
      </trkpt>
      <trkpt lat="43.63024" lon="6.63702">
        <ele>459.647583</ele>
        <time>2011-12-11T15:21:01Z</time>
      </trkpt>
      <trkpt lat="43.63035" lon="6.63711">
        <ele>458.686157</ele>
        <time>2011-12-11T15:21:16Z</time>
      </trkpt>
      <trkpt lat="43.63048" lon="6.63723">
        <ele>457.244263</ele>
        <time>2011-12-11T15:21:32Z</time>
      </trkpt>
      <trkpt lat="43.63064" lon="6.6374">
        <ele>453.398926</ele>
        <time>2011-12-11T15:21:52Z</time>
      </trkpt>
      <trkpt lat="43.63073" lon="6.63749">
        <ele>451.957031</ele>
        <time>2011-12-11T15:22:04Z</time>
      </trkpt>
      <trkpt lat="43.63087" lon="6.63768">
        <ele>452.437622</ele>
        <time>2011-12-11T15:22:21Z</time>
      </trkpt>
      <trkpt lat="43.63087" lon="6.63772">
        <ele>452.437622</ele>
        <time>2011-12-11T15:22:23Z</time>
      </trkpt>
      <trkpt lat="43.63097" lon="6.6378">
        <ele>448.592407</ele>
        <time>2011-12-11T15:22:36Z</time>
      </trkpt>
      <trkpt lat="43.6311" lon="6.63794">
        <ele>448.592407</ele>
        <time>2011-12-11T15:22:50Z</time>
      </trkpt>
      <trkpt lat="43.63121" lon="6.63802">
        <ele>445.708374</ele>
        <time>2011-12-11T15:23:04Z</time>
      </trkpt>
      <trkpt lat="43.63126" lon="6.63821">
        <ele>442.824463</ele>
        <time>2011-12-11T15:23:22Z</time>
      </trkpt>
      <trkpt lat="43.63125" lon="6.63834">
        <ele>442.824463</ele>
        <time>2011-12-11T15:23:30Z</time>
      </trkpt>
      <trkpt lat="43.63115" lon="6.63872">
        <ele>439.459717</ele>
        <time>2011-12-11T15:23:58Z</time>
      </trkpt>
      <trkpt lat="43.63112" lon="6.63908">
        <ele>435.614502</ele>
        <time>2011-12-11T15:24:25Z</time>
      </trkpt>
      <trkpt lat="43.63112" lon="6.63944">
        <ele>434.172607</ele>
        <time>2011-12-11T15:24:50Z</time>
      </trkpt>
      <trkpt lat="43.63115" lon="6.63974">
        <ele>433.211304</ele>
        <time>2011-12-11T15:25:09Z</time>
      </trkpt>
      <trkpt lat="43.63119" lon="6.63985">
        <ele>433.211304</ele>
        <time>2011-12-11T15:25:18Z</time>
      </trkpt>
      <trkpt lat="43.6312" lon="6.63989">
        <ele>432.730713</ele>
        <time>2011-12-11T15:25:21Z</time>
      </trkpt>
      <trkpt lat="43.63127" lon="6.64001">
        <ele>432.25</ele>
        <time>2011-12-11T15:25:30Z</time>
      </trkpt>
      <trkpt lat="43.63135" lon="6.64013">
        <ele>430.807983</ele>
        <time>2011-12-11T15:25:45Z</time>
      </trkpt>
      <trkpt lat="43.6316" lon="6.64025">
        <ele>427.92395</ele>
        <time>2011-12-11T15:26:09Z</time>
      </trkpt>
      <trkpt lat="43.63176" lon="6.64048">
        <ele>428.885376</ele>
        <time>2011-12-11T15:26:29Z</time>
      </trkpt>
      <trkpt lat="43.6319" lon="6.64072">
        <ele>428.404663</ele>
        <time>2011-12-11T15:26:50Z</time>
      </trkpt>
      <trkpt lat="43.63192" lon="6.64083">
        <ele>427.443359</ele>
        <time>2011-12-11T15:27:00Z</time>
      </trkpt>
      <trkpt lat="43.63176" lon="6.64092">
        <ele>425.520752</ele>
        <time>2011-12-11T15:27:20Z</time>
      </trkpt>
      <trkpt lat="43.63179" lon="6.64114">
        <ele>420.714111</ele>
        <time>2011-12-11T15:27:39Z</time>
      </trkpt>
      <trkpt lat="43.63196" lon="6.64143">
        <ele>417.349609</ele>
        <time>2011-12-11T15:28:07Z</time>
      </trkpt>
      <trkpt lat="43.6321" lon="6.64157">
        <ele>413.02356</ele>
        <time>2011-12-11T15:28:26Z</time>
      </trkpt>
      <trkpt lat="43.63225" lon="6.64168">
        <ele>411.581665</ele>
        <time>2011-12-11T15:28:43Z</time>
      </trkpt>
      <trkpt lat="43.63253" lon="6.64183">
        <ele>410.139648</ele>
        <time>2011-12-11T15:29:19Z</time>
      </trkpt>
      <trkpt lat="43.63255" lon="6.64184">
        <ele>410.620239</ele>
        <time>2011-12-11T15:29:24Z</time>
      </trkpt>
      <trkpt lat="43.63269" lon="6.64191">
        <ele>408.217041</ele>
        <time>2011-12-11T15:29:40Z</time>
      </trkpt>
      <trkpt lat="43.63277" lon="6.64189">
        <ele>406.774902</ele>
        <time>2011-12-11T15:29:48Z</time>
      </trkpt>
      <trkpt lat="43.6329" lon="6.64191">
        <ele>406.294312</ele>
        <time>2011-12-11T15:30:02Z</time>
      </trkpt>
      <trkpt lat="43.63303" lon="6.64194">
        <ele>403.891113</ele>
        <time>2011-12-11T15:30:18Z</time>
      </trkpt>
      <trkpt lat="43.63312" lon="6.64184">
        <ele>402.929688</ele>
        <time>2011-12-11T15:30:35Z</time>
      </trkpt>
      <trkpt lat="43.63314" lon="6.64183">
        <ele>402.929688</ele>
        <time>2011-12-11T15:30:39Z</time>
      </trkpt>
      <trkpt lat="43.63329" lon="6.64174">
        <ele>400.045898</ele>
        <time>2011-12-11T15:30:55Z</time>
      </trkpt>
      <trkpt lat="43.63329" lon="6.64176">
        <ele>400.045898</ele>
        <time>2011-12-11T15:30:56Z</time>
      </trkpt>
      <trkpt lat="43.63328" lon="6.64202">
        <ele>397.161743</ele>
        <time>2011-12-11T15:31:19Z</time>
      </trkpt>
      <trkpt lat="43.63331" lon="6.64188">
        <ele>395.719849</ele>
        <time>2011-12-11T15:31:29Z</time>
      </trkpt>
      <trkpt lat="43.63337" lon="6.64157">
        <ele>394.277954</ele>
        <time>2011-12-11T15:31:52Z</time>
      </trkpt>
      <trkpt lat="43.63349" lon="6.64139">
        <ele>392.835938</ele>
        <time>2011-12-11T15:32:04Z</time>
      </trkpt>
      <trkpt lat="43.63357" lon="6.64134">
        <ele>392.355347</ele>
        <time>2011-12-11T15:32:10Z</time>
      </trkpt>
      <trkpt lat="43.63365" lon="6.6413">
        <ele>390.432617</ele>
        <time>2011-12-11T15:32:17Z</time>
      </trkpt>
      <trkpt lat="43.63369" lon="6.64129">
        <ele>390.913208</ele>
        <time>2011-12-11T15:32:20Z</time>
      </trkpt>
      <trkpt lat="43.63372" lon="6.64129">
        <ele>390.913208</ele>
        <time>2011-12-11T15:32:22Z</time>
      </trkpt>
      <trkpt lat="43.63387" lon="6.64129">
        <ele>390.913208</ele>
        <time>2011-12-11T15:32:37Z</time>
      </trkpt>
      <trkpt lat="43.63399" lon="6.64135">
        <ele>390.913208</ele>
        <time>2011-12-11T15:32:52Z</time>
      </trkpt>
      <trkpt lat="43.63402" lon="6.64138">
        <ele>390.913208</ele>
        <time>2011-12-11T15:32:56Z</time>
      </trkpt>
      <trkpt lat="43.63412" lon="6.64155">
        <ele>391.393799</ele>
        <time>2011-12-11T15:33:14Z</time>
      </trkpt>
      <trkpt lat="43.63421" lon="6.64171">
        <ele>392.355347</ele>
        <time>2011-12-11T15:33:29Z</time>
      </trkpt>
      <trkpt lat="43.63428" lon="6.64179">
        <ele>392.355347</ele>
        <time>2011-12-11T15:33:38Z</time>
      </trkpt>
      <trkpt lat="43.63441" lon="6.64188">
        <ele>395.239136</ele>
        <time>2011-12-11T15:33:55Z</time>
      </trkpt>
      <trkpt lat="43.63454" lon="6.64198">
        <ele>399.084351</ele>
        <time>2011-12-11T15:34:10Z</time>
      </trkpt>
      <trkpt lat="43.63469" lon="6.6421">
        <ele>399.084351</ele>
        <time>2011-12-11T15:34:25Z</time>
      </trkpt>
      <trkpt lat="43.63482" lon="6.64222">
        <ele>400.045898</ele>
        <time>2011-12-11T15:34:42Z</time>
      </trkpt>
      <trkpt lat="43.63497" lon="6.64242">
        <ele>401.968506</ele>
        <time>2011-12-11T15:35:03Z</time>
      </trkpt>
      <trkpt lat="43.6351" lon="6.64256">
        <ele>402.449097</ele>
        <time>2011-12-11T15:35:19Z</time>
      </trkpt>
      <trkpt lat="43.63522" lon="6.64271">
        <ele>402.929688</ele>
        <time>2011-12-11T15:35:34Z</time>
      </trkpt>
      <trkpt lat="43.63535" lon="6.64279">
        <ele>401.487793</ele>
        <time>2011-12-11T15:35:49Z</time>
      </trkpt>
      <trkpt lat="43.63545" lon="6.64282">
        <ele>400.526489</ele>
        <time>2011-12-11T15:36:01Z</time>
      </trkpt>
      <trkpt lat="43.63555" lon="6.64273">
        <ele>399.084351</ele>
        <time>2011-12-11T15:36:18Z</time>
      </trkpt>
      <trkpt lat="43.63557" lon="6.64274">
        <ele>397.642456</ele>
        <time>2011-12-11T15:36:34Z</time>
      </trkpt>
      <trkpt lat="43.63565" lon="6.64266">
        <ele>397.161743</ele>
        <time>2011-12-11T15:36:49Z</time>
      </trkpt>
      <trkpt lat="43.63582" lon="6.64261">
        <ele>398.123169</ele>
        <time>2011-12-11T15:37:16Z</time>
      </trkpt>
      <trkpt lat="43.63584" lon="6.64264">
        <ele>398.60376</ele>
        <time>2011-12-11T15:37:31Z</time>
      </trkpt>
      <trkpt lat="43.6358" lon="6.64263">
        <ele>399.565063</ele>
        <time>2011-12-11T15:37:52Z</time>
      </trkpt>
      <trkpt lat="43.63587" lon="6.64275">
        <ele>400.045898</ele>
        <time>2011-12-11T15:38:10Z</time>
      </trkpt>
      <trkpt lat="43.63585" lon="6.64314">
        <ele>399.084351</ele>
        <time>2011-12-11T15:38:43Z</time>
      </trkpt>
      <trkpt lat="43.6358" lon="6.64342">
        <ele>397.642456</ele>
        <time>2011-12-11T15:39:14Z</time>
      </trkpt>
      <trkpt lat="43.63577" lon="6.64364">
        <ele>396.200562</ele>
        <time>2011-12-11T15:39:37Z</time>
      </trkpt>
      <trkpt lat="43.63574" lon="6.64387">
        <ele>393.797241</ele>
        <time>2011-12-11T15:40:02Z</time>
      </trkpt>
      <trkpt lat="43.63577" lon="6.64412">
        <ele>389.951904</ele>
        <time>2011-12-11T15:40:29Z</time>
      </trkpt>
      <trkpt lat="43.63587" lon="6.64416">
        <ele>388.51001</ele>
        <time>2011-12-11T15:40:55Z</time>
      </trkpt>
      <trkpt lat="43.6359" lon="6.64422">
        <ele>388.029297</ele>
        <time>2011-12-11T15:41:00Z</time>
      </trkpt>
      <trkpt lat="43.63599" lon="6.64421">
        <ele>387.067993</ele>
        <time>2011-12-11T15:41:19Z</time>
      </trkpt>
      <trkpt lat="43.63599" lon="6.6442">
        <ele>386.587402</ele>
        <time>2011-12-11T15:41:20Z</time>
      </trkpt>
      <trkpt lat="43.63615" lon="6.64427">
        <ele>383.703247</ele>
        <time>2011-12-11T15:41:41Z</time>
      </trkpt>
      <trkpt lat="43.63627" lon="6.64423">
        <ele>381.300049</ele>
        <time>2011-12-11T15:42:19Z</time>
      </trkpt>
      <trkpt lat="43.63642" lon="6.64421">
        <ele>379.858032</ele>
        <time>2011-12-11T15:42:35Z</time>
      </trkpt>
      <trkpt lat="43.63663" lon="6.6442">
        <ele>376.974243</ele>
        <time>2011-12-11T15:42:52Z</time>
      </trkpt>
      <trkpt lat="43.63665" lon="6.64414">
        <ele>376.974243</ele>
        <time>2011-12-11T15:43:07Z</time>
      </trkpt>
      <trkpt lat="43.63664" lon="6.64412">
        <ele>373.609497</ele>
        <time>2011-12-11T15:44:01Z</time>
      </trkpt>
      <trkpt lat="43.63665" lon="6.64421">
        <ele>375.051514</ele>
        <time>2011-12-11T15:44:18Z</time>
      </trkpt>
      <trkpt lat="43.63666" lon="6.64423">
        <ele>377.454834</ele>
        <time>2011-12-11T15:44:37Z</time>
      </trkpt>
      <trkpt lat="43.63666" lon="6.64424">
        <ele>376.974243</ele>
        <time>2011-12-11T15:44:38Z</time>
      </trkpt>
      <trkpt lat="43.63668" lon="6.64433">
        <ele>378.416138</ele>
        <time>2011-12-11T15:44:57Z</time>
      </trkpt>
      <trkpt lat="43.6367" lon="6.64436">
        <ele>378.896851</ele>
        <time>2011-12-11T15:45:12Z</time>
      </trkpt>
    </trkseg>
  </trk>
</gpx>